<?xml version="1.0" encoding="UTF-8" standalone="no" ?>
<gpx xmlns="http://www.topografix.com/GPX/1/1" xmlns:xsi="http://www.w3.org/2001/XMLSchema-instance" xsi:schemaLocation="http://www.topografix.com/GPX/1/1 http://www.topografix.com/GPX/1/1/gpx.xsd" version="1.1" creator="VisuGPX - https://www.visugpx.com">
  <metadata>
    <name>TARBEZOU 28 NOV 2013</name>
  </metadata>
  <trk>
    <name><![CDATA[TARBEZOU 28 NOV 2013]]></name>
    <trkseg>
      <trkpt lat="42.72805" lon="2.01734">
        <ele>1530.08</ele>
        <time>2013-11-28T07:16:39Z</time>
      </trkpt>
      <trkpt lat="42.72805" lon="2.01733">
        <ele>1531.04</ele>
        <time>2013-11-28T07:17:08Z</time>
      </trkpt>
      <trkpt lat="42.72808" lon="2.01734">
        <ele>1530.56</ele>
        <time>2013-11-28T07:17:23Z</time>
      </trkpt>
      <trkpt lat="42.72808" lon="2.01733">
        <ele>1531.04</ele>
        <time>2013-11-28T07:17:36Z</time>
      </trkpt>
      <trkpt lat="42.72808" lon="2.01733">
        <ele>1531.04</ele>
        <time>2013-11-28T07:17:55Z</time>
      </trkpt>
      <trkpt lat="42.72808" lon="2.01735">
        <ele>1532.48</ele>
        <time>2013-11-28T07:18:15Z</time>
      </trkpt>
      <trkpt lat="42.72809" lon="2.01736">
        <ele>1530.08</ele>
        <time>2013-11-28T07:18:52Z</time>
      </trkpt>
      <trkpt lat="42.72807" lon="2.01738">
        <ele>1532</ele>
        <time>2013-11-28T07:19:50Z</time>
      </trkpt>
      <trkpt lat="42.72806" lon="2.01736">
        <ele>1532</ele>
        <time>2013-11-28T07:20:33Z</time>
      </trkpt>
      <trkpt lat="42.72807" lon="2.01739">
        <ele>1531.04</ele>
        <time>2013-11-28T07:21:19Z</time>
      </trkpt>
      <trkpt lat="42.72807" lon="2.01735">
        <ele>1531.04</ele>
        <time>2013-11-28T07:21:32Z</time>
      </trkpt>
      <trkpt lat="42.72808" lon="2.01735">
        <ele>1529.59</ele>
        <time>2013-11-28T07:21:43Z</time>
      </trkpt>
      <trkpt lat="42.72807" lon="2.01734">
        <ele>1529.59</ele>
        <time>2013-11-28T07:21:51Z</time>
      </trkpt>
      <trkpt lat="42.72805" lon="2.01728">
        <ele>1529.59</ele>
        <time>2013-11-28T07:21:55Z</time>
      </trkpt>
      <trkpt lat="42.72805" lon="2.01723">
        <ele>1530.08</ele>
        <time>2013-11-28T07:21:59Z</time>
      </trkpt>
      <trkpt lat="42.72803" lon="2.01707">
        <ele>1530.56</ele>
        <time>2013-11-28T07:22:10Z</time>
      </trkpt>
      <trkpt lat="42.72798" lon="2.01696">
        <ele>1529.11</ele>
        <time>2013-11-28T07:22:24Z</time>
      </trkpt>
      <trkpt lat="42.7279" lon="2.01689">
        <ele>1527.19</ele>
        <time>2013-11-28T07:22:36Z</time>
      </trkpt>
      <trkpt lat="42.72788" lon="2.01683">
        <ele>1529.11</ele>
        <time>2013-11-28T07:22:48Z</time>
      </trkpt>
      <trkpt lat="42.72789" lon="2.01685">
        <ele>1529.11</ele>
        <time>2013-11-28T07:23:05Z</time>
      </trkpt>
      <trkpt lat="42.72788" lon="2.01684">
        <ele>1529.59</ele>
        <time>2013-11-28T07:23:23Z</time>
      </trkpt>
      <trkpt lat="42.72787" lon="2.01684">
        <ele>1529.59</ele>
        <time>2013-11-28T07:23:45Z</time>
      </trkpt>
      <trkpt lat="42.72784" lon="2.01683">
        <ele>1531.52</ele>
        <time>2013-11-28T07:23:57Z</time>
      </trkpt>
      <trkpt lat="42.72786" lon="2.01681">
        <ele>1528.63</ele>
        <time>2013-11-28T07:24:13Z</time>
      </trkpt>
      <trkpt lat="42.72787" lon="2.01682">
        <ele>1527.67</ele>
        <time>2013-11-28T07:24:28Z</time>
      </trkpt>
      <trkpt lat="42.72782" lon="2.01677">
        <ele>1529.11</ele>
        <time>2013-11-28T07:24:40Z</time>
      </trkpt>
      <trkpt lat="42.72771" lon="2.01668">
        <ele>1529.59</ele>
        <time>2013-11-28T07:24:52Z</time>
      </trkpt>
      <trkpt lat="42.72765" lon="2.01661">
        <ele>1531.04</ele>
        <time>2013-11-28T07:25:00Z</time>
      </trkpt>
      <trkpt lat="42.72755" lon="2.01652">
        <ele>1531.52</ele>
        <time>2013-11-28T07:25:13Z</time>
      </trkpt>
      <trkpt lat="42.72742" lon="2.01642">
        <ele>1534.4</ele>
        <time>2013-11-28T07:25:28Z</time>
      </trkpt>
      <trkpt lat="42.72741" lon="2.01641">
        <ele>1535.36</ele>
        <time>2013-11-28T07:25:30Z</time>
      </trkpt>
      <trkpt lat="42.72727" lon="2.01635">
        <ele>1536.8</ele>
        <time>2013-11-28T07:25:45Z</time>
      </trkpt>
      <trkpt lat="42.72714" lon="2.01631">
        <ele>1539.69</ele>
        <time>2013-11-28T07:26:01Z</time>
      </trkpt>
      <trkpt lat="42.72705" lon="2.01627">
        <ele>1541.13</ele>
        <time>2013-11-28T07:26:15Z</time>
      </trkpt>
      <trkpt lat="42.727" lon="2.01628">
        <ele>1543.05</ele>
        <time>2013-11-28T07:26:28Z</time>
      </trkpt>
      <trkpt lat="42.72702" lon="2.01626">
        <ele>1542.09</ele>
        <time>2013-11-28T07:26:47Z</time>
      </trkpt>
      <trkpt lat="42.72697" lon="2.01626">
        <ele>1542.57</ele>
        <time>2013-11-28T07:27:03Z</time>
      </trkpt>
      <trkpt lat="42.7269" lon="2.01622">
        <ele>1544.5</ele>
        <time>2013-11-28T07:27:15Z</time>
      </trkpt>
      <trkpt lat="42.72685" lon="2.01623">
        <ele>1544.5</ele>
        <time>2013-11-28T07:27:24Z</time>
      </trkpt>
      <trkpt lat="42.72676" lon="2.01627">
        <ele>1544.5</ele>
        <time>2013-11-28T07:27:39Z</time>
      </trkpt>
      <trkpt lat="42.72667" lon="2.0163">
        <ele>1548.82</ele>
        <time>2013-11-28T07:27:55Z</time>
      </trkpt>
      <trkpt lat="42.72658" lon="2.01633">
        <ele>1552.67</ele>
        <time>2013-11-28T07:28:10Z</time>
      </trkpt>
      <trkpt lat="42.72655" lon="2.01628">
        <ele>1556.51</ele>
        <time>2013-11-28T07:28:24Z</time>
      </trkpt>
      <trkpt lat="42.72657" lon="2.0162">
        <ele>1559.4</ele>
        <time>2013-11-28T07:28:38Z</time>
      </trkpt>
      <trkpt lat="42.7265" lon="2.01616">
        <ele>1563.24</ele>
        <time>2013-11-28T07:28:51Z</time>
      </trkpt>
      <trkpt lat="42.72638" lon="2.01622">
        <ele>1566.12</ele>
        <time>2013-11-28T07:29:07Z</time>
      </trkpt>
      <trkpt lat="42.72634" lon="2.01627">
        <ele>1568.05</ele>
        <time>2013-11-28T07:29:20Z</time>
      </trkpt>
      <trkpt lat="42.72629" lon="2.01619">
        <ele>1571.41</ele>
        <time>2013-11-28T07:29:33Z</time>
      </trkpt>
      <trkpt lat="42.7263" lon="2.01614">
        <ele>1574.3</ele>
        <time>2013-11-28T07:29:47Z</time>
      </trkpt>
      <trkpt lat="42.72629" lon="2.01608">
        <ele>1575.74</ele>
        <time>2013-11-28T07:30:02Z</time>
      </trkpt>
      <trkpt lat="42.72621" lon="2.0161">
        <ele>1576.7</ele>
        <time>2013-11-28T07:30:18Z</time>
      </trkpt>
      <trkpt lat="42.72613" lon="2.01617">
        <ele>1580.06</ele>
        <time>2013-11-28T07:30:32Z</time>
      </trkpt>
      <trkpt lat="42.72612" lon="2.01614">
        <ele>1581.51</ele>
        <time>2013-11-28T07:30:42Z</time>
      </trkpt>
      <trkpt lat="42.72613" lon="2.01606">
        <ele>1582.95</ele>
        <time>2013-11-28T07:30:54Z</time>
      </trkpt>
      <trkpt lat="42.72611" lon="2.01604">
        <ele>1582.95</ele>
        <time>2013-11-28T07:31:06Z</time>
      </trkpt>
      <trkpt lat="42.72605" lon="2.01612">
        <ele>1583.43</ele>
        <time>2013-11-28T07:31:21Z</time>
      </trkpt>
      <trkpt lat="42.72603" lon="2.01615">
        <ele>1581.51</ele>
        <time>2013-11-28T07:31:34Z</time>
      </trkpt>
      <trkpt lat="42.72606" lon="2.0161">
        <ele>1581.03</ele>
        <time>2013-11-28T07:31:41Z</time>
      </trkpt>
      <trkpt lat="42.72606" lon="2.01601">
        <ele>1581.03</ele>
        <time>2013-11-28T07:31:59Z</time>
      </trkpt>
      <trkpt lat="42.72598" lon="2.01605">
        <ele>1582.95</ele>
        <time>2013-11-28T07:32:10Z</time>
      </trkpt>
      <trkpt lat="42.72594" lon="2.01611">
        <ele>1586.31</ele>
        <time>2013-11-28T07:32:25Z</time>
      </trkpt>
      <trkpt lat="42.72595" lon="2.01611">
        <ele>1584.39</ele>
        <time>2013-11-28T07:32:38Z</time>
      </trkpt>
      <trkpt lat="42.72594" lon="2.01603">
        <ele>1587.27</ele>
        <time>2013-11-28T07:32:51Z</time>
      </trkpt>
      <trkpt lat="42.72593" lon="2.016">
        <ele>1587.75</ele>
        <time>2013-11-28T07:32:58Z</time>
      </trkpt>
      <trkpt lat="42.72586" lon="2.01606">
        <ele>1589.2</ele>
        <time>2013-11-28T07:33:09Z</time>
      </trkpt>
      <trkpt lat="42.72583" lon="2.0161">
        <ele>1592.08</ele>
        <time>2013-11-28T07:33:26Z</time>
      </trkpt>
      <trkpt lat="42.72584" lon="2.01607">
        <ele>1593.04</ele>
        <time>2013-11-28T07:33:38Z</time>
      </trkpt>
      <trkpt lat="42.72582" lon="2.01599">
        <ele>1594</ele>
        <time>2013-11-28T07:33:52Z</time>
      </trkpt>
      <trkpt lat="42.72583" lon="2.01599">
        <ele>1593.04</ele>
        <time>2013-11-28T07:34:06Z</time>
      </trkpt>
      <trkpt lat="42.72581" lon="2.01599">
        <ele>1594</ele>
        <time>2013-11-28T07:34:17Z</time>
      </trkpt>
      <trkpt lat="42.72579" lon="2.01602">
        <ele>1594</ele>
        <time>2013-11-28T07:34:21Z</time>
      </trkpt>
      <trkpt lat="42.72575" lon="2.01607">
        <ele>1596.41</ele>
        <time>2013-11-28T07:34:33Z</time>
      </trkpt>
      <trkpt lat="42.72573" lon="2.0161">
        <ele>1596.89</ele>
        <time>2013-11-28T07:34:36Z</time>
      </trkpt>
      <trkpt lat="42.72571" lon="2.01603">
        <ele>1597.85</ele>
        <time>2013-11-28T07:34:47Z</time>
      </trkpt>
      <trkpt lat="42.72568" lon="2.01597">
        <ele>1599.29</ele>
        <time>2013-11-28T07:35:01Z</time>
      </trkpt>
      <trkpt lat="42.72567" lon="2.01592">
        <ele>1600.25</ele>
        <time>2013-11-28T07:35:15Z</time>
      </trkpt>
      <trkpt lat="42.72566" lon="2.01598">
        <ele>1604.1</ele>
        <time>2013-11-28T07:35:30Z</time>
      </trkpt>
      <trkpt lat="42.72566" lon="2.01596">
        <ele>1606.02</ele>
        <time>2013-11-28T07:35:41Z</time>
      </trkpt>
      <trkpt lat="42.72561" lon="2.01588">
        <ele>1606.5</ele>
        <time>2013-11-28T07:35:55Z</time>
      </trkpt>
      <trkpt lat="42.72556" lon="2.01588">
        <ele>1606.5</ele>
        <time>2013-11-28T07:36:08Z</time>
      </trkpt>
      <trkpt lat="42.72551" lon="2.01589">
        <ele>1607.46</ele>
        <time>2013-11-28T07:36:24Z</time>
      </trkpt>
      <trkpt lat="42.72546" lon="2.01588">
        <ele>1607.46</ele>
        <time>2013-11-28T07:36:33Z</time>
      </trkpt>
      <trkpt lat="42.72542" lon="2.01581">
        <ele>1607.46</ele>
        <time>2013-11-28T07:36:46Z</time>
      </trkpt>
      <trkpt lat="42.72539" lon="2.01572">
        <ele>1607.94</ele>
        <time>2013-11-28T07:37:01Z</time>
      </trkpt>
      <trkpt lat="42.72537" lon="2.01565">
        <ele>1607.94</ele>
        <time>2013-11-28T07:37:13Z</time>
      </trkpt>
      <trkpt lat="42.72536" lon="2.01553">
        <ele>1611.31</ele>
        <time>2013-11-28T07:37:32Z</time>
      </trkpt>
      <trkpt lat="42.72536" lon="2.01545">
        <ele>1611.79</ele>
        <time>2013-11-28T07:37:44Z</time>
      </trkpt>
      <trkpt lat="42.72537" lon="2.01535">
        <ele>1611.31</ele>
        <time>2013-11-28T07:38:02Z</time>
      </trkpt>
      <trkpt lat="42.72538" lon="2.01526">
        <ele>1613.23</ele>
        <time>2013-11-28T07:38:16Z</time>
      </trkpt>
      <trkpt lat="42.72537" lon="2.01519">
        <ele>1613.23</ele>
        <time>2013-11-28T07:38:32Z</time>
      </trkpt>
      <trkpt lat="42.72537" lon="2.01504">
        <ele>1614.67</ele>
        <time>2013-11-28T07:38:47Z</time>
      </trkpt>
      <trkpt lat="42.72536" lon="2.01493">
        <ele>1614.19</ele>
        <time>2013-11-28T07:38:58Z</time>
      </trkpt>
      <trkpt lat="42.72534" lon="2.01489">
        <ele>1613.71</ele>
        <time>2013-11-28T07:39:09Z</time>
      </trkpt>
      <trkpt lat="42.72532" lon="2.01482">
        <ele>1613.23</ele>
        <time>2013-11-28T07:39:26Z</time>
      </trkpt>
      <trkpt lat="42.72532" lon="2.0148">
        <ele>1612.75</ele>
        <time>2013-11-28T07:39:29Z</time>
      </trkpt>
      <trkpt lat="42.72529" lon="2.01471">
        <ele>1612.75</ele>
        <time>2013-11-28T07:39:38Z</time>
      </trkpt>
      <trkpt lat="42.72526" lon="2.01466">
        <ele>1613.71</ele>
        <time>2013-11-28T07:39:43Z</time>
      </trkpt>
      <trkpt lat="42.72524" lon="2.01456">
        <ele>1614.67</ele>
        <time>2013-11-28T07:39:53Z</time>
      </trkpt>
      <trkpt lat="42.72518" lon="2.01451">
        <ele>1614.67</ele>
        <time>2013-11-28T07:40:04Z</time>
      </trkpt>
      <trkpt lat="42.72515" lon="2.01445">
        <ele>1614.19</ele>
        <time>2013-11-28T07:40:16Z</time>
      </trkpt>
      <trkpt lat="42.72513" lon="2.01428">
        <ele>1617.07</ele>
        <time>2013-11-28T07:40:32Z</time>
      </trkpt>
      <trkpt lat="42.72514" lon="2.01426">
        <ele>1616.11</ele>
        <time>2013-11-28T07:40:44Z</time>
      </trkpt>
      <trkpt lat="42.72512" lon="2.01421">
        <ele>1616.59</ele>
        <time>2013-11-28T07:40:48Z</time>
      </trkpt>
      <trkpt lat="42.72509" lon="2.01416">
        <ele>1617.56</ele>
        <time>2013-11-28T07:41:02Z</time>
      </trkpt>
      <trkpt lat="42.72503" lon="2.01407">
        <ele>1619</ele>
        <time>2013-11-28T07:41:18Z</time>
      </trkpt>
      <trkpt lat="42.72499" lon="2.01401">
        <ele>1619.96</ele>
        <time>2013-11-28T07:41:27Z</time>
      </trkpt>
      <trkpt lat="42.72493" lon="2.01386">
        <ele>1621.4</ele>
        <time>2013-11-28T07:41:43Z</time>
      </trkpt>
      <trkpt lat="42.72488" lon="2.01373">
        <ele>1624.77</ele>
        <time>2013-11-28T07:41:57Z</time>
      </trkpt>
      <trkpt lat="42.72488" lon="2.01372">
        <ele>1624.77</ele>
        <time>2013-11-28T07:41:59Z</time>
      </trkpt>
      <trkpt lat="42.72487" lon="2.01366">
        <ele>1624.28</ele>
        <time>2013-11-28T07:42:06Z</time>
      </trkpt>
      <trkpt lat="42.72481" lon="2.01358">
        <ele>1626.69</ele>
        <time>2013-11-28T07:42:15Z</time>
      </trkpt>
      <trkpt lat="42.72476" lon="2.01351">
        <ele>1631.49</ele>
        <time>2013-11-28T07:42:28Z</time>
      </trkpt>
      <trkpt lat="42.72474" lon="2.01352">
        <ele>1631.49</ele>
        <time>2013-11-28T07:42:44Z</time>
      </trkpt>
      <trkpt lat="42.72477" lon="2.01347">
        <ele>1631.01</ele>
        <time>2013-11-28T07:43:01Z</time>
      </trkpt>
      <trkpt lat="42.72478" lon="2.01346">
        <ele>1630.53</ele>
        <time>2013-11-28T07:43:18Z</time>
      </trkpt>
      <trkpt lat="42.7247" lon="2.01344">
        <ele>1631.01</ele>
        <time>2013-11-28T07:43:55Z</time>
      </trkpt>
      <trkpt lat="42.72483" lon="2.01341">
        <ele>1630.05</ele>
        <time>2013-11-28T07:44:41Z</time>
      </trkpt>
      <trkpt lat="42.72477" lon="2.01343">
        <ele>1627.65</ele>
        <time>2013-11-28T07:45:23Z</time>
      </trkpt>
      <trkpt lat="42.72486" lon="2.01341">
        <ele>1620.92</ele>
        <time>2013-11-28T07:46:06Z</time>
      </trkpt>
      <trkpt lat="42.72477" lon="2.01342">
        <ele>1625.25</ele>
        <time>2013-11-28T07:46:46Z</time>
      </trkpt>
      <trkpt lat="42.72479" lon="2.01346">
        <ele>1628.61</ele>
        <time>2013-11-28T07:47:14Z</time>
      </trkpt>
      <trkpt lat="42.72476" lon="2.01348">
        <ele>1630.05</ele>
        <time>2013-11-28T07:47:30Z</time>
      </trkpt>
      <trkpt lat="42.72475" lon="2.01344">
        <ele>1630.05</ele>
        <time>2013-11-28T07:47:47Z</time>
      </trkpt>
      <trkpt lat="42.72473" lon="2.01345">
        <ele>1634.38</ele>
        <time>2013-11-28T07:48:01Z</time>
      </trkpt>
      <trkpt lat="42.72474" lon="2.01341">
        <ele>1634.38</ele>
        <time>2013-11-28T07:48:23Z</time>
      </trkpt>
      <trkpt lat="42.72471" lon="2.01343">
        <ele>1632.46</ele>
        <time>2013-11-28T07:48:53Z</time>
      </trkpt>
      <trkpt lat="42.72473" lon="2.01347">
        <ele>1631.49</ele>
        <time>2013-11-28T07:49:03Z</time>
      </trkpt>
      <trkpt lat="42.72475" lon="2.01348">
        <ele>1629.57</ele>
        <time>2013-11-28T07:49:36Z</time>
      </trkpt>
      <trkpt lat="42.72476" lon="2.01349">
        <ele>1629.09</ele>
        <time>2013-11-28T07:49:47Z</time>
      </trkpt>
      <trkpt lat="42.72477" lon="2.01346">
        <ele>1629.09</ele>
        <time>2013-11-28T07:49:58Z</time>
      </trkpt>
      <trkpt lat="42.72479" lon="2.01346">
        <ele>1628.61</ele>
        <time>2013-11-28T07:50:16Z</time>
      </trkpt>
      <trkpt lat="42.72478" lon="2.01343">
        <ele>1629.57</ele>
        <time>2013-11-28T07:50:33Z</time>
      </trkpt>
      <trkpt lat="42.72476" lon="2.01327">
        <ele>1631.98</ele>
        <time>2013-11-28T07:50:49Z</time>
      </trkpt>
      <trkpt lat="42.72477" lon="2.01316">
        <ele>1634.86</ele>
        <time>2013-11-28T07:51:01Z</time>
      </trkpt>
      <trkpt lat="42.72477" lon="2.01305">
        <ele>1639.19</ele>
        <time>2013-11-28T07:51:13Z</time>
      </trkpt>
      <trkpt lat="42.72476" lon="2.013">
        <ele>1639.67</ele>
        <time>2013-11-28T07:51:18Z</time>
      </trkpt>
      <trkpt lat="42.7247" lon="2.01291">
        <ele>1639.19</ele>
        <time>2013-11-28T07:51:32Z</time>
      </trkpt>
      <trkpt lat="42.72466" lon="2.01288">
        <ele>1637.74</ele>
        <time>2013-11-28T07:51:50Z</time>
      </trkpt>
      <trkpt lat="42.72465" lon="2.01288">
        <ele>1637.74</ele>
        <time>2013-11-28T07:51:51Z</time>
      </trkpt>
      <trkpt lat="42.72454" lon="2.01284">
        <ele>1638.7</ele>
        <time>2013-11-28T07:52:05Z</time>
      </trkpt>
      <trkpt lat="42.72446" lon="2.01279">
        <ele>1638.7</ele>
        <time>2013-11-28T07:52:19Z</time>
      </trkpt>
      <trkpt lat="42.72436" lon="2.01279">
        <ele>1639.19</ele>
        <time>2013-11-28T07:52:33Z</time>
      </trkpt>
      <trkpt lat="42.72428" lon="2.01275">
        <ele>1639.67</ele>
        <time>2013-11-28T07:52:45Z</time>
      </trkpt>
      <trkpt lat="42.72418" lon="2.01271">
        <ele>1640.15</ele>
        <time>2013-11-28T07:52:59Z</time>
      </trkpt>
      <trkpt lat="42.72407" lon="2.01265">
        <ele>1640.63</ele>
        <time>2013-11-28T07:53:12Z</time>
      </trkpt>
      <trkpt lat="42.72404" lon="2.01261">
        <ele>1640.63</ele>
        <time>2013-11-28T07:53:25Z</time>
      </trkpt>
      <trkpt lat="42.72396" lon="2.01258">
        <ele>1641.11</ele>
        <time>2013-11-28T07:53:38Z</time>
      </trkpt>
      <trkpt lat="42.72395" lon="2.01258">
        <ele>1641.11</ele>
        <time>2013-11-28T07:53:39Z</time>
      </trkpt>
      <trkpt lat="42.72389" lon="2.01252">
        <ele>1642.55</ele>
        <time>2013-11-28T07:53:51Z</time>
      </trkpt>
      <trkpt lat="42.72387" lon="2.01247">
        <ele>1643.51</ele>
        <time>2013-11-28T07:54:01Z</time>
      </trkpt>
      <trkpt lat="42.72382" lon="2.01238">
        <ele>1644.47</ele>
        <time>2013-11-28T07:54:15Z</time>
      </trkpt>
      <trkpt lat="42.72381" lon="2.01232">
        <ele>1646.4</ele>
        <time>2013-11-28T07:54:28Z</time>
      </trkpt>
      <trkpt lat="42.72375" lon="2.01237">
        <ele>1647.36</ele>
        <time>2013-11-28T07:54:42Z</time>
      </trkpt>
      <trkpt lat="42.72372" lon="2.0124">
        <ele>1648.8</ele>
        <time>2013-11-28T07:54:52Z</time>
      </trkpt>
      <trkpt lat="42.72363" lon="2.01241">
        <ele>1650.72</ele>
        <time>2013-11-28T07:55:10Z</time>
      </trkpt>
      <trkpt lat="42.72357" lon="2.01244">
        <ele>1652.16</ele>
        <time>2013-11-28T07:55:21Z</time>
      </trkpt>
      <trkpt lat="42.72353" lon="2.01244">
        <ele>1659.85</ele>
        <time>2013-11-28T07:55:32Z</time>
      </trkpt>
      <trkpt lat="42.72352" lon="2.01241">
        <ele>1662.74</ele>
        <time>2013-11-28T07:55:43Z</time>
      </trkpt>
      <trkpt lat="42.7235" lon="2.01232">
        <ele>1664.18</ele>
        <time>2013-11-28T07:55:55Z</time>
      </trkpt>
      <trkpt lat="42.72347" lon="2.01224">
        <ele>1668.02</ele>
        <time>2013-11-28T07:56:12Z</time>
      </trkpt>
      <trkpt lat="42.72339" lon="2.01215">
        <ele>1668.51</ele>
        <time>2013-11-28T07:56:28Z</time>
      </trkpt>
      <trkpt lat="42.72332" lon="2.0121">
        <ele>1668.51</ele>
        <time>2013-11-28T07:56:44Z</time>
      </trkpt>
      <trkpt lat="42.72325" lon="2.01216">
        <ele>1669.47</ele>
        <time>2013-11-28T07:56:57Z</time>
      </trkpt>
      <trkpt lat="42.72316" lon="2.01219">
        <ele>1671.87</ele>
        <time>2013-11-28T07:57:13Z</time>
      </trkpt>
      <trkpt lat="42.72308" lon="2.01221">
        <ele>1673.79</ele>
        <time>2013-11-28T07:57:27Z</time>
      </trkpt>
      <trkpt lat="42.72304" lon="2.01217">
        <ele>1675.72</ele>
        <time>2013-11-28T07:57:39Z</time>
      </trkpt>
      <trkpt lat="42.72302" lon="2.01209">
        <ele>1678.12</ele>
        <time>2013-11-28T07:57:51Z</time>
      </trkpt>
      <trkpt lat="42.72301" lon="2.01198">
        <ele>1679.56</ele>
        <time>2013-11-28T07:58:07Z</time>
      </trkpt>
      <trkpt lat="42.72297" lon="2.01187">
        <ele>1681</ele>
        <time>2013-11-28T07:58:20Z</time>
      </trkpt>
      <trkpt lat="42.72294" lon="2.0118">
        <ele>1682.44</ele>
        <time>2013-11-28T07:58:35Z</time>
      </trkpt>
      <trkpt lat="42.72288" lon="2.01182">
        <ele>1682.44</ele>
        <time>2013-11-28T07:58:50Z</time>
      </trkpt>
      <trkpt lat="42.72281" lon="2.01184">
        <ele>1685.33</ele>
        <time>2013-11-28T07:59:05Z</time>
      </trkpt>
      <trkpt lat="42.72277" lon="2.01183">
        <ele>1687.73</ele>
        <time>2013-11-28T07:59:16Z</time>
      </trkpt>
      <trkpt lat="42.72278" lon="2.01177">
        <ele>1688.21</ele>
        <time>2013-11-28T07:59:29Z</time>
      </trkpt>
      <trkpt lat="42.72277" lon="2.01165">
        <ele>1689.17</ele>
        <time>2013-11-28T07:59:45Z</time>
      </trkpt>
      <trkpt lat="42.72277" lon="2.01157">
        <ele>1693.98</ele>
        <time>2013-11-28T07:59:59Z</time>
      </trkpt>
      <trkpt lat="42.72274" lon="2.01149">
        <ele>1697.34</ele>
        <time>2013-11-28T08:00:16Z</time>
      </trkpt>
      <trkpt lat="42.72265" lon="2.01147">
        <ele>1698.31</ele>
        <time>2013-11-28T08:00:30Z</time>
      </trkpt>
      <trkpt lat="42.72259" lon="2.01146">
        <ele>1699.27</ele>
        <time>2013-11-28T08:00:43Z</time>
      </trkpt>
      <trkpt lat="42.72252" lon="2.01143">
        <ele>1700.23</ele>
        <time>2013-11-28T08:00:55Z</time>
      </trkpt>
      <trkpt lat="42.72245" lon="2.0114">
        <ele>1702.15</ele>
        <time>2013-11-28T08:01:08Z</time>
      </trkpt>
      <trkpt lat="42.72241" lon="2.01134">
        <ele>1704.07</ele>
        <time>2013-11-28T08:01:19Z</time>
      </trkpt>
      <trkpt lat="42.72241" lon="2.01125">
        <ele>1706.48</ele>
        <time>2013-11-28T08:01:31Z</time>
      </trkpt>
      <trkpt lat="42.72238" lon="2.01116">
        <ele>1707.92</ele>
        <time>2013-11-28T08:01:45Z</time>
      </trkpt>
      <trkpt lat="42.72231" lon="2.01111">
        <ele>1709.36</ele>
        <time>2013-11-28T08:01:59Z</time>
      </trkpt>
      <trkpt lat="42.72226" lon="2.01107">
        <ele>1711.76</ele>
        <time>2013-11-28T08:02:10Z</time>
      </trkpt>
      <trkpt lat="42.72225" lon="2.01093">
        <ele>1714.17</ele>
        <time>2013-11-28T08:02:28Z</time>
      </trkpt>
      <trkpt lat="42.72224" lon="2.01085">
        <ele>1716.09</ele>
        <time>2013-11-28T08:02:41Z</time>
      </trkpt>
      <trkpt lat="42.72216" lon="2.0108">
        <ele>1717.53</ele>
        <time>2013-11-28T08:02:55Z</time>
      </trkpt>
      <trkpt lat="42.72214" lon="2.01073">
        <ele>1719.46</ele>
        <time>2013-11-28T08:03:06Z</time>
      </trkpt>
      <trkpt lat="42.72214" lon="2.01062">
        <ele>1721.38</ele>
        <time>2013-11-28T08:03:20Z</time>
      </trkpt>
      <trkpt lat="42.72209" lon="2.01057">
        <ele>1723.3</ele>
        <time>2013-11-28T08:03:31Z</time>
      </trkpt>
      <trkpt lat="42.72202" lon="2.01054">
        <ele>1724.26</ele>
        <time>2013-11-28T08:03:43Z</time>
      </trkpt>
      <trkpt lat="42.722" lon="2.01043">
        <ele>1725.7</ele>
        <time>2013-11-28T08:03:58Z</time>
      </trkpt>
      <trkpt lat="42.72198" lon="2.01034">
        <ele>1729.55</ele>
        <time>2013-11-28T08:04:13Z</time>
      </trkpt>
      <trkpt lat="42.7219" lon="2.0103">
        <ele>1731.47</ele>
        <time>2013-11-28T08:04:28Z</time>
      </trkpt>
      <trkpt lat="42.72187" lon="2.01021">
        <ele>1733.39</ele>
        <time>2013-11-28T08:04:42Z</time>
      </trkpt>
      <trkpt lat="42.72187" lon="2.01014">
        <ele>1734.36</ele>
        <time>2013-11-28T08:04:51Z</time>
      </trkpt>
      <trkpt lat="42.72181" lon="2.01011">
        <ele>1736.76</ele>
        <time>2013-11-28T08:05:03Z</time>
      </trkpt>
      <trkpt lat="42.72175" lon="2.01008">
        <ele>1737.72</ele>
        <time>2013-11-28T08:05:15Z</time>
      </trkpt>
      <trkpt lat="42.72175" lon="2.00998">
        <ele>1739.16</ele>
        <time>2013-11-28T08:05:29Z</time>
      </trkpt>
      <trkpt lat="42.72171" lon="2.00991">
        <ele>1740.12</ele>
        <time>2013-11-28T08:05:44Z</time>
      </trkpt>
      <trkpt lat="42.72166" lon="2.00989">
        <ele>1743.01</ele>
        <time>2013-11-28T08:05:57Z</time>
      </trkpt>
      <trkpt lat="42.72165" lon="2.00989">
        <ele>1743.01</ele>
        <time>2013-11-28T08:05:59Z</time>
      </trkpt>
      <trkpt lat="42.72159" lon="2.00987">
        <ele>1745.41</ele>
        <time>2013-11-28T08:06:10Z</time>
      </trkpt>
      <trkpt lat="42.72158" lon="2.00978">
        <ele>1747.33</ele>
        <time>2013-11-28T08:06:22Z</time>
      </trkpt>
      <trkpt lat="42.72155" lon="2.00969">
        <ele>1748.78</ele>
        <time>2013-11-28T08:06:33Z</time>
      </trkpt>
      <trkpt lat="42.72149" lon="2.00965">
        <ele>1750.7</ele>
        <time>2013-11-28T08:06:45Z</time>
      </trkpt>
      <trkpt lat="42.72146" lon="2.00964">
        <ele>1754.06</ele>
        <time>2013-11-28T08:06:55Z</time>
      </trkpt>
      <trkpt lat="42.72145" lon="2.00962">
        <ele>1754.54</ele>
        <time>2013-11-28T08:07:07Z</time>
      </trkpt>
      <trkpt lat="42.72145" lon="2.00963">
        <ele>1754.54</ele>
        <time>2013-11-28T08:07:09Z</time>
      </trkpt>
      <trkpt lat="42.7214" lon="2.00961">
        <ele>1755.5</ele>
        <time>2013-11-28T08:07:21Z</time>
      </trkpt>
      <trkpt lat="42.72139" lon="2.00964">
        <ele>1755.02</ele>
        <time>2013-11-28T08:07:34Z</time>
      </trkpt>
      <trkpt lat="42.7214" lon="2.00963">
        <ele>1755.02</ele>
        <time>2013-11-28T08:07:46Z</time>
      </trkpt>
      <trkpt lat="42.72136" lon="2.00964">
        <ele>1756.47</ele>
        <time>2013-11-28T08:08:28Z</time>
      </trkpt>
      <trkpt lat="42.72138" lon="2.00964">
        <ele>1755.5</ele>
        <time>2013-11-28T08:08:59Z</time>
      </trkpt>
      <trkpt lat="42.72139" lon="2.00962">
        <ele>1752.62</ele>
        <time>2013-11-28T08:09:16Z</time>
      </trkpt>
      <trkpt lat="42.72141" lon="2.0096">
        <ele>1752.14</ele>
        <time>2013-11-28T08:09:46Z</time>
      </trkpt>
      <trkpt lat="42.72142" lon="2.00959">
        <ele>1747.33</ele>
        <time>2013-11-28T08:10:13Z</time>
      </trkpt>
      <trkpt lat="42.72141" lon="2.00959">
        <ele>1743.97</ele>
        <time>2013-11-28T08:10:55Z</time>
      </trkpt>
      <trkpt lat="42.72139" lon="2.00963">
        <ele>1747.33</ele>
        <time>2013-11-28T08:11:07Z</time>
      </trkpt>
      <trkpt lat="42.72139" lon="2.00966">
        <ele>1749.74</ele>
        <time>2013-11-28T08:11:30Z</time>
      </trkpt>
      <trkpt lat="42.72139" lon="2.0096">
        <ele>1750.7</ele>
        <time>2013-11-28T08:11:55Z</time>
      </trkpt>
      <trkpt lat="42.72138" lon="2.00954">
        <ele>1753.1</ele>
        <time>2013-11-28T08:12:09Z</time>
      </trkpt>
      <trkpt lat="42.72138" lon="2.00954">
        <ele>1753.58</ele>
        <time>2013-11-28T08:12:31Z</time>
      </trkpt>
      <trkpt lat="42.72137" lon="2.00945">
        <ele>1752.14</ele>
        <time>2013-11-28T08:12:46Z</time>
      </trkpt>
      <trkpt lat="42.72132" lon="2.00938">
        <ele>1755.02</ele>
        <time>2013-11-28T08:12:59Z</time>
      </trkpt>
      <trkpt lat="42.72126" lon="2.00932">
        <ele>1755.5</ele>
        <time>2013-11-28T08:13:13Z</time>
      </trkpt>
      <trkpt lat="42.72124" lon="2.00931">
        <ele>1755.5</ele>
        <time>2013-11-28T08:13:27Z</time>
      </trkpt>
      <trkpt lat="42.72123" lon="2.00931">
        <ele>1755.5</ele>
        <time>2013-11-28T08:13:52Z</time>
      </trkpt>
      <trkpt lat="42.72118" lon="2.00926">
        <ele>1758.87</ele>
        <time>2013-11-28T08:14:04Z</time>
      </trkpt>
      <trkpt lat="42.72113" lon="2.00923">
        <ele>1762.71</ele>
        <time>2013-11-28T08:14:16Z</time>
      </trkpt>
      <trkpt lat="42.72107" lon="2.00919">
        <ele>1763.68</ele>
        <time>2013-11-28T08:14:29Z</time>
      </trkpt>
      <trkpt lat="42.72101" lon="2.00915">
        <ele>1767.52</ele>
        <time>2013-11-28T08:14:43Z</time>
      </trkpt>
      <trkpt lat="42.72095" lon="2.00912">
        <ele>1769.92</ele>
        <time>2013-11-28T08:14:55Z</time>
      </trkpt>
      <trkpt lat="42.72086" lon="2.00911">
        <ele>1772.81</ele>
        <time>2013-11-28T08:15:08Z</time>
      </trkpt>
      <trkpt lat="42.72081" lon="2.00911">
        <ele>1775.21</ele>
        <time>2013-11-28T08:15:21Z</time>
      </trkpt>
      <trkpt lat="42.72072" lon="2.00911">
        <ele>1775.21</ele>
        <time>2013-11-28T08:15:35Z</time>
      </trkpt>
      <trkpt lat="42.72069" lon="2.00911">
        <ele>1775.21</ele>
        <time>2013-11-28T08:15:41Z</time>
      </trkpt>
      <trkpt lat="42.72064" lon="2.00904">
        <ele>1777.13</ele>
        <time>2013-11-28T08:15:53Z</time>
      </trkpt>
      <trkpt lat="42.7206" lon="2.00896">
        <ele>1780.02</ele>
        <time>2013-11-28T08:16:07Z</time>
      </trkpt>
      <trkpt lat="42.72057" lon="2.00888">
        <ele>1783.38</ele>
        <time>2013-11-28T08:16:20Z</time>
      </trkpt>
      <trkpt lat="42.72054" lon="2.00882">
        <ele>1787.71</ele>
        <time>2013-11-28T08:16:33Z</time>
      </trkpt>
      <trkpt lat="42.72052" lon="2.00876">
        <ele>1791.55</ele>
        <time>2013-11-28T08:16:46Z</time>
      </trkpt>
      <trkpt lat="42.72049" lon="2.00873">
        <ele>1792.52</ele>
        <time>2013-11-28T08:17:02Z</time>
      </trkpt>
      <trkpt lat="42.72045" lon="2.00866">
        <ele>1794.44</ele>
        <time>2013-11-28T08:17:17Z</time>
      </trkpt>
      <trkpt lat="42.72041" lon="2.00869">
        <ele>1796.84</ele>
        <time>2013-11-28T08:17:30Z</time>
      </trkpt>
      <trkpt lat="42.72036" lon="2.00873">
        <ele>1798.28</ele>
        <time>2013-11-28T08:17:44Z</time>
      </trkpt>
      <trkpt lat="42.72028" lon="2.00879">
        <ele>1800.21</ele>
        <time>2013-11-28T08:17:59Z</time>
      </trkpt>
      <trkpt lat="42.7202" lon="2.00884">
        <ele>1801.17</ele>
        <time>2013-11-28T08:18:14Z</time>
      </trkpt>
      <trkpt lat="42.72014" lon="2.00889">
        <ele>1800.21</ele>
        <time>2013-11-28T08:18:29Z</time>
      </trkpt>
      <trkpt lat="42.72007" lon="2.00892">
        <ele>1801.17</ele>
        <time>2013-11-28T08:18:44Z</time>
      </trkpt>
      <trkpt lat="42.71998" lon="2.00896">
        <ele>1803.09</ele>
        <time>2013-11-28T08:18:59Z</time>
      </trkpt>
      <trkpt lat="42.71997" lon="2.00895">
        <ele>1803.09</ele>
        <time>2013-11-28T08:19:12Z</time>
      </trkpt>
      <trkpt lat="42.71995" lon="2.00892">
        <ele>1805.01</ele>
        <time>2013-11-28T08:19:30Z</time>
      </trkpt>
      <trkpt lat="42.71993" lon="2.00877">
        <ele>1807.42</ele>
        <time>2013-11-28T08:19:48Z</time>
      </trkpt>
      <trkpt lat="42.71991" lon="2.00867">
        <ele>1810.3</ele>
        <time>2013-11-28T08:20:05Z</time>
      </trkpt>
      <trkpt lat="42.7199" lon="2.00855">
        <ele>1812.22</ele>
        <time>2013-11-28T08:20:19Z</time>
      </trkpt>
      <trkpt lat="42.7199" lon="2.0085">
        <ele>1814.15</ele>
        <time>2013-11-28T08:20:35Z</time>
      </trkpt>
      <trkpt lat="42.71986" lon="2.00851">
        <ele>1815.59</ele>
        <time>2013-11-28T08:20:47Z</time>
      </trkpt>
      <trkpt lat="42.71981" lon="2.00856">
        <ele>1818.47</ele>
        <time>2013-11-28T08:21:01Z</time>
      </trkpt>
      <trkpt lat="42.71972" lon="2.00863">
        <ele>1820.39</ele>
        <time>2013-11-28T08:21:17Z</time>
      </trkpt>
      <trkpt lat="42.71966" lon="2.00866">
        <ele>1822.8</ele>
        <time>2013-11-28T08:21:35Z</time>
      </trkpt>
      <trkpt lat="42.7196" lon="2.0087">
        <ele>1823.76</ele>
        <time>2013-11-28T08:21:49Z</time>
      </trkpt>
      <trkpt lat="42.7196" lon="2.00863">
        <ele>1825.68</ele>
        <time>2013-11-28T08:21:58Z</time>
      </trkpt>
      <trkpt lat="42.71958" lon="2.00857">
        <ele>1827.6</ele>
        <time>2013-11-28T08:22:12Z</time>
      </trkpt>
      <trkpt lat="42.71951" lon="2.00858">
        <ele>1828.56</ele>
        <time>2013-11-28T08:22:24Z</time>
      </trkpt>
      <trkpt lat="42.71947" lon="2.00859">
        <ele>1829.05</ele>
        <time>2013-11-28T08:22:38Z</time>
      </trkpt>
      <trkpt lat="42.7194" lon="2.0086">
        <ele>1831.93</ele>
        <time>2013-11-28T08:22:52Z</time>
      </trkpt>
      <trkpt lat="42.71938" lon="2.0086">
        <ele>1831.93</ele>
        <time>2013-11-28T08:22:57Z</time>
      </trkpt>
      <trkpt lat="42.71937" lon="2.00853">
        <ele>1833.37</ele>
        <time>2013-11-28T08:23:09Z</time>
      </trkpt>
      <trkpt lat="42.71934" lon="2.00844">
        <ele>1837.7</ele>
        <time>2013-11-28T08:23:22Z</time>
      </trkpt>
      <trkpt lat="42.71932" lon="2.00831">
        <ele>1840.58</ele>
        <time>2013-11-28T08:23:39Z</time>
      </trkpt>
      <trkpt lat="42.71931" lon="2.00819">
        <ele>1843.47</ele>
        <time>2013-11-28T08:23:57Z</time>
      </trkpt>
      <trkpt lat="42.71931" lon="2.00814">
        <ele>1846.35</ele>
        <time>2013-11-28T08:24:06Z</time>
      </trkpt>
      <trkpt lat="42.7193" lon="2.00813">
        <ele>1845.87</ele>
        <time>2013-11-28T08:24:19Z</time>
      </trkpt>
      <trkpt lat="42.7193" lon="2.00811">
        <ele>1846.35</ele>
        <time>2013-11-28T08:24:43Z</time>
      </trkpt>
      <trkpt lat="42.71931" lon="2.00813">
        <ele>1845.87</ele>
        <time>2013-11-28T08:25:00Z</time>
      </trkpt>
      <trkpt lat="42.71926" lon="2.00812">
        <ele>1848.27</ele>
        <time>2013-11-28T08:25:12Z</time>
      </trkpt>
      <trkpt lat="42.71918" lon="2.00812">
        <ele>1851.64</ele>
        <time>2013-11-28T08:25:27Z</time>
      </trkpt>
      <trkpt lat="42.71911" lon="2.00811">
        <ele>1853.08</ele>
        <time>2013-11-28T08:25:43Z</time>
      </trkpt>
      <trkpt lat="42.71904" lon="2.00808">
        <ele>1855.48</ele>
        <time>2013-11-28T08:25:56Z</time>
      </trkpt>
      <trkpt lat="42.71895" lon="2.00805">
        <ele>1857.89</ele>
        <time>2013-11-28T08:26:12Z</time>
      </trkpt>
      <trkpt lat="42.71888" lon="2.00803">
        <ele>1860.77</ele>
        <time>2013-11-28T08:26:25Z</time>
      </trkpt>
      <trkpt lat="42.7188" lon="2.008">
        <ele>1862.69</ele>
        <time>2013-11-28T08:26:38Z</time>
      </trkpt>
      <trkpt lat="42.71875" lon="2.00793">
        <ele>1863.65</ele>
        <time>2013-11-28T08:26:53Z</time>
      </trkpt>
      <trkpt lat="42.71871" lon="2.00782">
        <ele>1865.58</ele>
        <time>2013-11-28T08:27:10Z</time>
      </trkpt>
      <trkpt lat="42.71869" lon="2.00772">
        <ele>1866.54</ele>
        <time>2013-11-28T08:27:24Z</time>
      </trkpt>
      <trkpt lat="42.71866" lon="2.0076">
        <ele>1869.42</ele>
        <time>2013-11-28T08:27:41Z</time>
      </trkpt>
      <trkpt lat="42.71863" lon="2.00749">
        <ele>1871.82</ele>
        <time>2013-11-28T08:27:59Z</time>
      </trkpt>
      <trkpt lat="42.71863" lon="2.00751">
        <ele>1873.27</ele>
        <time>2013-11-28T08:28:26Z</time>
      </trkpt>
      <trkpt lat="42.71863" lon="2.00748">
        <ele>1869.42</ele>
        <time>2013-11-28T08:28:42Z</time>
      </trkpt>
      <trkpt lat="42.71864" lon="2.00747">
        <ele>1867.98</ele>
        <time>2013-11-28T08:29:24Z</time>
      </trkpt>
      <trkpt lat="42.71862" lon="2.00748">
        <ele>1867.02</ele>
        <time>2013-11-28T08:29:59Z</time>
      </trkpt>
      <trkpt lat="42.71864" lon="2.00749">
        <ele>1868.94</ele>
        <time>2013-11-28T08:30:18Z</time>
      </trkpt>
      <trkpt lat="42.71864" lon="2.00749">
        <ele>1867.02</ele>
        <time>2013-11-28T08:30:49Z</time>
      </trkpt>
      <trkpt lat="42.71867" lon="2.00747">
        <ele>1866.54</ele>
        <time>2013-11-28T08:31:15Z</time>
      </trkpt>
      <trkpt lat="42.71864" lon="2.00749">
        <ele>1866.54</ele>
        <time>2013-11-28T08:31:44Z</time>
      </trkpt>
      <trkpt lat="42.71864" lon="2.00749">
        <ele>1868.94</ele>
        <time>2013-11-28T08:32:00Z</time>
      </trkpt>
      <trkpt lat="42.71863" lon="2.00752">
        <ele>1869.42</ele>
        <time>2013-11-28T08:32:14Z</time>
      </trkpt>
      <trkpt lat="42.71864" lon="2.0075">
        <ele>1868.94</ele>
        <time>2013-11-28T08:32:39Z</time>
      </trkpt>
      <trkpt lat="42.71862" lon="2.00745">
        <ele>1870.38</ele>
        <time>2013-11-28T08:32:52Z</time>
      </trkpt>
      <trkpt lat="42.71859" lon="2.00737">
        <ele>1872.3</ele>
        <time>2013-11-28T08:33:04Z</time>
      </trkpt>
      <trkpt lat="42.71856" lon="2.00726">
        <ele>1874.71</ele>
        <time>2013-11-28T08:33:18Z</time>
      </trkpt>
      <trkpt lat="42.71853" lon="2.00715">
        <ele>1877.59</ele>
        <time>2013-11-28T08:33:33Z</time>
      </trkpt>
      <trkpt lat="42.7185" lon="2.00704">
        <ele>1879.03</ele>
        <time>2013-11-28T08:33:48Z</time>
      </trkpt>
      <trkpt lat="42.71846" lon="2.00692">
        <ele>1881.44</ele>
        <time>2013-11-28T08:34:03Z</time>
      </trkpt>
      <trkpt lat="42.71842" lon="2.0068">
        <ele>1882.88</ele>
        <time>2013-11-28T08:34:20Z</time>
      </trkpt>
      <trkpt lat="42.71837" lon="2.00672">
        <ele>1885.28</ele>
        <time>2013-11-28T08:34:35Z</time>
      </trkpt>
      <trkpt lat="42.71832" lon="2.00664">
        <ele>1886.24</ele>
        <time>2013-11-28T08:34:49Z</time>
      </trkpt>
      <trkpt lat="42.71828" lon="2.00655">
        <ele>1887.69</ele>
        <time>2013-11-28T08:35:02Z</time>
      </trkpt>
      <trkpt lat="42.71823" lon="2.00646">
        <ele>1889.13</ele>
        <time>2013-11-28T08:35:18Z</time>
      </trkpt>
      <trkpt lat="42.71816" lon="2.00637">
        <ele>1892.01</ele>
        <time>2013-11-28T08:35:34Z</time>
      </trkpt>
      <trkpt lat="42.7181" lon="2.00627">
        <ele>1893.45</ele>
        <time>2013-11-28T08:35:49Z</time>
      </trkpt>
      <trkpt lat="42.71812" lon="2.00617">
        <ele>1896.82</ele>
        <time>2013-11-28T08:36:04Z</time>
      </trkpt>
      <trkpt lat="42.71815" lon="2.00606">
        <ele>1898.74</ele>
        <time>2013-11-28T08:36:18Z</time>
      </trkpt>
      <trkpt lat="42.71817" lon="2.00596">
        <ele>1901.63</ele>
        <time>2013-11-28T08:36:31Z</time>
      </trkpt>
      <trkpt lat="42.71819" lon="2.00586">
        <ele>1904.51</ele>
        <time>2013-11-28T08:36:46Z</time>
      </trkpt>
      <trkpt lat="42.71821" lon="2.00578">
        <ele>1907.87</ele>
        <time>2013-11-28T08:36:59Z</time>
      </trkpt>
      <trkpt lat="42.71822" lon="2.00569">
        <ele>1909.8</ele>
        <time>2013-11-28T08:37:12Z</time>
      </trkpt>
      <trkpt lat="42.71824" lon="2.00561">
        <ele>1913.16</ele>
        <time>2013-11-28T08:37:25Z</time>
      </trkpt>
      <trkpt lat="42.71824" lon="2.00552">
        <ele>1916.04</ele>
        <time>2013-11-28T08:37:38Z</time>
      </trkpt>
      <trkpt lat="42.71826" lon="2.00544">
        <ele>1918.45</ele>
        <time>2013-11-28T08:37:50Z</time>
      </trkpt>
      <trkpt lat="42.71829" lon="2.00537">
        <ele>1918.93</ele>
        <time>2013-11-28T08:38:01Z</time>
      </trkpt>
      <trkpt lat="42.71829" lon="2.00532">
        <ele>1920.85</ele>
        <time>2013-11-28T08:38:11Z</time>
      </trkpt>
      <trkpt lat="42.71831" lon="2.00522">
        <ele>1922.29</ele>
        <time>2013-11-28T08:38:28Z</time>
      </trkpt>
      <trkpt lat="42.71834" lon="2.00512">
        <ele>1922.77</ele>
        <time>2013-11-28T08:38:43Z</time>
      </trkpt>
      <trkpt lat="42.71835" lon="2.00505">
        <ele>1924.22</ele>
        <time>2013-11-28T08:38:56Z</time>
      </trkpt>
      <trkpt lat="42.71836" lon="2.00494">
        <ele>1925.66</ele>
        <time>2013-11-28T08:39:09Z</time>
      </trkpt>
      <trkpt lat="42.71837" lon="2.00486">
        <ele>1927.1</ele>
        <time>2013-11-28T08:39:22Z</time>
      </trkpt>
      <trkpt lat="42.71837" lon="2.00477">
        <ele>1929.02</ele>
        <time>2013-11-28T08:39:36Z</time>
      </trkpt>
      <trkpt lat="42.71837" lon="2.0047">
        <ele>1930.46</ele>
        <time>2013-11-28T08:39:48Z</time>
      </trkpt>
      <trkpt lat="42.71837" lon="2.00461">
        <ele>1933.35</ele>
        <time>2013-11-28T08:40:03Z</time>
      </trkpt>
      <trkpt lat="42.71836" lon="2.00453">
        <ele>1935.27</ele>
        <time>2013-11-28T08:40:13Z</time>
      </trkpt>
      <trkpt lat="42.71835" lon="2.00447">
        <ele>1937.67</ele>
        <time>2013-11-28T08:40:24Z</time>
      </trkpt>
      <trkpt lat="42.71836" lon="2.00442">
        <ele>1941.04</ele>
        <time>2013-11-28T08:40:37Z</time>
      </trkpt>
      <trkpt lat="42.71836" lon="2.00426">
        <ele>1941.52</ele>
        <time>2013-11-28T08:40:58Z</time>
      </trkpt>
      <trkpt lat="42.71835" lon="2.00418">
        <ele>1942.96</ele>
        <time>2013-11-28T08:41:09Z</time>
      </trkpt>
      <trkpt lat="42.71834" lon="2.00413">
        <ele>1946.33</ele>
        <time>2013-11-28T08:41:19Z</time>
      </trkpt>
      <trkpt lat="42.71834" lon="2.00408">
        <ele>1948.25</ele>
        <time>2013-11-28T08:41:33Z</time>
      </trkpt>
      <trkpt lat="42.71834" lon="2.004">
        <ele>1949.21</ele>
        <time>2013-11-28T08:41:48Z</time>
      </trkpt>
      <trkpt lat="42.71831" lon="2.00387">
        <ele>1951.13</ele>
        <time>2013-11-28T08:42:08Z</time>
      </trkpt>
      <trkpt lat="42.71826" lon="2.00375">
        <ele>1954.5</ele>
        <time>2013-11-28T08:42:24Z</time>
      </trkpt>
      <trkpt lat="42.71825" lon="2.00368">
        <ele>1956.42</ele>
        <time>2013-11-28T08:42:36Z</time>
      </trkpt>
      <trkpt lat="42.71823" lon="2.00367">
        <ele>1957.38</ele>
        <time>2013-11-28T08:42:49Z</time>
      </trkpt>
      <trkpt lat="42.71824" lon="2.00367">
        <ele>1956.9</ele>
        <time>2013-11-28T08:43:25Z</time>
      </trkpt>
      <trkpt lat="42.71822" lon="2.00364">
        <ele>1957.38</ele>
        <time>2013-11-28T08:43:49Z</time>
      </trkpt>
      <trkpt lat="42.7182" lon="2.00362">
        <ele>1958.34</ele>
        <time>2013-11-28T08:44:03Z</time>
      </trkpt>
      <trkpt lat="42.71814" lon="2.00354">
        <ele>1961.23</ele>
        <time>2013-11-28T08:44:17Z</time>
      </trkpt>
      <trkpt lat="42.71812" lon="2.00352">
        <ele>1962.67</ele>
        <time>2013-11-28T08:44:31Z</time>
      </trkpt>
      <trkpt lat="42.71808" lon="2.00345">
        <ele>1964.11</ele>
        <time>2013-11-28T08:44:46Z</time>
      </trkpt>
      <trkpt lat="42.71803" lon="2.00338">
        <ele>1965.55</ele>
        <time>2013-11-28T08:44:59Z</time>
      </trkpt>
      <trkpt lat="42.71799" lon="2.00331">
        <ele>1966.51</ele>
        <time>2013-11-28T08:45:12Z</time>
      </trkpt>
      <trkpt lat="42.71793" lon="2.00324">
        <ele>1968.44</ele>
        <time>2013-11-28T08:45:25Z</time>
      </trkpt>
      <trkpt lat="42.71788" lon="2.00317">
        <ele>1969.88</ele>
        <time>2013-11-28T08:45:38Z</time>
      </trkpt>
      <trkpt lat="42.71784" lon="2.0031">
        <ele>1972.28</ele>
        <time>2013-11-28T08:45:51Z</time>
      </trkpt>
      <trkpt lat="42.71778" lon="2.00302">
        <ele>1974.2</ele>
        <time>2013-11-28T08:46:05Z</time>
      </trkpt>
      <trkpt lat="42.71772" lon="2.00296">
        <ele>1977.09</ele>
        <time>2013-11-28T08:46:19Z</time>
      </trkpt>
      <trkpt lat="42.71767" lon="2.00289">
        <ele>1978.53</ele>
        <time>2013-11-28T08:46:31Z</time>
      </trkpt>
      <trkpt lat="42.71764" lon="2.00285">
        <ele>1979.97</ele>
        <time>2013-11-28T08:46:42Z</time>
      </trkpt>
      <trkpt lat="42.71758" lon="2.00278">
        <ele>1981.9</ele>
        <time>2013-11-28T08:46:56Z</time>
      </trkpt>
      <trkpt lat="42.71752" lon="2.00271">
        <ele>1982.86</ele>
        <time>2013-11-28T08:47:11Z</time>
      </trkpt>
      <trkpt lat="42.71748" lon="2.00265">
        <ele>1984.3</ele>
        <time>2013-11-28T08:47:24Z</time>
      </trkpt>
      <trkpt lat="42.71743" lon="2.00259">
        <ele>1986.22</ele>
        <time>2013-11-28T08:47:38Z</time>
      </trkpt>
      <trkpt lat="42.71737" lon="2.00251">
        <ele>1988.14</ele>
        <time>2013-11-28T08:47:50Z</time>
      </trkpt>
      <trkpt lat="42.71732" lon="2.00245">
        <ele>1990.07</ele>
        <time>2013-11-28T08:48:03Z</time>
      </trkpt>
      <trkpt lat="42.71727" lon="2.00236">
        <ele>1991.99</ele>
        <time>2013-11-28T08:48:17Z</time>
      </trkpt>
      <trkpt lat="42.71722" lon="2.00229">
        <ele>1994.39</ele>
        <time>2013-11-28T08:48:31Z</time>
      </trkpt>
      <trkpt lat="42.71716" lon="2.00222">
        <ele>1995.83</ele>
        <time>2013-11-28T08:48:46Z</time>
      </trkpt>
      <trkpt lat="42.71711" lon="2.00215">
        <ele>1997.76</ele>
        <time>2013-11-28T08:48:59Z</time>
      </trkpt>
      <trkpt lat="42.71706" lon="2.00208">
        <ele>1999.68</ele>
        <time>2013-11-28T08:49:12Z</time>
      </trkpt>
      <trkpt lat="42.71701" lon="2.00201">
        <ele>2001.12</ele>
        <time>2013-11-28T08:49:26Z</time>
      </trkpt>
      <trkpt lat="42.71696" lon="2.00196">
        <ele>2002.56</ele>
        <time>2013-11-28T08:49:38Z</time>
      </trkpt>
      <trkpt lat="42.71692" lon="2.00189">
        <ele>2004.49</ele>
        <time>2013-11-28T08:49:50Z</time>
      </trkpt>
      <trkpt lat="42.71687" lon="2.00183">
        <ele>2005.45</ele>
        <time>2013-11-28T08:50:02Z</time>
      </trkpt>
      <trkpt lat="42.71682" lon="2.00175">
        <ele>2007.85</ele>
        <time>2013-11-28T08:50:15Z</time>
      </trkpt>
      <trkpt lat="42.71676" lon="2.00167">
        <ele>2008.81</ele>
        <time>2013-11-28T08:50:29Z</time>
      </trkpt>
      <trkpt lat="42.71673" lon="2.00161">
        <ele>2011.7</ele>
        <time>2013-11-28T08:50:42Z</time>
      </trkpt>
      <trkpt lat="42.71667" lon="2.00152">
        <ele>2014.58</ele>
        <time>2013-11-28T08:50:56Z</time>
      </trkpt>
      <trkpt lat="42.71662" lon="2.00145">
        <ele>2016.98</ele>
        <time>2013-11-28T08:51:10Z</time>
      </trkpt>
      <trkpt lat="42.71663" lon="2.00135">
        <ele>2017.94</ele>
        <time>2013-11-28T08:51:22Z</time>
      </trkpt>
      <trkpt lat="42.71667" lon="2.00123">
        <ele>2019.87</ele>
        <time>2013-11-28T08:51:35Z</time>
      </trkpt>
      <trkpt lat="42.71667" lon="2.00112">
        <ele>2020.35</ele>
        <time>2013-11-28T08:51:48Z</time>
      </trkpt>
      <trkpt lat="42.71661" lon="2.00106">
        <ele>2022.75</ele>
        <time>2013-11-28T08:52:01Z</time>
      </trkpt>
      <trkpt lat="42.71658" lon="2.00097">
        <ele>2023.71</ele>
        <time>2013-11-28T08:52:15Z</time>
      </trkpt>
      <trkpt lat="42.71657" lon="2.00093">
        <ele>2023.23</ele>
        <time>2013-11-28T08:52:28Z</time>
      </trkpt>
      <trkpt lat="42.71653" lon="2.00087">
        <ele>2025.15</ele>
        <time>2013-11-28T08:52:40Z</time>
      </trkpt>
      <trkpt lat="42.71652" lon="2.0008">
        <ele>2027.56</ele>
        <time>2013-11-28T08:52:54Z</time>
      </trkpt>
      <trkpt lat="42.71651" lon="2.00075">
        <ele>2028.52</ele>
        <time>2013-11-28T08:53:05Z</time>
      </trkpt>
      <trkpt lat="42.7165" lon="2.00076">
        <ele>2028.52</ele>
        <time>2013-11-28T08:53:17Z</time>
      </trkpt>
      <trkpt lat="42.71649" lon="2.00077">
        <ele>2029.48</ele>
        <time>2013-11-28T08:53:29Z</time>
      </trkpt>
      <trkpt lat="42.71645" lon="2.00081">
        <ele>2031.88</ele>
        <time>2013-11-28T08:53:39Z</time>
      </trkpt>
      <trkpt lat="42.71637" lon="2.00086">
        <ele>2032.84</ele>
        <time>2013-11-28T08:53:56Z</time>
      </trkpt>
      <trkpt lat="42.71628" lon="2.00089">
        <ele>2034.29</ele>
        <time>2013-11-28T08:54:11Z</time>
      </trkpt>
      <trkpt lat="42.71625" lon="2.00082">
        <ele>2035.73</ele>
        <time>2013-11-28T08:54:24Z</time>
      </trkpt>
      <trkpt lat="42.71623" lon="2.00074">
        <ele>2037.65</ele>
        <time>2013-11-28T08:54:40Z</time>
      </trkpt>
      <trkpt lat="42.71624" lon="2.00076">
        <ele>2037.65</ele>
        <time>2013-11-28T08:55:11Z</time>
      </trkpt>
      <trkpt lat="42.71623" lon="2.00076">
        <ele>2038.13</ele>
        <time>2013-11-28T08:55:33Z</time>
      </trkpt>
      <trkpt lat="42.71623" lon="2.00073">
        <ele>2038.13</ele>
        <time>2013-11-28T08:55:45Z</time>
      </trkpt>
      <trkpt lat="42.71621" lon="2.00068">
        <ele>2038.13</ele>
        <time>2013-11-28T08:56:06Z</time>
      </trkpt>
      <trkpt lat="42.71615" lon="2.00063">
        <ele>2040.05</ele>
        <time>2013-11-28T08:56:19Z</time>
      </trkpt>
      <trkpt lat="42.71609" lon="2.0006">
        <ele>2041.5</ele>
        <time>2013-11-28T08:56:32Z</time>
      </trkpt>
      <trkpt lat="42.71603" lon="2.00056">
        <ele>2043.9</ele>
        <time>2013-11-28T08:56:45Z</time>
      </trkpt>
      <trkpt lat="42.71596" lon="2.0005">
        <ele>2045.34</ele>
        <time>2013-11-28T08:56:59Z</time>
      </trkpt>
      <trkpt lat="42.7159" lon="2.00045">
        <ele>2047.26</ele>
        <time>2013-11-28T08:57:13Z</time>
      </trkpt>
      <trkpt lat="42.71584" lon="2.0004">
        <ele>2048.71</ele>
        <time>2013-11-28T08:57:26Z</time>
      </trkpt>
      <trkpt lat="42.71577" lon="2.00036">
        <ele>2051.11</ele>
        <time>2013-11-28T08:57:39Z</time>
      </trkpt>
      <trkpt lat="42.71571" lon="2.00029">
        <ele>2052.55</ele>
        <time>2013-11-28T08:57:54Z</time>
      </trkpt>
      <trkpt lat="42.71568" lon="2.00025">
        <ele>2054.47</ele>
        <time>2013-11-28T08:58:07Z</time>
      </trkpt>
      <trkpt lat="42.71563" lon="2.00018">
        <ele>2056.4</ele>
        <time>2013-11-28T08:58:20Z</time>
      </trkpt>
      <trkpt lat="42.71557" lon="2.00012">
        <ele>2058.32</ele>
        <time>2013-11-28T08:58:34Z</time>
      </trkpt>
      <trkpt lat="42.7155" lon="2.00008">
        <ele>2060.24</ele>
        <time>2013-11-28T08:58:49Z</time>
      </trkpt>
      <trkpt lat="42.71543" lon="2.00004">
        <ele>2062.17</ele>
        <time>2013-11-28T08:59:02Z</time>
      </trkpt>
      <trkpt lat="42.71537" lon="2.00002">
        <ele>2064.57</ele>
        <time>2013-11-28T08:59:16Z</time>
      </trkpt>
      <trkpt lat="42.7153" lon="1.99999">
        <ele>2066.97</ele>
        <time>2013-11-28T08:59:30Z</time>
      </trkpt>
      <trkpt lat="42.71522" lon="1.99995">
        <ele>2069.38</ele>
        <time>2013-11-28T08:59:48Z</time>
      </trkpt>
      <trkpt lat="42.71513" lon="1.9999">
        <ele>2071.78</ele>
        <time>2013-11-28T09:00:04Z</time>
      </trkpt>
      <trkpt lat="42.71506" lon="1.99988">
        <ele>2073.22</ele>
        <time>2013-11-28T09:00:21Z</time>
      </trkpt>
      <trkpt lat="42.71506" lon="1.99988">
        <ele>2073.7</ele>
        <time>2013-11-28T09:00:22Z</time>
      </trkpt>
      <trkpt lat="42.71496" lon="1.99984">
        <ele>2075.14</ele>
        <time>2013-11-28T09:00:39Z</time>
      </trkpt>
      <trkpt lat="42.71489" lon="1.99981">
        <ele>2077.55</ele>
        <time>2013-11-28T09:00:55Z</time>
      </trkpt>
      <trkpt lat="42.71484" lon="1.99979">
        <ele>2080.91</ele>
        <time>2013-11-28T09:01:08Z</time>
      </trkpt>
      <trkpt lat="42.71479" lon="1.99974">
        <ele>2083.31</ele>
        <time>2013-11-28T09:01:22Z</time>
      </trkpt>
      <trkpt lat="42.7147" lon="1.99974">
        <ele>2085.24</ele>
        <time>2013-11-28T09:01:35Z</time>
      </trkpt>
      <trkpt lat="42.71469" lon="1.99973">
        <ele>2086.2</ele>
        <time>2013-11-28T09:01:48Z</time>
      </trkpt>
      <trkpt lat="42.71469" lon="1.99973">
        <ele>2087.16</ele>
        <time>2013-11-28T09:02:12Z</time>
      </trkpt>
      <trkpt lat="42.71469" lon="1.99973">
        <ele>2086.68</ele>
        <time>2013-11-28T09:02:36Z</time>
      </trkpt>
      <trkpt lat="42.71469" lon="1.99973">
        <ele>2086.2</ele>
        <time>2013-11-28T09:03:05Z</time>
      </trkpt>
      <trkpt lat="42.71468" lon="1.99975">
        <ele>2087.16</ele>
        <time>2013-11-28T09:03:31Z</time>
      </trkpt>
      <trkpt lat="42.71468" lon="1.99973">
        <ele>2086.68</ele>
        <time>2013-11-28T09:03:48Z</time>
      </trkpt>
      <trkpt lat="42.71463" lon="1.99971">
        <ele>2087.64</ele>
        <time>2013-11-28T09:04:00Z</time>
      </trkpt>
      <trkpt lat="42.71456" lon="1.99967">
        <ele>2088.6</ele>
        <time>2013-11-28T09:04:14Z</time>
      </trkpt>
      <trkpt lat="42.71449" lon="1.99965">
        <ele>2089.56</ele>
        <time>2013-11-28T09:04:27Z</time>
      </trkpt>
      <trkpt lat="42.71442" lon="1.99962">
        <ele>2090.52</ele>
        <time>2013-11-28T09:04:41Z</time>
      </trkpt>
      <trkpt lat="42.71435" lon="1.99959">
        <ele>2092.45</ele>
        <time>2013-11-28T09:04:54Z</time>
      </trkpt>
      <trkpt lat="42.71428" lon="1.99955">
        <ele>2094.37</ele>
        <time>2013-11-28T09:05:08Z</time>
      </trkpt>
      <trkpt lat="42.71421" lon="1.99952">
        <ele>2096.29</ele>
        <time>2013-11-28T09:05:22Z</time>
      </trkpt>
      <trkpt lat="42.71414" lon="1.99948">
        <ele>2098.7</ele>
        <time>2013-11-28T09:05:36Z</time>
      </trkpt>
      <trkpt lat="42.71407" lon="1.99946">
        <ele>2101.58</ele>
        <time>2013-11-28T09:05:51Z</time>
      </trkpt>
      <trkpt lat="42.71401" lon="1.99944">
        <ele>2102.54</ele>
        <time>2013-11-28T09:06:04Z</time>
      </trkpt>
      <trkpt lat="42.71394" lon="1.99944">
        <ele>2103.98</ele>
        <time>2013-11-28T09:06:18Z</time>
      </trkpt>
      <trkpt lat="42.71388" lon="1.99944">
        <ele>2106.39</ele>
        <time>2013-11-28T09:06:31Z</time>
      </trkpt>
      <trkpt lat="42.71378" lon="1.99944">
        <ele>2108.31</ele>
        <time>2013-11-28T09:06:46Z</time>
      </trkpt>
      <trkpt lat="42.71373" lon="1.99944">
        <ele>2109.27</ele>
        <time>2013-11-28T09:07:00Z</time>
      </trkpt>
      <trkpt lat="42.71363" lon="1.99945">
        <ele>2111.19</ele>
        <time>2013-11-28T09:07:16Z</time>
      </trkpt>
      <trkpt lat="42.71356" lon="1.99946">
        <ele>2112.63</ele>
        <time>2013-11-28T09:07:34Z</time>
      </trkpt>
      <trkpt lat="42.71351" lon="1.99948">
        <ele>2115.04</ele>
        <time>2013-11-28T09:07:49Z</time>
      </trkpt>
      <trkpt lat="42.71344" lon="1.99951">
        <ele>2116.96</ele>
        <time>2013-11-28T09:08:06Z</time>
      </trkpt>
      <trkpt lat="42.7134" lon="1.99949">
        <ele>2118.4</ele>
        <time>2013-11-28T09:08:18Z</time>
      </trkpt>
      <trkpt lat="42.71343" lon="1.99942">
        <ele>2120.32</ele>
        <time>2013-11-28T09:08:30Z</time>
      </trkpt>
      <trkpt lat="42.71342" lon="1.9994">
        <ele>2121.77</ele>
        <time>2013-11-28T09:08:42Z</time>
      </trkpt>
      <trkpt lat="42.71342" lon="1.9994">
        <ele>2118.88</ele>
        <time>2013-11-28T09:09:02Z</time>
      </trkpt>
      <trkpt lat="42.71341" lon="1.99938">
        <ele>2118.88</ele>
        <time>2013-11-28T09:09:23Z</time>
      </trkpt>
      <trkpt lat="42.71341" lon="1.99938">
        <ele>2119.84</ele>
        <time>2013-11-28T09:09:37Z</time>
      </trkpt>
      <trkpt lat="42.7134" lon="1.99935">
        <ele>2118.88</ele>
        <time>2013-11-28T09:10:05Z</time>
      </trkpt>
      <trkpt lat="42.7134" lon="1.9994">
        <ele>2118.4</ele>
        <time>2013-11-28T09:10:31Z</time>
      </trkpt>
      <trkpt lat="42.7134" lon="1.99936">
        <ele>2118.88</ele>
        <time>2013-11-28T09:10:51Z</time>
      </trkpt>
      <trkpt lat="42.71339" lon="1.99934">
        <ele>2116.96</ele>
        <time>2013-11-28T09:11:06Z</time>
      </trkpt>
      <trkpt lat="42.71338" lon="1.99937">
        <ele>2117.92</ele>
        <time>2013-11-28T09:11:29Z</time>
      </trkpt>
      <trkpt lat="42.71339" lon="1.99938">
        <ele>2116.48</ele>
        <time>2013-11-28T09:11:53Z</time>
      </trkpt>
      <trkpt lat="42.71341" lon="1.99938">
        <ele>2118.4</ele>
        <time>2013-11-28T09:12:13Z</time>
      </trkpt>
      <trkpt lat="42.71339" lon="1.99938">
        <ele>2118.88</ele>
        <time>2013-11-28T09:12:34Z</time>
      </trkpt>
      <trkpt lat="42.71339" lon="1.99941">
        <ele>2120.32</ele>
        <time>2013-11-28T09:12:59Z</time>
      </trkpt>
      <trkpt lat="42.71339" lon="1.9994">
        <ele>2120.32</ele>
        <time>2013-11-28T09:13:23Z</time>
      </trkpt>
      <trkpt lat="42.71339" lon="1.99939">
        <ele>2118.88</ele>
        <time>2013-11-28T09:13:45Z</time>
      </trkpt>
      <trkpt lat="42.71339" lon="1.99937">
        <ele>2117.92</ele>
        <time>2013-11-28T09:14:12Z</time>
      </trkpt>
      <trkpt lat="42.71339" lon="1.99938">
        <ele>2113.12</ele>
        <time>2013-11-28T09:14:28Z</time>
      </trkpt>
      <trkpt lat="42.7134" lon="1.99938">
        <ele>2115.04</ele>
        <time>2013-11-28T09:14:44Z</time>
      </trkpt>
      <trkpt lat="42.71343" lon="1.99941">
        <ele>2115.52</ele>
        <time>2013-11-28T09:15:13Z</time>
      </trkpt>
      <trkpt lat="42.71341" lon="1.99942">
        <ele>2116</ele>
        <time>2013-11-28T09:15:44Z</time>
      </trkpt>
      <trkpt lat="42.71342" lon="1.99941">
        <ele>2117.44</ele>
        <time>2013-11-28T09:16:04Z</time>
      </trkpt>
      <trkpt lat="42.71341" lon="1.99941">
        <ele>2116.48</ele>
        <time>2013-11-28T09:16:30Z</time>
      </trkpt>
      <trkpt lat="42.71344" lon="1.9994">
        <ele>2117.92</ele>
        <time>2013-11-28T09:17:00Z</time>
      </trkpt>
      <trkpt lat="42.71345" lon="1.99938">
        <ele>2118.88</ele>
        <time>2013-11-28T09:17:27Z</time>
      </trkpt>
      <trkpt lat="42.71346" lon="1.99939">
        <ele>2118.88</ele>
        <time>2013-11-28T09:18:04Z</time>
      </trkpt>
      <trkpt lat="42.71344" lon="1.99937">
        <ele>2118.4</ele>
        <time>2013-11-28T09:18:17Z</time>
      </trkpt>
      <trkpt lat="42.71343" lon="1.99939">
        <ele>2119.84</ele>
        <time>2013-11-28T09:18:31Z</time>
      </trkpt>
      <trkpt lat="42.71339" lon="1.99929">
        <ele>2121.77</ele>
        <time>2013-11-28T09:18:45Z</time>
      </trkpt>
      <trkpt lat="42.71337" lon="1.99923">
        <ele>2123.69</ele>
        <time>2013-11-28T09:18:59Z</time>
      </trkpt>
      <trkpt lat="42.71332" lon="1.99916">
        <ele>2125.13</ele>
        <time>2013-11-28T09:19:11Z</time>
      </trkpt>
      <trkpt lat="42.71329" lon="1.99911">
        <ele>2125.61</ele>
        <time>2013-11-28T09:19:25Z</time>
      </trkpt>
      <trkpt lat="42.71327" lon="1.99905">
        <ele>2125.13</ele>
        <time>2013-11-28T09:19:40Z</time>
      </trkpt>
      <trkpt lat="42.71322" lon="1.99893">
        <ele>2125.61</ele>
        <time>2013-11-28T09:19:55Z</time>
      </trkpt>
      <trkpt lat="42.71317" lon="1.99885">
        <ele>2127.05</ele>
        <time>2013-11-28T09:20:07Z</time>
      </trkpt>
      <trkpt lat="42.71313" lon="1.99866">
        <ele>2127.05</ele>
        <time>2013-11-28T09:20:20Z</time>
      </trkpt>
      <trkpt lat="42.71312" lon="1.99861">
        <ele>2127.05</ele>
        <time>2013-11-28T09:20:25Z</time>
      </trkpt>
      <trkpt lat="42.71311" lon="1.99853">
        <ele>2127.05</ele>
        <time>2013-11-28T09:20:30Z</time>
      </trkpt>
      <trkpt lat="42.71306" lon="1.99844">
        <ele>2126.57</ele>
        <time>2013-11-28T09:20:39Z</time>
      </trkpt>
      <trkpt lat="42.71301" lon="1.99825">
        <ele>2125.61</ele>
        <time>2013-11-28T09:20:53Z</time>
      </trkpt>
      <trkpt lat="42.71297" lon="1.99808">
        <ele>2125.13</ele>
        <time>2013-11-28T09:21:09Z</time>
      </trkpt>
      <trkpt lat="42.71293" lon="1.99792">
        <ele>2125.13</ele>
        <time>2013-11-28T09:21:28Z</time>
      </trkpt>
      <trkpt lat="42.71291" lon="1.99782">
        <ele>2124.65</ele>
        <time>2013-11-28T09:21:44Z</time>
      </trkpt>
      <trkpt lat="42.71285" lon="1.9977">
        <ele>2128.02</ele>
        <time>2013-11-28T09:22:01Z</time>
      </trkpt>
      <trkpt lat="42.71286" lon="1.9977">
        <ele>2128.5</ele>
        <time>2013-11-28T09:22:05Z</time>
      </trkpt>
      <trkpt lat="42.71284" lon="1.99753">
        <ele>2128.98</ele>
        <time>2013-11-28T09:22:21Z</time>
      </trkpt>
      <trkpt lat="42.71281" lon="1.99743">
        <ele>2129.94</ele>
        <time>2013-11-28T09:22:31Z</time>
      </trkpt>
      <trkpt lat="42.7128" lon="1.99734">
        <ele>2128.98</ele>
        <time>2013-11-28T09:22:41Z</time>
      </trkpt>
      <trkpt lat="42.71285" lon="1.99723">
        <ele>2130.42</ele>
        <time>2013-11-28T09:22:53Z</time>
      </trkpt>
      <trkpt lat="42.71286" lon="1.99718">
        <ele>2129.94</ele>
        <time>2013-11-28T09:22:57Z</time>
      </trkpt>
      <trkpt lat="42.71293" lon="1.99709">
        <ele>2129.46</ele>
        <time>2013-11-28T09:23:10Z</time>
      </trkpt>
      <trkpt lat="42.71294" lon="1.99706">
        <ele>2128.98</ele>
        <time>2013-11-28T09:23:23Z</time>
      </trkpt>
      <trkpt lat="42.71296" lon="1.99697">
        <ele>2128.5</ele>
        <time>2013-11-28T09:23:39Z</time>
      </trkpt>
      <trkpt lat="42.71296" lon="1.99694">
        <ele>2127.05</ele>
        <time>2013-11-28T09:23:54Z</time>
      </trkpt>
      <trkpt lat="42.71293" lon="1.9969">
        <ele>2126.09</ele>
        <time>2013-11-28T09:24:06Z</time>
      </trkpt>
      <trkpt lat="42.7129" lon="1.99684">
        <ele>2124.65</ele>
        <time>2013-11-28T09:24:16Z</time>
      </trkpt>
      <trkpt lat="42.71289" lon="1.99676">
        <ele>2124.17</ele>
        <time>2013-11-28T09:24:29Z</time>
      </trkpt>
      <trkpt lat="42.7129" lon="1.99666">
        <ele>2125.61</ele>
        <time>2013-11-28T09:24:41Z</time>
      </trkpt>
      <trkpt lat="42.71294" lon="1.9966">
        <ele>2124.65</ele>
        <time>2013-11-28T09:24:49Z</time>
      </trkpt>
      <trkpt lat="42.71302" lon="1.99658">
        <ele>2122.25</ele>
        <time>2013-11-28T09:25:00Z</time>
      </trkpt>
      <trkpt lat="42.71303" lon="1.99655">
        <ele>2122.25</ele>
        <time>2013-11-28T09:25:02Z</time>
      </trkpt>
      <trkpt lat="42.71301" lon="1.99637">
        <ele>2120.81</ele>
        <time>2013-11-28T09:25:18Z</time>
      </trkpt>
      <trkpt lat="42.71299" lon="1.99633">
        <ele>2121.77</ele>
        <time>2013-11-28T09:25:26Z</time>
      </trkpt>
      <trkpt lat="42.71291" lon="1.99628">
        <ele>2121.29</ele>
        <time>2013-11-28T09:25:41Z</time>
      </trkpt>
      <trkpt lat="42.71282" lon="1.99624">
        <ele>2121.77</ele>
        <time>2013-11-28T09:25:55Z</time>
      </trkpt>
      <trkpt lat="42.71276" lon="1.99621">
        <ele>2122.73</ele>
        <time>2013-11-28T09:26:07Z</time>
      </trkpt>
      <trkpt lat="42.71279" lon="1.99618">
        <ele>2122.73</ele>
        <time>2013-11-28T09:26:19Z</time>
      </trkpt>
      <trkpt lat="42.71283" lon="1.99615">
        <ele>2122.73</ele>
        <time>2013-11-28T09:26:32Z</time>
      </trkpt>
      <trkpt lat="42.71286" lon="1.99606">
        <ele>2121.77</ele>
        <time>2013-11-28T09:26:45Z</time>
      </trkpt>
      <trkpt lat="42.71288" lon="1.99594">
        <ele>2121.29</ele>
        <time>2013-11-28T09:26:57Z</time>
      </trkpt>
      <trkpt lat="42.71287" lon="1.99587">
        <ele>2121.29</ele>
        <time>2013-11-28T09:27:04Z</time>
      </trkpt>
      <trkpt lat="42.7129" lon="1.99562">
        <ele>2121.77</ele>
        <time>2013-11-28T09:27:22Z</time>
      </trkpt>
      <trkpt lat="42.71291" lon="1.99545">
        <ele>2121.77</ele>
        <time>2013-11-28T09:27:36Z</time>
      </trkpt>
      <trkpt lat="42.7129" lon="1.99534">
        <ele>2121.77</ele>
        <time>2013-11-28T09:27:48Z</time>
      </trkpt>
      <trkpt lat="42.71281" lon="1.99525">
        <ele>2119.84</ele>
        <time>2013-11-28T09:28:00Z</time>
      </trkpt>
      <trkpt lat="42.71276" lon="1.99524">
        <ele>2119.36</ele>
        <time>2013-11-28T09:28:07Z</time>
      </trkpt>
      <trkpt lat="42.71271" lon="1.9952">
        <ele>2121.29</ele>
        <time>2013-11-28T09:28:17Z</time>
      </trkpt>
      <trkpt lat="42.71267" lon="1.99496">
        <ele>2121.29</ele>
        <time>2013-11-28T09:28:34Z</time>
      </trkpt>
      <trkpt lat="42.71266" lon="1.99492">
        <ele>2122.25</ele>
        <time>2013-11-28T09:28:39Z</time>
      </trkpt>
      <trkpt lat="42.71259" lon="1.99478">
        <ele>2121.77</ele>
        <time>2013-11-28T09:28:56Z</time>
      </trkpt>
      <trkpt lat="42.71258" lon="1.99474">
        <ele>2121.77</ele>
        <time>2013-11-28T09:29:00Z</time>
      </trkpt>
      <trkpt lat="42.71256" lon="1.99464">
        <ele>2122.25</ele>
        <time>2013-11-28T09:29:08Z</time>
      </trkpt>
      <trkpt lat="42.71253" lon="1.9945">
        <ele>2122.73</ele>
        <time>2013-11-28T09:29:22Z</time>
      </trkpt>
      <trkpt lat="42.7125" lon="1.99429">
        <ele>2122.73</ele>
        <time>2013-11-28T09:29:41Z</time>
      </trkpt>
      <trkpt lat="42.71249" lon="1.99418">
        <ele>2123.21</ele>
        <time>2013-11-28T09:29:50Z</time>
      </trkpt>
      <trkpt lat="42.71247" lon="1.99398">
        <ele>2123.69</ele>
        <time>2013-11-28T09:30:08Z</time>
      </trkpt>
      <trkpt lat="42.71247" lon="1.9938">
        <ele>2123.69</ele>
        <time>2013-11-28T09:30:23Z</time>
      </trkpt>
      <trkpt lat="42.71247" lon="1.99363">
        <ele>2124.17</ele>
        <time>2013-11-28T09:30:38Z</time>
      </trkpt>
      <trkpt lat="42.71246" lon="1.99354">
        <ele>2125.61</ele>
        <time>2013-11-28T09:30:54Z</time>
      </trkpt>
      <trkpt lat="42.71247" lon="1.99337">
        <ele>2126.09</ele>
        <time>2013-11-28T09:31:10Z</time>
      </trkpt>
      <trkpt lat="42.71249" lon="1.99322">
        <ele>2127.05</ele>
        <time>2013-11-28T09:31:25Z</time>
      </trkpt>
      <trkpt lat="42.71249" lon="1.99315">
        <ele>2128.02</ele>
        <time>2013-11-28T09:31:39Z</time>
      </trkpt>
      <trkpt lat="42.71249" lon="1.99316">
        <ele>2128.98</ele>
        <time>2013-11-28T09:32:09Z</time>
      </trkpt>
      <trkpt lat="42.7125" lon="1.99299">
        <ele>2128.98</ele>
        <time>2013-11-28T09:32:24Z</time>
      </trkpt>
      <trkpt lat="42.71252" lon="1.99283">
        <ele>2129.94</ele>
        <time>2013-11-28T09:32:39Z</time>
      </trkpt>
      <trkpt lat="42.71254" lon="1.99268">
        <ele>2131.86</ele>
        <time>2013-11-28T09:32:55Z</time>
      </trkpt>
      <trkpt lat="42.71254" lon="1.99257">
        <ele>2131.86</ele>
        <time>2013-11-28T09:33:12Z</time>
      </trkpt>
      <trkpt lat="42.71255" lon="1.99241">
        <ele>2133.3</ele>
        <time>2013-11-28T09:33:28Z</time>
      </trkpt>
      <trkpt lat="42.71258" lon="1.99227">
        <ele>2135.23</ele>
        <time>2013-11-28T09:33:44Z</time>
      </trkpt>
      <trkpt lat="42.71259" lon="1.99214">
        <ele>2136.67</ele>
        <time>2013-11-28T09:34:00Z</time>
      </trkpt>
      <trkpt lat="42.71259" lon="1.99207">
        <ele>2137.15</ele>
        <time>2013-11-28T09:34:17Z</time>
      </trkpt>
      <trkpt lat="42.7126" lon="1.99205">
        <ele>2137.15</ele>
        <time>2013-11-28T09:34:33Z</time>
      </trkpt>
      <trkpt lat="42.7126" lon="1.99203">
        <ele>2137.63</ele>
        <time>2013-11-28T09:34:57Z</time>
      </trkpt>
      <trkpt lat="42.71261" lon="1.99204">
        <ele>2137.63</ele>
        <time>2013-11-28T09:35:33Z</time>
      </trkpt>
      <trkpt lat="42.71262" lon="1.99193">
        <ele>2138.11</ele>
        <time>2013-11-28T09:35:49Z</time>
      </trkpt>
      <trkpt lat="42.71263" lon="1.9918">
        <ele>2139.07</ele>
        <time>2013-11-28T09:36:03Z</time>
      </trkpt>
      <trkpt lat="42.71266" lon="1.99166">
        <ele>2140.03</ele>
        <time>2013-11-28T09:36:18Z</time>
      </trkpt>
      <trkpt lat="42.71269" lon="1.99153">
        <ele>2141.47</ele>
        <time>2013-11-28T09:36:32Z</time>
      </trkpt>
      <trkpt lat="42.71272" lon="1.99138">
        <ele>2142.92</ele>
        <time>2013-11-28T09:36:47Z</time>
      </trkpt>
      <trkpt lat="42.71272" lon="1.99135">
        <ele>2142.92</ele>
        <time>2013-11-28T09:37:01Z</time>
      </trkpt>
      <trkpt lat="42.71274" lon="1.99127">
        <ele>2143.4</ele>
        <time>2013-11-28T09:37:15Z</time>
      </trkpt>
      <trkpt lat="42.71278" lon="1.99113">
        <ele>2143.88</ele>
        <time>2013-11-28T09:37:30Z</time>
      </trkpt>
      <trkpt lat="42.7128" lon="1.99099">
        <ele>2144.84</ele>
        <time>2013-11-28T09:37:45Z</time>
      </trkpt>
      <trkpt lat="42.71281" lon="1.99083">
        <ele>2146.76</ele>
        <time>2013-11-28T09:38:02Z</time>
      </trkpt>
      <trkpt lat="42.71282" lon="1.99069">
        <ele>2148.2</ele>
        <time>2013-11-28T09:38:17Z</time>
      </trkpt>
      <trkpt lat="42.71281" lon="1.99064">
        <ele>2148.68</ele>
        <time>2013-11-28T09:38:22Z</time>
      </trkpt>
      <trkpt lat="42.71279" lon="1.99047">
        <ele>2149.16</ele>
        <time>2013-11-28T09:38:39Z</time>
      </trkpt>
      <trkpt lat="42.71277" lon="1.99038">
        <ele>2149.16</ele>
        <time>2013-11-28T09:38:47Z</time>
      </trkpt>
      <trkpt lat="42.71273" lon="1.9902">
        <ele>2149.65</ele>
        <time>2013-11-28T09:39:04Z</time>
      </trkpt>
      <trkpt lat="42.71273" lon="1.99002">
        <ele>2151.09</ele>
        <time>2013-11-28T09:39:20Z</time>
      </trkpt>
      <trkpt lat="42.71272" lon="1.98994">
        <ele>2151.57</ele>
        <time>2013-11-28T09:39:28Z</time>
      </trkpt>
      <trkpt lat="42.71274" lon="1.98982">
        <ele>2152.53</ele>
        <time>2013-11-28T09:39:39Z</time>
      </trkpt>
      <trkpt lat="42.71275" lon="1.98962">
        <ele>2152.53</ele>
        <time>2013-11-28T09:39:56Z</time>
      </trkpt>
      <trkpt lat="42.71276" lon="1.98958">
        <ele>2153.01</ele>
        <time>2013-11-28T09:40:00Z</time>
      </trkpt>
      <trkpt lat="42.71276" lon="1.98938">
        <ele>2153.01</ele>
        <time>2013-11-28T09:40:17Z</time>
      </trkpt>
      <trkpt lat="42.71276" lon="1.98925">
        <ele>2153.49</ele>
        <time>2013-11-28T09:40:31Z</time>
      </trkpt>
      <trkpt lat="42.71276" lon="1.9892">
        <ele>2152.53</ele>
        <time>2013-11-28T09:40:46Z</time>
      </trkpt>
      <trkpt lat="42.71276" lon="1.98906">
        <ele>2153.01</ele>
        <time>2013-11-28T09:41:00Z</time>
      </trkpt>
      <trkpt lat="42.71277" lon="1.98888">
        <ele>2153.01</ele>
        <time>2013-11-28T09:41:17Z</time>
      </trkpt>
      <trkpt lat="42.71275" lon="1.98871">
        <ele>2153.49</ele>
        <time>2013-11-28T09:41:34Z</time>
      </trkpt>
      <trkpt lat="42.71274" lon="1.98855">
        <ele>2154.93</ele>
        <time>2013-11-28T09:41:50Z</time>
      </trkpt>
      <trkpt lat="42.71274" lon="1.98837">
        <ele>2156.37</ele>
        <time>2013-11-28T09:42:07Z</time>
      </trkpt>
      <trkpt lat="42.71272" lon="1.98818">
        <ele>2156.86</ele>
        <time>2013-11-28T09:42:26Z</time>
      </trkpt>
      <trkpt lat="42.71271" lon="1.98802">
        <ele>2157.34</ele>
        <time>2013-11-28T09:42:41Z</time>
      </trkpt>
      <trkpt lat="42.7127" lon="1.98787">
        <ele>2157.34</ele>
        <time>2013-11-28T09:42:56Z</time>
      </trkpt>
      <trkpt lat="42.71264" lon="1.98774">
        <ele>2157.34</ele>
        <time>2013-11-28T09:43:08Z</time>
      </trkpt>
      <trkpt lat="42.7126" lon="1.98755">
        <ele>2157.34</ele>
        <time>2013-11-28T09:43:23Z</time>
      </trkpt>
      <trkpt lat="42.7126" lon="1.98734">
        <ele>2156.86</ele>
        <time>2013-11-28T09:43:41Z</time>
      </trkpt>
      <trkpt lat="42.71257" lon="1.98718">
        <ele>2157.82</ele>
        <time>2013-11-28T09:43:58Z</time>
      </trkpt>
      <trkpt lat="42.71254" lon="1.98712">
        <ele>2158.3</ele>
        <time>2013-11-28T09:44:14Z</time>
      </trkpt>
      <trkpt lat="42.71255" lon="1.98711">
        <ele>2159.26</ele>
        <time>2013-11-28T09:44:47Z</time>
      </trkpt>
      <trkpt lat="42.71251" lon="1.98705">
        <ele>2157.82</ele>
        <time>2013-11-28T09:45:17Z</time>
      </trkpt>
      <trkpt lat="42.71241" lon="1.98696">
        <ele>2158.78</ele>
        <time>2013-11-28T09:45:33Z</time>
      </trkpt>
      <trkpt lat="42.71235" lon="1.98693">
        <ele>2159.26</ele>
        <time>2013-11-28T09:45:41Z</time>
      </trkpt>
      <trkpt lat="42.71232" lon="1.98692">
        <ele>2159.26</ele>
        <time>2013-11-28T09:45:44Z</time>
      </trkpt>
      <trkpt lat="42.71228" lon="1.98685">
        <ele>2160.22</ele>
        <time>2013-11-28T09:45:58Z</time>
      </trkpt>
      <trkpt lat="42.71228" lon="1.98675">
        <ele>2159.74</ele>
        <time>2013-11-28T09:46:19Z</time>
      </trkpt>
      <trkpt lat="42.71226" lon="1.98661">
        <ele>2160.22</ele>
        <time>2013-11-28T09:46:34Z</time>
      </trkpt>
      <trkpt lat="42.71224" lon="1.98657">
        <ele>2159.26</ele>
        <time>2013-11-28T09:46:48Z</time>
      </trkpt>
      <trkpt lat="42.71222" lon="1.98655">
        <ele>2158.78</ele>
        <time>2013-11-28T09:47:03Z</time>
      </trkpt>
      <trkpt lat="42.71218" lon="1.98646">
        <ele>2160.22</ele>
        <time>2013-11-28T09:47:17Z</time>
      </trkpt>
      <trkpt lat="42.71219" lon="1.98633">
        <ele>2162.14</ele>
        <time>2013-11-28T09:47:33Z</time>
      </trkpt>
      <trkpt lat="42.71221" lon="1.98628">
        <ele>2165.03</ele>
        <time>2013-11-28T09:47:49Z</time>
      </trkpt>
      <trkpt lat="42.71222" lon="1.98619">
        <ele>2166.95</ele>
        <time>2013-11-28T09:48:07Z</time>
      </trkpt>
      <trkpt lat="42.71222" lon="1.98608">
        <ele>2168.39</ele>
        <time>2013-11-28T09:48:21Z</time>
      </trkpt>
      <trkpt lat="42.71222" lon="1.98608">
        <ele>2166.95</ele>
        <time>2013-11-28T09:48:49Z</time>
      </trkpt>
      <trkpt lat="42.71224" lon="1.98601">
        <ele>2167.91</ele>
        <time>2013-11-28T09:49:14Z</time>
      </trkpt>
      <trkpt lat="42.71226" lon="1.98592">
        <ele>2169.83</ele>
        <time>2013-11-28T09:49:28Z</time>
      </trkpt>
      <trkpt lat="42.71227" lon="1.98591">
        <ele>2168.87</ele>
        <time>2013-11-28T09:49:51Z</time>
      </trkpt>
      <trkpt lat="42.71224" lon="1.98583">
        <ele>2170.79</ele>
        <time>2013-11-28T09:50:03Z</time>
      </trkpt>
      <trkpt lat="42.71215" lon="1.98579">
        <ele>2171.27</ele>
        <time>2013-11-28T09:50:18Z</time>
      </trkpt>
      <trkpt lat="42.71211" lon="1.98568">
        <ele>2173.2</ele>
        <time>2013-11-28T09:50:33Z</time>
      </trkpt>
      <trkpt lat="42.71212" lon="1.98554">
        <ele>2175.6</ele>
        <time>2013-11-28T09:50:49Z</time>
      </trkpt>
      <trkpt lat="42.71213" lon="1.98551">
        <ele>2177.52</ele>
        <time>2013-11-28T09:51:08Z</time>
      </trkpt>
      <trkpt lat="42.71213" lon="1.98538">
        <ele>2178</ele>
        <time>2013-11-28T09:51:23Z</time>
      </trkpt>
      <trkpt lat="42.71212" lon="1.98534">
        <ele>2177.04</ele>
        <time>2013-11-28T09:51:36Z</time>
      </trkpt>
      <trkpt lat="42.71212" lon="1.98529">
        <ele>2178</ele>
        <time>2013-11-28T09:51:54Z</time>
      </trkpt>
      <trkpt lat="42.71212" lon="1.98528">
        <ele>2178</ele>
        <time>2013-11-28T09:51:55Z</time>
      </trkpt>
      <trkpt lat="42.71212" lon="1.98523">
        <ele>2177.52</ele>
        <time>2013-11-28T09:52:02Z</time>
      </trkpt>
      <trkpt lat="42.71213" lon="1.98516">
        <ele>2177.04</ele>
        <time>2013-11-28T09:52:13Z</time>
      </trkpt>
      <trkpt lat="42.71213" lon="1.98511">
        <ele>2175.6</ele>
        <time>2013-11-28T09:52:26Z</time>
      </trkpt>
      <trkpt lat="42.71214" lon="1.98504">
        <ele>2176.56</ele>
        <time>2013-11-28T09:52:37Z</time>
      </trkpt>
      <trkpt lat="42.71214" lon="1.98497">
        <ele>2176.08</ele>
        <time>2013-11-28T09:52:48Z</time>
      </trkpt>
      <trkpt lat="42.71214" lon="1.98491">
        <ele>2175.12</ele>
        <time>2013-11-28T09:53:00Z</time>
      </trkpt>
      <trkpt lat="42.71212" lon="1.98487">
        <ele>2174.64</ele>
        <time>2013-11-28T09:53:11Z</time>
      </trkpt>
      <trkpt lat="42.71211" lon="1.98482">
        <ele>2173.2</ele>
        <time>2013-11-28T09:53:25Z</time>
      </trkpt>
      <trkpt lat="42.7121" lon="1.98477">
        <ele>2173.68</ele>
        <time>2013-11-28T09:53:41Z</time>
      </trkpt>
      <trkpt lat="42.71208" lon="1.98473">
        <ele>2173.2</ele>
        <time>2013-11-28T09:53:55Z</time>
      </trkpt>
      <trkpt lat="42.71207" lon="1.98467">
        <ele>2173.2</ele>
        <time>2013-11-28T09:54:08Z</time>
      </trkpt>
      <trkpt lat="42.71203" lon="1.98462">
        <ele>2172.72</ele>
        <time>2013-11-28T09:54:21Z</time>
      </trkpt>
      <trkpt lat="42.71198" lon="1.98456">
        <ele>2173.68</ele>
        <time>2013-11-28T09:54:33Z</time>
      </trkpt>
      <trkpt lat="42.71195" lon="1.98451">
        <ele>2173.2</ele>
        <time>2013-11-28T09:54:47Z</time>
      </trkpt>
      <trkpt lat="42.71192" lon="1.98447">
        <ele>2172.72</ele>
        <time>2013-11-28T09:55:05Z</time>
      </trkpt>
      <trkpt lat="42.71188" lon="1.98446">
        <ele>2173.2</ele>
        <time>2013-11-28T09:55:16Z</time>
      </trkpt>
      <trkpt lat="42.71184" lon="1.98444">
        <ele>2174.64</ele>
        <time>2013-11-28T09:55:32Z</time>
      </trkpt>
      <trkpt lat="42.71181" lon="1.98439">
        <ele>2173.2</ele>
        <time>2013-11-28T09:55:42Z</time>
      </trkpt>
      <trkpt lat="42.71178" lon="1.9844">
        <ele>2173.2</ele>
        <time>2013-11-28T09:55:54Z</time>
      </trkpt>
      <trkpt lat="42.71178" lon="1.9844">
        <ele>2171.76</ele>
        <time>2013-11-28T09:56:08Z</time>
      </trkpt>
      <trkpt lat="42.71176" lon="1.98436">
        <ele>2170.31</ele>
        <time>2013-11-28T09:56:16Z</time>
      </trkpt>
      <trkpt lat="42.71175" lon="1.98431">
        <ele>2168.39</ele>
        <time>2013-11-28T09:56:26Z</time>
      </trkpt>
      <trkpt lat="42.71176" lon="1.98429">
        <ele>2169.35</ele>
        <time>2013-11-28T09:56:41Z</time>
      </trkpt>
      <trkpt lat="42.71176" lon="1.98429">
        <ele>2168.39</ele>
        <time>2013-11-28T09:56:49Z</time>
      </trkpt>
      <trkpt lat="42.71178" lon="1.98425">
        <ele>2168.87</ele>
        <time>2013-11-28T09:56:54Z</time>
      </trkpt>
      <trkpt lat="42.71183" lon="1.98425">
        <ele>2170.31</ele>
        <time>2013-11-28T09:57:06Z</time>
      </trkpt>
      <trkpt lat="42.71188" lon="1.98424">
        <ele>2169.83</ele>
        <time>2013-11-28T09:57:23Z</time>
      </trkpt>
      <trkpt lat="42.71193" lon="1.98425">
        <ele>2167.43</ele>
        <time>2013-11-28T09:57:37Z</time>
      </trkpt>
      <trkpt lat="42.71203" lon="1.98426">
        <ele>2167.91</ele>
        <time>2013-11-28T09:57:52Z</time>
      </trkpt>
      <trkpt lat="42.71205" lon="1.98428">
        <ele>2167.91</ele>
        <time>2013-11-28T09:58:08Z</time>
      </trkpt>
      <trkpt lat="42.71206" lon="1.98428">
        <ele>2165.99</ele>
        <time>2013-11-28T09:58:21Z</time>
      </trkpt>
      <trkpt lat="42.71207" lon="1.98426">
        <ele>2164.55</ele>
        <time>2013-11-28T09:58:33Z</time>
      </trkpt>
      <trkpt lat="42.71205" lon="1.98424">
        <ele>2162.62</ele>
        <time>2013-11-28T09:58:49Z</time>
      </trkpt>
      <trkpt lat="42.71206" lon="1.98409">
        <ele>2160.7</ele>
        <time>2013-11-28T09:58:54Z</time>
      </trkpt>
      <trkpt lat="42.71203" lon="1.98399">
        <ele>2155.41</ele>
        <time>2013-11-28T09:59:02Z</time>
      </trkpt>
      <trkpt lat="42.71198" lon="1.98387">
        <ele>2155.89</ele>
        <time>2013-11-28T09:59:15Z</time>
      </trkpt>
      <trkpt lat="42.71196" lon="1.98386">
        <ele>2156.37</ele>
        <time>2013-11-28T09:59:17Z</time>
      </trkpt>
      <trkpt lat="42.71189" lon="1.98375">
        <ele>2155.89</ele>
        <time>2013-11-28T09:59:32Z</time>
      </trkpt>
      <trkpt lat="42.71187" lon="1.9837">
        <ele>2155.89</ele>
        <time>2013-11-28T09:59:51Z</time>
      </trkpt>
      <trkpt lat="42.71188" lon="1.98366">
        <ele>2154.93</ele>
        <time>2013-11-28T10:00:12Z</time>
      </trkpt>
      <trkpt lat="42.71188" lon="1.98363">
        <ele>2155.89</ele>
        <time>2013-11-28T10:00:26Z</time>
      </trkpt>
      <trkpt lat="42.71186" lon="1.98354">
        <ele>2153.97</ele>
        <time>2013-11-28T10:00:38Z</time>
      </trkpt>
      <trkpt lat="42.71183" lon="1.9835">
        <ele>2153.01</ele>
        <time>2013-11-28T10:00:49Z</time>
      </trkpt>
      <trkpt lat="42.71184" lon="1.98346">
        <ele>2153.01</ele>
        <time>2013-11-28T10:01:04Z</time>
      </trkpt>
      <trkpt lat="42.71184" lon="1.98342">
        <ele>2152.53</ele>
        <time>2013-11-28T10:01:20Z</time>
      </trkpt>
      <trkpt lat="42.71184" lon="1.98337">
        <ele>2150.61</ele>
        <time>2013-11-28T10:01:37Z</time>
      </trkpt>
      <trkpt lat="42.71184" lon="1.98335">
        <ele>2149.65</ele>
        <time>2013-11-28T10:01:51Z</time>
      </trkpt>
      <trkpt lat="42.71182" lon="1.98334">
        <ele>2149.65</ele>
        <time>2013-11-28T10:02:05Z</time>
      </trkpt>
      <trkpt lat="42.71179" lon="1.98329">
        <ele>2150.61</ele>
        <time>2013-11-28T10:02:17Z</time>
      </trkpt>
      <trkpt lat="42.71178" lon="1.98327">
        <ele>2150.61</ele>
        <time>2013-11-28T10:02:31Z</time>
      </trkpt>
      <trkpt lat="42.71175" lon="1.98316">
        <ele>2150.61</ele>
        <time>2013-11-28T10:02:50Z</time>
      </trkpt>
      <trkpt lat="42.71174" lon="1.98315">
        <ele>2150.13</ele>
        <time>2013-11-28T10:02:52Z</time>
      </trkpt>
      <trkpt lat="42.71171" lon="1.98308">
        <ele>2148.68</ele>
        <time>2013-11-28T10:03:05Z</time>
      </trkpt>
      <trkpt lat="42.7117" lon="1.98304">
        <ele>2148.68</ele>
        <time>2013-11-28T10:03:21Z</time>
      </trkpt>
      <trkpt lat="42.71169" lon="1.983">
        <ele>2147.24</ele>
        <time>2013-11-28T10:03:38Z</time>
      </trkpt>
      <trkpt lat="42.71166" lon="1.98298">
        <ele>2148.2</ele>
        <time>2013-11-28T10:03:48Z</time>
      </trkpt>
      <trkpt lat="42.71164" lon="1.98294">
        <ele>2146.76</ele>
        <time>2013-11-28T10:04:01Z</time>
      </trkpt>
      <trkpt lat="42.71165" lon="1.98293">
        <ele>2146.28</ele>
        <time>2013-11-28T10:04:15Z</time>
      </trkpt>
      <trkpt lat="42.71163" lon="1.98284">
        <ele>2147.72</ele>
        <time>2013-11-28T10:04:28Z</time>
      </trkpt>
      <trkpt lat="42.71164" lon="1.9828">
        <ele>2149.16</ele>
        <time>2013-11-28T10:04:40Z</time>
      </trkpt>
      <trkpt lat="42.7116" lon="1.98274">
        <ele>2150.13</ele>
        <time>2013-11-28T10:04:50Z</time>
      </trkpt>
      <trkpt lat="42.71159" lon="1.98262">
        <ele>2147.72</ele>
        <time>2013-11-28T10:05:01Z</time>
      </trkpt>
      <trkpt lat="42.71159" lon="1.98257">
        <ele>2147.24</ele>
        <time>2013-11-28T10:05:15Z</time>
      </trkpt>
      <trkpt lat="42.71159" lon="1.98255">
        <ele>2147.24</ele>
        <time>2013-11-28T10:05:23Z</time>
      </trkpt>
      <trkpt lat="42.7116" lon="1.98253">
        <ele>2146.76</ele>
        <time>2013-11-28T10:05:38Z</time>
      </trkpt>
      <trkpt lat="42.7116" lon="1.9825">
        <ele>2146.28</ele>
        <time>2013-11-28T10:05:47Z</time>
      </trkpt>
      <trkpt lat="42.7116" lon="1.9824">
        <ele>2145.32</ele>
        <time>2013-11-28T10:05:59Z</time>
      </trkpt>
      <trkpt lat="42.7116" lon="1.98235">
        <ele>2144.84</ele>
        <time>2013-11-28T10:06:16Z</time>
      </trkpt>
      <trkpt lat="42.71159" lon="1.98233">
        <ele>2144.36</ele>
        <time>2013-11-28T10:06:41Z</time>
      </trkpt>
      <trkpt lat="42.71159" lon="1.9823">
        <ele>2145.32</ele>
        <time>2013-11-28T10:06:55Z</time>
      </trkpt>
      <trkpt lat="42.71157" lon="1.98228">
        <ele>2144.36</ele>
        <time>2013-11-28T10:07:09Z</time>
      </trkpt>
      <trkpt lat="42.71158" lon="1.98222">
        <ele>2143.4</ele>
        <time>2013-11-28T10:07:25Z</time>
      </trkpt>
      <trkpt lat="42.71157" lon="1.98218">
        <ele>2142.92</ele>
        <time>2013-11-28T10:07:35Z</time>
      </trkpt>
      <trkpt lat="42.71155" lon="1.98215">
        <ele>2142.44</ele>
        <time>2013-11-28T10:07:47Z</time>
      </trkpt>
      <trkpt lat="42.71156" lon="1.98209">
        <ele>2143.88</ele>
        <time>2013-11-28T10:08:03Z</time>
      </trkpt>
      <trkpt lat="42.71154" lon="1.98206">
        <ele>2144.84</ele>
        <time>2013-11-28T10:08:17Z</time>
      </trkpt>
      <trkpt lat="42.71148" lon="1.98204">
        <ele>2145.8</ele>
        <time>2013-11-28T10:08:33Z</time>
      </trkpt>
      <trkpt lat="42.71145" lon="1.98207">
        <ele>2145.8</ele>
        <time>2013-11-28T10:08:44Z</time>
      </trkpt>
      <trkpt lat="42.71144" lon="1.98206">
        <ele>2146.28</ele>
        <time>2013-11-28T10:08:59Z</time>
      </trkpt>
      <trkpt lat="42.71142" lon="1.98204">
        <ele>2145.8</ele>
        <time>2013-11-28T10:09:23Z</time>
      </trkpt>
      <trkpt lat="42.71142" lon="1.98203">
        <ele>2144.84</ele>
        <time>2013-11-28T10:09:35Z</time>
      </trkpt>
      <trkpt lat="42.71143" lon="1.982">
        <ele>2145.8</ele>
        <time>2013-11-28T10:09:53Z</time>
      </trkpt>
      <trkpt lat="42.71143" lon="1.98201">
        <ele>2145.8</ele>
        <time>2013-11-28T10:10:11Z</time>
      </trkpt>
      <trkpt lat="42.71144" lon="1.98202">
        <ele>2145.32</ele>
        <time>2013-11-28T10:10:22Z</time>
      </trkpt>
      <trkpt lat="42.71144" lon="1.98202">
        <ele>2143.4</ele>
        <time>2013-11-28T10:10:53Z</time>
      </trkpt>
      <trkpt lat="42.71145" lon="1.98202">
        <ele>2143.88</ele>
        <time>2013-11-28T10:11:12Z</time>
      </trkpt>
      <trkpt lat="42.71144" lon="1.98203">
        <ele>2145.32</ele>
        <time>2013-11-28T10:11:26Z</time>
      </trkpt>
      <trkpt lat="42.71143" lon="1.98204">
        <ele>2145.8</ele>
        <time>2013-11-28T10:11:35Z</time>
      </trkpt>
      <trkpt lat="42.71141" lon="1.98204">
        <ele>2145.32</ele>
        <time>2013-11-28T10:11:45Z</time>
      </trkpt>
      <trkpt lat="42.71141" lon="1.98201">
        <ele>2146.76</ele>
        <time>2013-11-28T10:11:58Z</time>
      </trkpt>
      <trkpt lat="42.71141" lon="1.98195">
        <ele>2149.16</ele>
        <time>2013-11-28T10:12:09Z</time>
      </trkpt>
      <trkpt lat="42.71142" lon="1.98195">
        <ele>2149.65</ele>
        <time>2013-11-28T10:12:20Z</time>
      </trkpt>
      <trkpt lat="42.71142" lon="1.98188">
        <ele>2149.16</ele>
        <time>2013-11-28T10:12:31Z</time>
      </trkpt>
      <trkpt lat="42.71142" lon="1.98186">
        <ele>2148.68</ele>
        <time>2013-11-28T10:12:34Z</time>
      </trkpt>
      <trkpt lat="42.71139" lon="1.98181">
        <ele>2147.24</ele>
        <time>2013-11-28T10:12:45Z</time>
      </trkpt>
      <trkpt lat="42.71138" lon="1.98174">
        <ele>2148.2</ele>
        <time>2013-11-28T10:12:57Z</time>
      </trkpt>
      <trkpt lat="42.71136" lon="1.9817">
        <ele>2148.2</ele>
        <time>2013-11-28T10:13:09Z</time>
      </trkpt>
      <trkpt lat="42.71136" lon="1.98167">
        <ele>2149.16</ele>
        <time>2013-11-28T10:13:21Z</time>
      </trkpt>
      <trkpt lat="42.71135" lon="1.9816">
        <ele>2148.2</ele>
        <time>2013-11-28T10:13:30Z</time>
      </trkpt>
      <trkpt lat="42.71135" lon="1.98157">
        <ele>2147.24</ele>
        <time>2013-11-28T10:13:43Z</time>
      </trkpt>
      <trkpt lat="42.71134" lon="1.98155">
        <ele>2147.24</ele>
        <time>2013-11-28T10:13:56Z</time>
      </trkpt>
      <trkpt lat="42.71134" lon="1.98154">
        <ele>2147.24</ele>
        <time>2013-11-28T10:13:59Z</time>
      </trkpt>
      <trkpt lat="42.7113" lon="1.98148">
        <ele>2145.8</ele>
        <time>2013-11-28T10:14:12Z</time>
      </trkpt>
      <trkpt lat="42.7113" lon="1.98146">
        <ele>2145.8</ele>
        <time>2013-11-28T10:14:23Z</time>
      </trkpt>
      <trkpt lat="42.71131" lon="1.98144">
        <ele>2146.28</ele>
        <time>2013-11-28T10:14:29Z</time>
      </trkpt>
      <trkpt lat="42.71132" lon="1.98139">
        <ele>2146.76</ele>
        <time>2013-11-28T10:14:42Z</time>
      </trkpt>
      <trkpt lat="42.7113" lon="1.98131">
        <ele>2148.2</ele>
        <time>2013-11-28T10:14:57Z</time>
      </trkpt>
      <trkpt lat="42.71132" lon="1.98125">
        <ele>2149.65</ele>
        <time>2013-11-28T10:15:08Z</time>
      </trkpt>
      <trkpt lat="42.71132" lon="1.98123">
        <ele>2148.68</ele>
        <time>2013-11-28T10:15:17Z</time>
      </trkpt>
      <trkpt lat="42.71132" lon="1.98122">
        <ele>2148.2</ele>
        <time>2013-11-28T10:15:27Z</time>
      </trkpt>
      <trkpt lat="42.71132" lon="1.9812">
        <ele>2147.72</ele>
        <time>2013-11-28T10:15:40Z</time>
      </trkpt>
      <trkpt lat="42.71133" lon="1.98117">
        <ele>2145.8</ele>
        <time>2013-11-28T10:15:54Z</time>
      </trkpt>
      <trkpt lat="42.71135" lon="1.98111">
        <ele>2146.28</ele>
        <time>2013-11-28T10:16:07Z</time>
      </trkpt>
      <trkpt lat="42.71136" lon="1.9811">
        <ele>2145.32</ele>
        <time>2013-11-28T10:16:11Z</time>
      </trkpt>
      <trkpt lat="42.71139" lon="1.98108">
        <ele>2142.92</ele>
        <time>2013-11-28T10:16:19Z</time>
      </trkpt>
      <trkpt lat="42.71141" lon="1.98106">
        <ele>2142.92</ele>
        <time>2013-11-28T10:16:30Z</time>
      </trkpt>
      <trkpt lat="42.71142" lon="1.98104">
        <ele>2143.4</ele>
        <time>2013-11-28T10:16:44Z</time>
      </trkpt>
      <trkpt lat="42.71143" lon="1.98099">
        <ele>2141.95</ele>
        <time>2013-11-28T10:16:54Z</time>
      </trkpt>
      <trkpt lat="42.71144" lon="1.98087">
        <ele>2140.03</ele>
        <time>2013-11-28T10:17:07Z</time>
      </trkpt>
      <trkpt lat="42.71145" lon="1.98082">
        <ele>2140.99</ele>
        <time>2013-11-28T10:17:18Z</time>
      </trkpt>
      <trkpt lat="42.71146" lon="1.98079">
        <ele>2141.47</ele>
        <time>2013-11-28T10:17:30Z</time>
      </trkpt>
      <trkpt lat="42.71147" lon="1.98074">
        <ele>2140.51</ele>
        <time>2013-11-28T10:17:40Z</time>
      </trkpt>
      <trkpt lat="42.71147" lon="1.9807">
        <ele>2139.55</ele>
        <time>2013-11-28T10:17:53Z</time>
      </trkpt>
      <trkpt lat="42.71146" lon="1.98066">
        <ele>2137.15</ele>
        <time>2013-11-28T10:18:08Z</time>
      </trkpt>
      <trkpt lat="42.71144" lon="1.9807">
        <ele>2133.78</ele>
        <time>2013-11-28T10:18:31Z</time>
      </trkpt>
      <trkpt lat="42.71143" lon="1.98067">
        <ele>2133.78</ele>
        <time>2013-11-28T10:18:52Z</time>
      </trkpt>
      <trkpt lat="42.71144" lon="1.98065">
        <ele>2133.78</ele>
        <time>2013-11-28T10:19:07Z</time>
      </trkpt>
      <trkpt lat="42.71143" lon="1.98059">
        <ele>2134.26</ele>
        <time>2013-11-28T10:19:21Z</time>
      </trkpt>
      <trkpt lat="42.71141" lon="1.98062">
        <ele>2131.38</ele>
        <time>2013-11-28T10:19:35Z</time>
      </trkpt>
      <trkpt lat="42.7114" lon="1.98067">
        <ele>2131.38</ele>
        <time>2013-11-28T10:19:45Z</time>
      </trkpt>
      <trkpt lat="42.71141" lon="1.98073">
        <ele>2130.9</ele>
        <time>2013-11-28T10:19:56Z</time>
      </trkpt>
      <trkpt lat="42.71142" lon="1.98072">
        <ele>2130.9</ele>
        <time>2013-11-28T10:20:11Z</time>
      </trkpt>
      <trkpt lat="42.71144" lon="1.98072">
        <ele>2132.34</ele>
        <time>2013-11-28T10:20:31Z</time>
      </trkpt>
      <trkpt lat="42.71144" lon="1.98073">
        <ele>2131.86</ele>
        <time>2013-11-28T10:20:50Z</time>
      </trkpt>
      <trkpt lat="42.71143" lon="1.98078">
        <ele>2133.3</ele>
        <time>2013-11-28T10:21:17Z</time>
      </trkpt>
      <trkpt lat="42.71143" lon="1.98072">
        <ele>2132.34</ele>
        <time>2013-11-28T10:21:42Z</time>
      </trkpt>
      <trkpt lat="42.71145" lon="1.98074">
        <ele>2130.9</ele>
        <time>2013-11-28T10:22:07Z</time>
      </trkpt>
      <trkpt lat="42.71137" lon="1.9808">
        <ele>2126.57</ele>
        <time>2013-11-28T10:22:37Z</time>
      </trkpt>
      <trkpt lat="42.7114" lon="1.98077">
        <ele>2126.57</ele>
        <time>2013-11-28T10:22:58Z</time>
      </trkpt>
      <trkpt lat="42.71142" lon="1.9807">
        <ele>2131.38</ele>
        <time>2013-11-28T10:23:26Z</time>
      </trkpt>
      <trkpt lat="42.71142" lon="1.98068">
        <ele>2131.86</ele>
        <time>2013-11-28T10:23:42Z</time>
      </trkpt>
      <trkpt lat="42.71145" lon="1.9806">
        <ele>2133.3</ele>
        <time>2013-11-28T10:23:57Z</time>
      </trkpt>
      <trkpt lat="42.71145" lon="1.98059">
        <ele>2131.86</ele>
        <time>2013-11-28T10:24:13Z</time>
      </trkpt>
      <trkpt lat="42.71143" lon="1.98059">
        <ele>2131.86</ele>
        <time>2013-11-28T10:24:37Z</time>
      </trkpt>
      <trkpt lat="42.71144" lon="1.98057">
        <ele>2134.26</ele>
        <time>2013-11-28T10:25:03Z</time>
      </trkpt>
      <trkpt lat="42.71146" lon="1.98052">
        <ele>2134.26</ele>
        <time>2013-11-28T10:25:13Z</time>
      </trkpt>
      <trkpt lat="42.71146" lon="1.98052">
        <ele>2134.26</ele>
        <time>2013-11-28T10:25:14Z</time>
      </trkpt>
      <trkpt lat="42.71148" lon="1.98047">
        <ele>2133.78</ele>
        <time>2013-11-28T10:25:17Z</time>
      </trkpt>
      <trkpt lat="42.71149" lon="1.98044">
        <ele>2133.3</ele>
        <time>2013-11-28T10:25:19Z</time>
      </trkpt>
      <trkpt lat="42.71151" lon="1.98036">
        <ele>2130.9</ele>
        <time>2013-11-28T10:25:31Z</time>
      </trkpt>
      <trkpt lat="42.71152" lon="1.98028">
        <ele>2128.98</ele>
        <time>2013-11-28T10:25:45Z</time>
      </trkpt>
      <trkpt lat="42.71153" lon="1.98035">
        <ele>2125.61</ele>
        <time>2013-11-28T10:25:57Z</time>
      </trkpt>
      <trkpt lat="42.71154" lon="1.98039">
        <ele>2124.65</ele>
        <time>2013-11-28T10:26:05Z</time>
      </trkpt>
      <trkpt lat="42.71159" lon="1.98054">
        <ele>2120.32</ele>
        <time>2013-11-28T10:26:19Z</time>
      </trkpt>
      <trkpt lat="42.71163" lon="1.98056">
        <ele>2116.96</ele>
        <time>2013-11-28T10:26:31Z</time>
      </trkpt>
      <trkpt lat="42.71166" lon="1.98048">
        <ele>2114.56</ele>
        <time>2013-11-28T10:26:43Z</time>
      </trkpt>
      <trkpt lat="42.71166" lon="1.98048">
        <ele>2112.15</ele>
        <time>2013-11-28T10:26:53Z</time>
      </trkpt>
      <trkpt lat="42.71169" lon="1.98047">
        <ele>2112.63</ele>
        <time>2013-11-28T10:27:14Z</time>
      </trkpt>
      <trkpt lat="42.71169" lon="1.98045">
        <ele>2112.15</ele>
        <time>2013-11-28T10:27:34Z</time>
      </trkpt>
      <trkpt lat="42.71167" lon="1.98036">
        <ele>2112.15</ele>
        <time>2013-11-28T10:27:49Z</time>
      </trkpt>
      <trkpt lat="42.71165" lon="1.98027">
        <ele>2111.67</ele>
        <time>2013-11-28T10:28:01Z</time>
      </trkpt>
      <trkpt lat="42.71164" lon="1.9802">
        <ele>2112.63</ele>
        <time>2013-11-28T10:28:16Z</time>
      </trkpt>
      <trkpt lat="42.71164" lon="1.9801">
        <ele>2115.52</ele>
        <time>2013-11-28T10:28:31Z</time>
      </trkpt>
      <trkpt lat="42.71163" lon="1.98001">
        <ele>2115.04</ele>
        <time>2013-11-28T10:28:44Z</time>
      </trkpt>
      <trkpt lat="42.71162" lon="1.97996">
        <ele>2116</ele>
        <time>2013-11-28T10:28:58Z</time>
      </trkpt>
      <trkpt lat="42.71162" lon="1.9799">
        <ele>2114.08</ele>
        <time>2013-11-28T10:29:10Z</time>
      </trkpt>
      <trkpt lat="42.71162" lon="1.97981">
        <ele>2115.52</ele>
        <time>2013-11-28T10:29:23Z</time>
      </trkpt>
      <trkpt lat="42.71162" lon="1.9798">
        <ele>2115.52</ele>
        <time>2013-11-28T10:29:24Z</time>
      </trkpt>
      <trkpt lat="42.71163" lon="1.97973">
        <ele>2114.56</ele>
        <time>2013-11-28T10:29:37Z</time>
      </trkpt>
      <trkpt lat="42.71159" lon="1.97963">
        <ele>2116.96</ele>
        <time>2013-11-28T10:29:50Z</time>
      </trkpt>
      <trkpt lat="42.71155" lon="1.97955">
        <ele>2118.88</ele>
        <time>2013-11-28T10:30:05Z</time>
      </trkpt>
      <trkpt lat="42.71152" lon="1.97946">
        <ele>2120.32</ele>
        <time>2013-11-28T10:30:20Z</time>
      </trkpt>
      <trkpt lat="42.7115" lon="1.97938">
        <ele>2122.25</ele>
        <time>2013-11-28T10:30:35Z</time>
      </trkpt>
      <trkpt lat="42.71148" lon="1.97929">
        <ele>2123.21</ele>
        <time>2013-11-28T10:30:48Z</time>
      </trkpt>
      <trkpt lat="42.71146" lon="1.97924">
        <ele>2125.13</ele>
        <time>2013-11-28T10:31:06Z</time>
      </trkpt>
      <trkpt lat="42.71144" lon="1.97915">
        <ele>2128.02</ele>
        <time>2013-11-28T10:31:25Z</time>
      </trkpt>
      <trkpt lat="42.71147" lon="1.9791">
        <ele>2128.5</ele>
        <time>2013-11-28T10:31:43Z</time>
      </trkpt>
      <trkpt lat="42.71143" lon="1.979">
        <ele>2128.02</ele>
        <time>2013-11-28T10:31:57Z</time>
      </trkpt>
      <trkpt lat="42.71141" lon="1.9789">
        <ele>2130.42</ele>
        <time>2013-11-28T10:32:17Z</time>
      </trkpt>
      <trkpt lat="42.7114" lon="1.97879">
        <ele>2132.34</ele>
        <time>2013-11-28T10:32:33Z</time>
      </trkpt>
      <trkpt lat="42.71139" lon="1.97866">
        <ele>2135.23</ele>
        <time>2013-11-28T10:32:52Z</time>
      </trkpt>
      <trkpt lat="42.71139" lon="1.97857">
        <ele>2136.19</ele>
        <time>2013-11-28T10:33:07Z</time>
      </trkpt>
      <trkpt lat="42.71142" lon="1.97846">
        <ele>2134.74</ele>
        <time>2013-11-28T10:33:25Z</time>
      </trkpt>
      <trkpt lat="42.71145" lon="1.97837">
        <ele>2133.78</ele>
        <time>2013-11-28T10:33:41Z</time>
      </trkpt>
      <trkpt lat="42.71148" lon="1.9783">
        <ele>2133.78</ele>
        <time>2013-11-28T10:33:56Z</time>
      </trkpt>
      <trkpt lat="42.71151" lon="1.9782">
        <ele>2137.63</ele>
        <time>2013-11-28T10:34:11Z</time>
      </trkpt>
      <trkpt lat="42.71154" lon="1.97811">
        <ele>2140.03</ele>
        <time>2013-11-28T10:34:26Z</time>
      </trkpt>
      <trkpt lat="42.71155" lon="1.978">
        <ele>2143.4</ele>
        <time>2013-11-28T10:34:46Z</time>
      </trkpt>
      <trkpt lat="42.71156" lon="1.97791">
        <ele>2143.88</ele>
        <time>2013-11-28T10:34:59Z</time>
      </trkpt>
      <trkpt lat="42.7116" lon="1.97784">
        <ele>2145.32</ele>
        <time>2013-11-28T10:35:14Z</time>
      </trkpt>
      <trkpt lat="42.71166" lon="1.97775">
        <ele>2148.2</ele>
        <time>2013-11-28T10:35:28Z</time>
      </trkpt>
      <trkpt lat="42.7117" lon="1.9777">
        <ele>2150.13</ele>
        <time>2013-11-28T10:35:42Z</time>
      </trkpt>
      <trkpt lat="42.71174" lon="1.97765">
        <ele>2153.49</ele>
        <time>2013-11-28T10:35:56Z</time>
      </trkpt>
      <trkpt lat="42.7118" lon="1.97755">
        <ele>2156.86</ele>
        <time>2013-11-28T10:36:12Z</time>
      </trkpt>
      <trkpt lat="42.71183" lon="1.97747">
        <ele>2157.82</ele>
        <time>2013-11-28T10:36:25Z</time>
      </trkpt>
      <trkpt lat="42.71188" lon="1.97741">
        <ele>2157.34</ele>
        <time>2013-11-28T10:36:41Z</time>
      </trkpt>
      <trkpt lat="42.71193" lon="1.97737">
        <ele>2160.22</ele>
        <time>2013-11-28T10:36:58Z</time>
      </trkpt>
      <trkpt lat="42.712" lon="1.97732">
        <ele>2164.06</ele>
        <time>2013-11-28T10:37:13Z</time>
      </trkpt>
      <trkpt lat="42.71205" lon="1.97726">
        <ele>2165.03</ele>
        <time>2013-11-28T10:37:26Z</time>
      </trkpt>
      <trkpt lat="42.71206" lon="1.97726">
        <ele>2164.55</ele>
        <time>2013-11-28T10:37:51Z</time>
      </trkpt>
      <trkpt lat="42.7121" lon="1.97722">
        <ele>2167.91</ele>
        <time>2013-11-28T10:38:05Z</time>
      </trkpt>
      <trkpt lat="42.71217" lon="1.97717">
        <ele>2170.79</ele>
        <time>2013-11-28T10:38:23Z</time>
      </trkpt>
      <trkpt lat="42.71221" lon="1.97713">
        <ele>2173.68</ele>
        <time>2013-11-28T10:38:39Z</time>
      </trkpt>
      <trkpt lat="42.71228" lon="1.97706">
        <ele>2177.04</ele>
        <time>2013-11-28T10:38:57Z</time>
      </trkpt>
      <trkpt lat="42.71235" lon="1.977">
        <ele>2179.93</ele>
        <time>2013-11-28T10:39:14Z</time>
      </trkpt>
      <trkpt lat="42.71242" lon="1.97693">
        <ele>2182.33</ele>
        <time>2013-11-28T10:39:30Z</time>
      </trkpt>
      <trkpt lat="42.71248" lon="1.9769">
        <ele>2185.21</ele>
        <time>2013-11-28T10:39:45Z</time>
      </trkpt>
      <trkpt lat="42.71254" lon="1.97684">
        <ele>2187.14</ele>
        <time>2013-11-28T10:40:02Z</time>
      </trkpt>
      <trkpt lat="42.71259" lon="1.97678">
        <ele>2188.58</ele>
        <time>2013-11-28T10:40:20Z</time>
      </trkpt>
      <trkpt lat="42.71264" lon="1.97671">
        <ele>2187.62</ele>
        <time>2013-11-28T10:40:35Z</time>
      </trkpt>
      <trkpt lat="42.71267" lon="1.97666">
        <ele>2189.06</ele>
        <time>2013-11-28T10:40:52Z</time>
      </trkpt>
      <trkpt lat="42.7127" lon="1.97663">
        <ele>2190.5</ele>
        <time>2013-11-28T10:41:16Z</time>
      </trkpt>
      <trkpt lat="42.71275" lon="1.97657">
        <ele>2191.46</ele>
        <time>2013-11-28T10:41:32Z</time>
      </trkpt>
      <trkpt lat="42.71281" lon="1.97646">
        <ele>2192.42</ele>
        <time>2013-11-28T10:41:51Z</time>
      </trkpt>
      <trkpt lat="42.71286" lon="1.97641">
        <ele>2196.27</ele>
        <time>2013-11-28T10:42:05Z</time>
      </trkpt>
      <trkpt lat="42.71292" lon="1.97632">
        <ele>2198.19</ele>
        <time>2013-11-28T10:42:21Z</time>
      </trkpt>
      <trkpt lat="42.71297" lon="1.97624">
        <ele>2200.11</ele>
        <time>2013-11-28T10:42:37Z</time>
      </trkpt>
      <trkpt lat="42.71299" lon="1.97621">
        <ele>2201.08</ele>
        <time>2013-11-28T10:42:55Z</time>
      </trkpt>
      <trkpt lat="42.71301" lon="1.97616">
        <ele>2202.04</ele>
        <time>2013-11-28T10:43:24Z</time>
      </trkpt>
      <trkpt lat="42.71307" lon="1.97608">
        <ele>2205.4</ele>
        <time>2013-11-28T10:43:39Z</time>
      </trkpt>
      <trkpt lat="42.71311" lon="1.97599">
        <ele>2207.81</ele>
        <time>2013-11-28T10:43:55Z</time>
      </trkpt>
      <trkpt lat="42.71316" lon="1.97589">
        <ele>2208.29</ele>
        <time>2013-11-28T10:44:12Z</time>
      </trkpt>
      <trkpt lat="42.71313" lon="1.97581">
        <ele>2208.77</ele>
        <time>2013-11-28T10:44:27Z</time>
      </trkpt>
      <trkpt lat="42.71311" lon="1.97576">
        <ele>2211.17</ele>
        <time>2013-11-28T10:44:44Z</time>
      </trkpt>
      <trkpt lat="42.71308" lon="1.97571">
        <ele>2215.98</ele>
        <time>2013-11-28T10:44:59Z</time>
      </trkpt>
      <trkpt lat="42.713" lon="1.97567">
        <ele>2217.42</ele>
        <time>2013-11-28T10:45:19Z</time>
      </trkpt>
      <trkpt lat="42.71293" lon="1.97561">
        <ele>2219.34</ele>
        <time>2013-11-28T10:45:33Z</time>
      </trkpt>
      <trkpt lat="42.71287" lon="1.97554">
        <ele>2219.82</ele>
        <time>2013-11-28T10:45:49Z</time>
      </trkpt>
      <trkpt lat="42.71283" lon="1.9755">
        <ele>2220.78</ele>
        <time>2013-11-28T10:46:01Z</time>
      </trkpt>
      <trkpt lat="42.71279" lon="1.97543">
        <ele>2224.15</ele>
        <time>2013-11-28T10:46:14Z</time>
      </trkpt>
      <trkpt lat="42.71276" lon="1.97538">
        <ele>2224.63</ele>
        <time>2013-11-28T10:46:26Z</time>
      </trkpt>
      <trkpt lat="42.71273" lon="1.97531">
        <ele>2224.63</ele>
        <time>2013-11-28T10:46:42Z</time>
      </trkpt>
      <trkpt lat="42.71269" lon="1.97523">
        <ele>2227.03</ele>
        <time>2013-11-28T10:47:02Z</time>
      </trkpt>
      <trkpt lat="42.71267" lon="1.97518">
        <ele>2227.03</ele>
        <time>2013-11-28T10:47:22Z</time>
      </trkpt>
      <trkpt lat="42.71263" lon="1.9751">
        <ele>2228.95</ele>
        <time>2013-11-28T10:47:36Z</time>
      </trkpt>
      <trkpt lat="42.71259" lon="1.975">
        <ele>2230.88</ele>
        <time>2013-11-28T10:47:51Z</time>
      </trkpt>
      <trkpt lat="42.71255" lon="1.97488">
        <ele>2233.28</ele>
        <time>2013-11-28T10:48:07Z</time>
      </trkpt>
      <trkpt lat="42.71254" lon="1.9748">
        <ele>2236.16</ele>
        <time>2013-11-28T10:48:21Z</time>
      </trkpt>
      <trkpt lat="42.71254" lon="1.97478">
        <ele>2236.64</ele>
        <time>2013-11-28T10:48:32Z</time>
      </trkpt>
      <trkpt lat="42.71254" lon="1.97478">
        <ele>2237.13</ele>
        <time>2013-11-28T10:48:59Z</time>
      </trkpt>
      <trkpt lat="42.71255" lon="1.9748">
        <ele>2235.68</ele>
        <time>2013-11-28T10:49:11Z</time>
      </trkpt>
      <trkpt lat="42.71256" lon="1.97481">
        <ele>2237.13</ele>
        <time>2013-11-28T10:49:49Z</time>
      </trkpt>
      <trkpt lat="42.71256" lon="1.97482">
        <ele>2235.68</ele>
        <time>2013-11-28T10:50:25Z</time>
      </trkpt>
      <trkpt lat="42.71255" lon="1.9748">
        <ele>2233.28</ele>
        <time>2013-11-28T10:51:05Z</time>
      </trkpt>
      <trkpt lat="42.71254" lon="1.9748">
        <ele>2233.28</ele>
        <time>2013-11-28T10:51:46Z</time>
      </trkpt>
      <trkpt lat="42.71255" lon="1.9748">
        <ele>2234.24</ele>
        <time>2013-11-28T10:52:35Z</time>
      </trkpt>
      <trkpt lat="42.71255" lon="1.97479">
        <ele>2234.24</ele>
        <time>2013-11-28T10:53:20Z</time>
      </trkpt>
      <trkpt lat="42.71254" lon="1.97479">
        <ele>2235.2</ele>
        <time>2013-11-28T10:53:32Z</time>
      </trkpt>
      <trkpt lat="42.71255" lon="1.9748">
        <ele>2234.72</ele>
        <time>2013-11-28T10:53:56Z</time>
      </trkpt>
      <trkpt lat="42.71255" lon="1.97479">
        <ele>2235.2</ele>
        <time>2013-11-28T10:54:24Z</time>
      </trkpt>
      <trkpt lat="42.71255" lon="1.97479">
        <ele>2235.68</ele>
        <time>2013-11-28T10:54:56Z</time>
      </trkpt>
      <trkpt lat="42.71255" lon="1.97478">
        <ele>2234.72</ele>
        <time>2013-11-28T10:55:26Z</time>
      </trkpt>
      <trkpt lat="42.71258" lon="1.97472">
        <ele>2233.76</ele>
        <time>2013-11-28T10:55:40Z</time>
      </trkpt>
      <trkpt lat="42.71261" lon="1.97468">
        <ele>2236.16</ele>
        <time>2013-11-28T10:55:52Z</time>
      </trkpt>
      <trkpt lat="42.71265" lon="1.9746">
        <ele>2238.57</ele>
        <time>2013-11-28T10:56:04Z</time>
      </trkpt>
      <trkpt lat="42.7127" lon="1.97449">
        <ele>2239.05</ele>
        <time>2013-11-28T10:56:18Z</time>
      </trkpt>
      <trkpt lat="42.71274" lon="1.97441">
        <ele>2240.97</ele>
        <time>2013-11-28T10:56:34Z</time>
      </trkpt>
      <trkpt lat="42.71279" lon="1.97432">
        <ele>2243.37</ele>
        <time>2013-11-28T10:56:51Z</time>
      </trkpt>
      <trkpt lat="42.71287" lon="1.97431">
        <ele>2245.78</ele>
        <time>2013-11-28T10:57:06Z</time>
      </trkpt>
      <trkpt lat="42.71291" lon="1.9743">
        <ele>2247.22</ele>
        <time>2013-11-28T10:57:21Z</time>
      </trkpt>
      <trkpt lat="42.71291" lon="1.9743">
        <ele>2249.14</ele>
        <time>2013-11-28T10:57:46Z</time>
      </trkpt>
      <trkpt lat="42.71292" lon="1.97429">
        <ele>2248.66</ele>
        <time>2013-11-28T10:58:10Z</time>
      </trkpt>
      <trkpt lat="42.7129" lon="1.97432">
        <ele>2249.62</ele>
        <time>2013-11-28T10:58:27Z</time>
      </trkpt>
      <trkpt lat="42.7129" lon="1.97431">
        <ele>2248.66</ele>
        <time>2013-11-28T10:58:43Z</time>
      </trkpt>
      <trkpt lat="42.7129" lon="1.97431">
        <ele>2248.18</ele>
        <time>2013-11-28T10:59:18Z</time>
      </trkpt>
      <trkpt lat="42.7129" lon="1.97432">
        <ele>2248.66</ele>
        <time>2013-11-28T10:59:36Z</time>
      </trkpt>
      <trkpt lat="42.7129" lon="1.97431">
        <ele>2249.62</ele>
        <time>2013-11-28T10:59:50Z</time>
      </trkpt>
      <trkpt lat="42.7129" lon="1.97431">
        <ele>2250.58</ele>
        <time>2013-11-28T11:00:02Z</time>
      </trkpt>
      <trkpt lat="42.71291" lon="1.97433">
        <ele>2249.62</ele>
        <time>2013-11-28T11:00:16Z</time>
      </trkpt>
      <trkpt lat="42.71293" lon="1.97428">
        <ele>2252.03</ele>
        <time>2013-11-28T11:00:33Z</time>
      </trkpt>
      <trkpt lat="42.71296" lon="1.97419">
        <ele>2254.43</ele>
        <time>2013-11-28T11:00:48Z</time>
      </trkpt>
      <trkpt lat="42.713" lon="1.97405">
        <ele>2255.87</ele>
        <time>2013-11-28T11:01:04Z</time>
      </trkpt>
      <trkpt lat="42.71304" lon="1.97393">
        <ele>2257.31</ele>
        <time>2013-11-28T11:01:21Z</time>
      </trkpt>
      <trkpt lat="42.71306" lon="1.97381">
        <ele>2258.75</ele>
        <time>2013-11-28T11:01:39Z</time>
      </trkpt>
      <trkpt lat="42.71306" lon="1.97372">
        <ele>2260.68</ele>
        <time>2013-11-28T11:01:52Z</time>
      </trkpt>
      <trkpt lat="42.71307" lon="1.97364">
        <ele>2263.08</ele>
        <time>2013-11-28T11:02:04Z</time>
      </trkpt>
      <trkpt lat="42.71306" lon="1.97355">
        <ele>2264.52</ele>
        <time>2013-11-28T11:02:20Z</time>
      </trkpt>
      <trkpt lat="42.71305" lon="1.97345">
        <ele>2266.93</ele>
        <time>2013-11-28T11:02:33Z</time>
      </trkpt>
      <trkpt lat="42.71305" lon="1.97334">
        <ele>2267.41</ele>
        <time>2013-11-28T11:02:52Z</time>
      </trkpt>
      <trkpt lat="42.71306" lon="1.97322">
        <ele>2268.85</ele>
        <time>2013-11-28T11:03:08Z</time>
      </trkpt>
      <trkpt lat="42.71307" lon="1.97314">
        <ele>2271.25</ele>
        <time>2013-11-28T11:03:23Z</time>
      </trkpt>
      <trkpt lat="42.71308" lon="1.97313">
        <ele>2274.14</ele>
        <time>2013-11-28T11:03:38Z</time>
      </trkpt>
      <trkpt lat="42.71307" lon="1.97311">
        <ele>2275.58</ele>
        <time>2013-11-28T11:04:11Z</time>
      </trkpt>
      <trkpt lat="42.71308" lon="1.97311">
        <ele>2276.54</ele>
        <time>2013-11-28T11:04:43Z</time>
      </trkpt>
      <trkpt lat="42.71308" lon="1.97311">
        <ele>2276.54</ele>
        <time>2013-11-28T11:04:59Z</time>
      </trkpt>
      <trkpt lat="42.71308" lon="1.97311">
        <ele>2276.54</ele>
        <time>2013-11-28T11:05:29Z</time>
      </trkpt>
      <trkpt lat="42.71309" lon="1.97312">
        <ele>2277.5</ele>
        <time>2013-11-28T11:06:02Z</time>
      </trkpt>
      <trkpt lat="42.71307" lon="1.9731">
        <ele>2276.54</ele>
        <time>2013-11-28T11:06:34Z</time>
      </trkpt>
      <trkpt lat="42.71307" lon="1.97311">
        <ele>2276.06</ele>
        <time>2013-11-28T11:07:01Z</time>
      </trkpt>
      <trkpt lat="42.71308" lon="1.9731">
        <ele>2277.5</ele>
        <time>2013-11-28T11:07:14Z</time>
      </trkpt>
      <trkpt lat="42.71307" lon="1.9731">
        <ele>2276.54</ele>
        <time>2013-11-28T11:07:37Z</time>
      </trkpt>
      <trkpt lat="42.71307" lon="1.9731">
        <ele>2277.02</ele>
        <time>2013-11-28T11:08:02Z</time>
      </trkpt>
      <trkpt lat="42.71307" lon="1.97312">
        <ele>2275.1</ele>
        <time>2013-11-28T11:08:26Z</time>
      </trkpt>
      <trkpt lat="42.71309" lon="1.9731">
        <ele>2274.62</ele>
        <time>2013-11-28T11:08:39Z</time>
      </trkpt>
      <trkpt lat="42.71316" lon="1.97306">
        <ele>2275.58</ele>
        <time>2013-11-28T11:08:56Z</time>
      </trkpt>
      <trkpt lat="42.71321" lon="1.97302">
        <ele>2277.02</ele>
        <time>2013-11-28T11:09:05Z</time>
      </trkpt>
      <trkpt lat="42.71318" lon="1.97293">
        <ele>2278.94</ele>
        <time>2013-11-28T11:09:18Z</time>
      </trkpt>
      <trkpt lat="42.71314" lon="1.97281">
        <ele>2282.31</ele>
        <time>2013-11-28T11:09:35Z</time>
      </trkpt>
      <trkpt lat="42.71312" lon="1.97274">
        <ele>2285.19</ele>
        <time>2013-11-28T11:09:47Z</time>
      </trkpt>
      <trkpt lat="42.7131" lon="1.97267">
        <ele>2287.59</ele>
        <time>2013-11-28T11:10:04Z</time>
      </trkpt>
      <trkpt lat="42.71308" lon="1.97263">
        <ele>2288.08</ele>
        <time>2013-11-28T11:10:17Z</time>
      </trkpt>
      <trkpt lat="42.71304" lon="1.97254">
        <ele>2289.04</ele>
        <time>2013-11-28T11:10:31Z</time>
      </trkpt>
      <trkpt lat="42.713" lon="1.97247">
        <ele>2290.96</ele>
        <time>2013-11-28T11:10:45Z</time>
      </trkpt>
      <trkpt lat="42.71297" lon="1.97239">
        <ele>2293.36</ele>
        <time>2013-11-28T11:11:01Z</time>
      </trkpt>
      <trkpt lat="42.71294" lon="1.97232">
        <ele>2295.77</ele>
        <time>2013-11-28T11:11:16Z</time>
      </trkpt>
      <trkpt lat="42.71291" lon="1.97225">
        <ele>2296.73</ele>
        <time>2013-11-28T11:11:31Z</time>
      </trkpt>
      <trkpt lat="42.71289" lon="1.9722">
        <ele>2298.17</ele>
        <time>2013-11-28T11:11:47Z</time>
      </trkpt>
      <trkpt lat="42.7129" lon="1.97219">
        <ele>2297.69</ele>
        <time>2013-11-28T11:12:15Z</time>
      </trkpt>
      <trkpt lat="42.71287" lon="1.97212">
        <ele>2300.09</ele>
        <time>2013-11-28T11:12:28Z</time>
      </trkpt>
      <trkpt lat="42.71283" lon="1.97206">
        <ele>2301.05</ele>
        <time>2013-11-28T11:12:44Z</time>
      </trkpt>
      <trkpt lat="42.7128" lon="1.97198">
        <ele>2303.46</ele>
        <time>2013-11-28T11:12:59Z</time>
      </trkpt>
      <trkpt lat="42.71276" lon="1.97188">
        <ele>2307.3</ele>
        <time>2013-11-28T11:13:16Z</time>
      </trkpt>
      <trkpt lat="42.71273" lon="1.97182">
        <ele>2308.26</ele>
        <time>2013-11-28T11:13:31Z</time>
      </trkpt>
      <trkpt lat="42.71271" lon="1.97172">
        <ele>2312.59</ele>
        <time>2013-11-28T11:13:46Z</time>
      </trkpt>
      <trkpt lat="42.7127" lon="1.97171">
        <ele>2313.55</ele>
        <time>2013-11-28T11:13:58Z</time>
      </trkpt>
      <trkpt lat="42.71271" lon="1.97172">
        <ele>2312.59</ele>
        <time>2013-11-28T11:14:24Z</time>
      </trkpt>
      <trkpt lat="42.71271" lon="1.97171">
        <ele>2312.11</ele>
        <time>2013-11-28T11:14:45Z</time>
      </trkpt>
      <trkpt lat="42.71271" lon="1.97171">
        <ele>2312.59</ele>
        <time>2013-11-28T11:15:08Z</time>
      </trkpt>
      <trkpt lat="42.71274" lon="1.97173">
        <ele>2312.59</ele>
        <time>2013-11-28T11:15:31Z</time>
      </trkpt>
      <trkpt lat="42.71282" lon="1.97174">
        <ele>2315.95</ele>
        <time>2013-11-28T11:15:47Z</time>
      </trkpt>
      <trkpt lat="42.71289" lon="1.97176">
        <ele>2320.28</ele>
        <time>2013-11-28T11:16:05Z</time>
      </trkpt>
      <trkpt lat="42.713" lon="1.97177">
        <ele>2322.2</ele>
        <time>2013-11-28T11:16:22Z</time>
      </trkpt>
      <trkpt lat="42.71308" lon="1.97177">
        <ele>2324.61</ele>
        <time>2013-11-28T11:16:37Z</time>
      </trkpt>
      <trkpt lat="42.71308" lon="1.97177">
        <ele>2325.57</ele>
        <time>2013-11-28T11:16:49Z</time>
      </trkpt>
      <trkpt lat="42.71304" lon="1.97169">
        <ele>2328.45</ele>
        <time>2013-11-28T11:17:06Z</time>
      </trkpt>
      <trkpt lat="42.71301" lon="1.97163">
        <ele>2329.41</ele>
        <time>2013-11-28T11:17:20Z</time>
      </trkpt>
      <trkpt lat="42.71299" lon="1.97156">
        <ele>2330.37</ele>
        <time>2013-11-28T11:17:33Z</time>
      </trkpt>
      <trkpt lat="42.71296" lon="1.97147">
        <ele>2331.33</ele>
        <time>2013-11-28T11:17:50Z</time>
      </trkpt>
      <trkpt lat="42.71296" lon="1.97148">
        <ele>2331.33</ele>
        <time>2013-11-28T11:18:11Z</time>
      </trkpt>
      <trkpt lat="42.713" lon="1.9715">
        <ele>2331.81</ele>
        <time>2013-11-28T11:18:27Z</time>
      </trkpt>
      <trkpt lat="42.71309" lon="1.97153">
        <ele>2331.33</ele>
        <time>2013-11-28T11:18:41Z</time>
      </trkpt>
      <trkpt lat="42.71316" lon="1.97154">
        <ele>2332.3</ele>
        <time>2013-11-28T11:18:54Z</time>
      </trkpt>
      <trkpt lat="42.71322" lon="1.97155">
        <ele>2336.14</ele>
        <time>2013-11-28T11:19:09Z</time>
      </trkpt>
      <trkpt lat="42.71319" lon="1.97154">
        <ele>2338.06</ele>
        <time>2013-11-28T11:19:41Z</time>
      </trkpt>
      <trkpt lat="42.71321" lon="1.97154">
        <ele>2339.02</ele>
        <time>2013-11-28T11:19:56Z</time>
      </trkpt>
      <trkpt lat="42.71318" lon="1.97146">
        <ele>2337.58</ele>
        <time>2013-11-28T11:20:09Z</time>
      </trkpt>
      <trkpt lat="42.71314" lon="1.97138">
        <ele>2339.02</ele>
        <time>2013-11-28T11:20:28Z</time>
      </trkpt>
      <trkpt lat="42.71314" lon="1.97128">
        <ele>2341.91</ele>
        <time>2013-11-28T11:20:44Z</time>
      </trkpt>
      <trkpt lat="42.71316" lon="1.97117">
        <ele>2345.27</ele>
        <time>2013-11-28T11:21:02Z</time>
      </trkpt>
      <trkpt lat="42.7132" lon="1.97106">
        <ele>2346.72</ele>
        <time>2013-11-28T11:21:21Z</time>
      </trkpt>
      <trkpt lat="42.71326" lon="1.97099">
        <ele>2349.6</ele>
        <time>2013-11-28T11:21:41Z</time>
      </trkpt>
      <trkpt lat="42.71333" lon="1.97095">
        <ele>2353.44</ele>
        <time>2013-11-28T11:21:58Z</time>
      </trkpt>
      <trkpt lat="42.71341" lon="1.97091">
        <ele>2356.33</ele>
        <time>2013-11-28T11:22:15Z</time>
      </trkpt>
      <trkpt lat="42.7135" lon="1.97092">
        <ele>2356.81</ele>
        <time>2013-11-28T11:22:30Z</time>
      </trkpt>
      <trkpt lat="42.7136" lon="1.97091">
        <ele>2357.77</ele>
        <time>2013-11-28T11:22:44Z</time>
      </trkpt>
      <trkpt lat="42.71367" lon="1.97086">
        <ele>2361.62</ele>
        <time>2013-11-28T11:23:03Z</time>
      </trkpt>
      <trkpt lat="42.71377" lon="1.97082">
        <ele>2361.14</ele>
        <time>2013-11-28T11:23:21Z</time>
      </trkpt>
      <trkpt lat="42.71382" lon="1.97081">
        <ele>2361.62</ele>
        <time>2013-11-28T11:23:32Z</time>
      </trkpt>
      <trkpt lat="42.71382" lon="1.9708">
        <ele>2362.58</ele>
        <time>2013-11-28T11:23:52Z</time>
      </trkpt>
      <trkpt lat="42.71382" lon="1.97081">
        <ele>2362.58</ele>
        <time>2013-11-28T11:24:10Z</time>
      </trkpt>
      <trkpt lat="42.71381" lon="1.97081">
        <ele>2362.1</ele>
        <time>2013-11-28T11:24:25Z</time>
      </trkpt>
      <trkpt lat="42.71381" lon="1.97081">
        <ele>2361.62</ele>
        <time>2013-11-28T11:24:43Z</time>
      </trkpt>
      <trkpt lat="42.71382" lon="1.97081">
        <ele>2361.62</ele>
        <time>2013-11-28T11:25:02Z</time>
      </trkpt>
      <trkpt lat="42.71382" lon="1.97081">
        <ele>2362.58</ele>
        <time>2013-11-28T11:25:20Z</time>
      </trkpt>
      <trkpt lat="42.71381" lon="1.97081">
        <ele>2361.62</ele>
        <time>2013-11-28T11:25:36Z</time>
      </trkpt>
      <trkpt lat="42.71381" lon="1.97081">
        <ele>2361.62</ele>
        <time>2013-11-28T11:25:56Z</time>
      </trkpt>
      <trkpt lat="42.71382" lon="1.97081">
        <ele>2361.14</ele>
        <time>2013-11-28T11:26:16Z</time>
      </trkpt>
      <trkpt lat="42.71382" lon="1.97081">
        <ele>2360.65</ele>
        <time>2013-11-28T11:26:32Z</time>
      </trkpt>
      <trkpt lat="42.71381" lon="1.97081">
        <ele>2361.62</ele>
        <time>2013-11-28T11:26:52Z</time>
      </trkpt>
      <trkpt lat="42.71382" lon="1.9708">
        <ele>2361.62</ele>
        <time>2013-11-28T11:27:12Z</time>
      </trkpt>
      <trkpt lat="42.71381" lon="1.97081">
        <ele>2362.1</ele>
        <time>2013-11-28T11:27:36Z</time>
      </trkpt>
      <trkpt lat="42.71381" lon="1.97081">
        <ele>2360.65</ele>
        <time>2013-11-28T11:28:06Z</time>
      </trkpt>
      <trkpt lat="42.71381" lon="1.97081">
        <ele>2359.21</ele>
        <time>2013-11-28T11:28:36Z</time>
      </trkpt>
      <trkpt lat="42.71381" lon="1.97081">
        <ele>2359.21</ele>
        <time>2013-11-28T11:29:16Z</time>
      </trkpt>
      <trkpt lat="42.71381" lon="1.97081">
        <ele>2358.25</ele>
        <time>2013-11-28T11:29:42Z</time>
      </trkpt>
      <trkpt lat="42.71381" lon="1.97081">
        <ele>2359.69</ele>
        <time>2013-11-28T11:30:18Z</time>
      </trkpt>
      <trkpt lat="42.71381" lon="1.97082">
        <ele>2359.69</ele>
        <time>2013-11-28T11:30:46Z</time>
      </trkpt>
      <trkpt lat="42.7138" lon="1.97081">
        <ele>2359.69</ele>
        <time>2013-11-28T11:31:10Z</time>
      </trkpt>
      <trkpt lat="42.71381" lon="1.9708">
        <ele>2360.65</ele>
        <time>2013-11-28T11:31:30Z</time>
      </trkpt>
      <trkpt lat="42.71381" lon="1.97081">
        <ele>2361.14</ele>
        <time>2013-11-28T11:31:48Z</time>
      </trkpt>
      <trkpt lat="42.71381" lon="1.97081">
        <ele>2360.65</ele>
        <time>2013-11-28T11:32:20Z</time>
      </trkpt>
      <trkpt lat="42.71382" lon="1.9708">
        <ele>2359.69</ele>
        <time>2013-11-28T11:33:00Z</time>
      </trkpt>
      <trkpt lat="42.71382" lon="1.97081">
        <ele>2360.65</ele>
        <time>2013-11-28T11:33:37Z</time>
      </trkpt>
      <trkpt lat="42.71382" lon="1.97081">
        <ele>2361.14</ele>
        <time>2013-11-28T11:34:14Z</time>
      </trkpt>
      <trkpt lat="42.71382" lon="1.97081">
        <ele>2361.14</ele>
        <time>2013-11-28T11:35:08Z</time>
      </trkpt>
      <trkpt lat="42.71381" lon="1.9708">
        <ele>2360.65</ele>
        <time>2013-11-28T11:35:52Z</time>
      </trkpt>
      <trkpt lat="42.71381" lon="1.97081">
        <ele>2362.1</ele>
        <time>2013-11-28T11:36:32Z</time>
      </trkpt>
      <trkpt lat="42.71382" lon="1.97081">
        <ele>2361.14</ele>
        <time>2013-11-28T11:37:14Z</time>
      </trkpt>
      <trkpt lat="42.71382" lon="1.97081">
        <ele>2360.65</ele>
        <time>2013-11-28T11:37:48Z</time>
      </trkpt>
      <trkpt lat="42.71382" lon="1.97081">
        <ele>2360.65</ele>
        <time>2013-11-28T11:38:30Z</time>
      </trkpt>
      <trkpt lat="42.71381" lon="1.97081">
        <ele>2358.73</ele>
        <time>2013-11-28T11:39:08Z</time>
      </trkpt>
      <trkpt lat="42.71381" lon="1.9708">
        <ele>2358.73</ele>
        <time>2013-11-28T11:39:21Z</time>
      </trkpt>
      <trkpt lat="42.7138" lon="1.97081">
        <ele>2357.77</ele>
        <time>2013-11-28T11:40:10Z</time>
      </trkpt>
      <trkpt lat="42.7138" lon="1.97081">
        <ele>2357.29</ele>
        <time>2013-11-28T11:41:02Z</time>
      </trkpt>
      <trkpt lat="42.71381" lon="1.97081">
        <ele>2357.29</ele>
        <time>2013-11-28T11:41:57Z</time>
      </trkpt>
      <trkpt lat="42.71381" lon="1.97081">
        <ele>2357.77</ele>
        <time>2013-11-28T11:42:48Z</time>
      </trkpt>
      <trkpt lat="42.71381" lon="1.97081">
        <ele>2357.29</ele>
        <time>2013-11-28T11:43:45Z</time>
      </trkpt>
      <trkpt lat="42.71381" lon="1.97081">
        <ele>2357.77</ele>
        <time>2013-11-28T11:44:34Z</time>
      </trkpt>
      <trkpt lat="42.71381" lon="1.97081">
        <ele>2357.77</ele>
        <time>2013-11-28T11:45:27Z</time>
      </trkpt>
      <trkpt lat="42.71381" lon="1.97082">
        <ele>2357.77</ele>
        <time>2013-11-28T11:46:31Z</time>
      </trkpt>
      <trkpt lat="42.71381" lon="1.97082">
        <ele>2357.77</ele>
        <time>2013-11-28T11:47:28Z</time>
      </trkpt>
      <trkpt lat="42.71381" lon="1.97082">
        <ele>2359.21</ele>
        <time>2013-11-28T11:48:29Z</time>
      </trkpt>
      <trkpt lat="42.71381" lon="1.97082">
        <ele>2358.73</ele>
        <time>2013-11-28T11:49:31Z</time>
      </trkpt>
      <trkpt lat="42.71381" lon="1.97082">
        <ele>2358.25</ele>
        <time>2013-11-28T11:50:14Z</time>
      </trkpt>
      <trkpt lat="42.7138" lon="1.97082">
        <ele>2357.77</ele>
        <time>2013-11-28T11:51:06Z</time>
      </trkpt>
      <trkpt lat="42.7138" lon="1.97082">
        <ele>2357.77</ele>
        <time>2013-11-28T11:51:54Z</time>
      </trkpt>
      <trkpt lat="42.71381" lon="1.97082">
        <ele>2358.25</ele>
        <time>2013-11-28T11:52:50Z</time>
      </trkpt>
      <trkpt lat="42.71381" lon="1.97082">
        <ele>2358.25</ele>
        <time>2013-11-28T11:53:22Z</time>
      </trkpt>
      <trkpt lat="42.71382" lon="1.97081">
        <ele>2358.73</ele>
        <time>2013-11-28T11:53:41Z</time>
      </trkpt>
      <trkpt lat="42.71381" lon="1.97081">
        <ele>2357.77</ele>
        <time>2013-11-28T11:54:07Z</time>
      </trkpt>
      <trkpt lat="42.71381" lon="1.9708">
        <ele>2355.85</ele>
        <time>2013-11-28T11:54:50Z</time>
      </trkpt>
      <trkpt lat="42.71381" lon="1.97081">
        <ele>2356.33</ele>
        <time>2013-11-28T11:55:28Z</time>
      </trkpt>
      <trkpt lat="42.71381" lon="1.97081">
        <ele>2356.81</ele>
        <time>2013-11-28T11:56:17Z</time>
      </trkpt>
      <trkpt lat="42.71381" lon="1.97081">
        <ele>2356.33</ele>
        <time>2013-11-28T11:57:08Z</time>
      </trkpt>
      <trkpt lat="42.71381" lon="1.97081">
        <ele>2356.33</ele>
        <time>2013-11-28T11:57:47Z</time>
      </trkpt>
      <trkpt lat="42.71382" lon="1.97081">
        <ele>2358.73</ele>
        <time>2013-11-28T11:58:08Z</time>
      </trkpt>
      <trkpt lat="42.71382" lon="1.9708">
        <ele>2359.21</ele>
        <time>2013-11-28T11:58:44Z</time>
      </trkpt>
      <trkpt lat="42.71381" lon="1.9708">
        <ele>2358.25</ele>
        <time>2013-11-28T11:59:21Z</time>
      </trkpt>
      <trkpt lat="42.71381" lon="1.97082">
        <ele>2358.73</ele>
        <time>2013-11-28T11:59:28Z</time>
      </trkpt>
      <trkpt lat="42.71381" lon="1.97081">
        <ele>2358.73</ele>
        <time>2013-11-28T11:59:46Z</time>
      </trkpt>
      <trkpt lat="42.71381" lon="1.97081">
        <ele>2359.21</ele>
        <time>2013-11-28T12:00:09Z</time>
      </trkpt>
      <trkpt lat="42.71381" lon="1.97082">
        <ele>2360.17</ele>
        <time>2013-11-28T12:00:23Z</time>
      </trkpt>
      <trkpt lat="42.71382" lon="1.97082">
        <ele>2359.69</ele>
        <time>2013-11-28T12:00:34Z</time>
      </trkpt>
      <trkpt lat="42.71382" lon="1.97082">
        <ele>2360.17</ele>
        <time>2013-11-28T12:00:44Z</time>
      </trkpt>
      <trkpt lat="42.71381" lon="1.97081">
        <ele>2359.69</ele>
        <time>2013-11-28T12:01:03Z</time>
      </trkpt>
      <trkpt lat="42.71382" lon="1.97082">
        <ele>2359.69</ele>
        <time>2013-11-28T12:01:22Z</time>
      </trkpt>
      <trkpt lat="42.71382" lon="1.97083">
        <ele>2360.17</ele>
        <time>2013-11-28T12:01:42Z</time>
      </trkpt>
      <trkpt lat="42.71384" lon="1.97085">
        <ele>2360.65</ele>
        <time>2013-11-28T12:01:56Z</time>
      </trkpt>
      <trkpt lat="42.71388" lon="1.97088">
        <ele>2360.65</ele>
        <time>2013-11-28T12:02:02Z</time>
      </trkpt>
      <trkpt lat="42.71396" lon="1.97103">
        <ele>2356.33</ele>
        <time>2013-11-28T12:02:10Z</time>
      </trkpt>
      <trkpt lat="42.71391" lon="1.97107">
        <ele>2354.89</ele>
        <time>2013-11-28T12:02:13Z</time>
      </trkpt>
      <trkpt lat="42.7139" lon="1.97112">
        <ele>2353.44</ele>
        <time>2013-11-28T12:02:15Z</time>
      </trkpt>
      <trkpt lat="42.71392" lon="1.97114">
        <ele>2352.48</ele>
        <time>2013-11-28T12:02:16Z</time>
      </trkpt>
      <trkpt lat="42.71392" lon="1.97117">
        <ele>2351.52</ele>
        <time>2013-11-28T12:02:17Z</time>
      </trkpt>
      <trkpt lat="42.7139" lon="1.97118">
        <ele>2351.04</ele>
        <time>2013-11-28T12:02:18Z</time>
      </trkpt>
      <trkpt lat="42.71388" lon="1.97119">
        <ele>2350.56</ele>
        <time>2013-11-28T12:02:19Z</time>
      </trkpt>
      <trkpt lat="42.71386" lon="1.9712">
        <ele>2350.08</ele>
        <time>2013-11-28T12:02:20Z</time>
      </trkpt>
      <trkpt lat="42.71386" lon="1.97124">
        <ele>2348.64</ele>
        <time>2013-11-28T12:02:21Z</time>
      </trkpt>
      <trkpt lat="42.71385" lon="1.97128">
        <ele>2347.2</ele>
        <time>2013-11-28T12:02:22Z</time>
      </trkpt>
      <trkpt lat="42.71384" lon="1.97132">
        <ele>2345.27</ele>
        <time>2013-11-28T12:02:23Z</time>
      </trkpt>
      <trkpt lat="42.71384" lon="1.97135">
        <ele>2343.83</ele>
        <time>2013-11-28T12:02:24Z</time>
      </trkpt>
      <trkpt lat="42.71383" lon="1.97138">
        <ele>2342.87</ele>
        <time>2013-11-28T12:02:25Z</time>
      </trkpt>
      <trkpt lat="42.71382" lon="1.97141">
        <ele>2341.43</ele>
        <time>2013-11-28T12:02:26Z</time>
      </trkpt>
      <trkpt lat="42.71383" lon="1.97145">
        <ele>2339.51</ele>
        <time>2013-11-28T12:02:27Z</time>
      </trkpt>
      <trkpt lat="42.71382" lon="1.97148">
        <ele>2338.06</ele>
        <time>2013-11-28T12:02:28Z</time>
      </trkpt>
      <trkpt lat="42.71381" lon="1.97151">
        <ele>2336.14</ele>
        <time>2013-11-28T12:02:29Z</time>
      </trkpt>
      <trkpt lat="42.71383" lon="1.97159">
        <ele>2331.81</ele>
        <time>2013-11-28T12:02:31Z</time>
      </trkpt>
      <trkpt lat="42.7138" lon="1.97162">
        <ele>2329.89</ele>
        <time>2013-11-28T12:02:32Z</time>
      </trkpt>
      <trkpt lat="42.71379" lon="1.97165">
        <ele>2328.45</ele>
        <time>2013-11-28T12:02:33Z</time>
      </trkpt>
      <trkpt lat="42.7138" lon="1.97168">
        <ele>2326.05</ele>
        <time>2013-11-28T12:02:34Z</time>
      </trkpt>
      <trkpt lat="42.71378" lon="1.97174">
        <ele>2324.12</ele>
        <time>2013-11-28T12:02:35Z</time>
      </trkpt>
      <trkpt lat="42.71383" lon="1.9718">
        <ele>2320.28</ele>
        <time>2013-11-28T12:02:37Z</time>
      </trkpt>
      <trkpt lat="42.71384" lon="1.97186">
        <ele>2317.4</ele>
        <time>2013-11-28T12:02:39Z</time>
      </trkpt>
      <trkpt lat="42.71387" lon="1.97194">
        <ele>2313.07</ele>
        <time>2013-11-28T12:02:41Z</time>
      </trkpt>
      <trkpt lat="42.7139" lon="1.97201">
        <ele>2309.22</ele>
        <time>2013-11-28T12:02:43Z</time>
      </trkpt>
      <trkpt lat="42.71392" lon="1.97205">
        <ele>2307.3</ele>
        <time>2013-11-28T12:02:44Z</time>
      </trkpt>
      <trkpt lat="42.71395" lon="1.97205">
        <ele>2305.38</ele>
        <time>2013-11-28T12:02:51Z</time>
      </trkpt>
      <trkpt lat="42.71395" lon="1.97206">
        <ele>2305.86</ele>
        <time>2013-11-28T12:03:13Z</time>
      </trkpt>
      <trkpt lat="42.71395" lon="1.97205">
        <ele>2306.34</ele>
        <time>2013-11-28T12:03:37Z</time>
      </trkpt>
      <trkpt lat="42.71397" lon="1.97205">
        <ele>2305.86</ele>
        <time>2013-11-28T12:03:56Z</time>
      </trkpt>
      <trkpt lat="42.71399" lon="1.97222">
        <ele>2300.09</ele>
        <time>2013-11-28T12:04:02Z</time>
      </trkpt>
      <trkpt lat="42.714" lon="1.97241">
        <ele>2292.88</ele>
        <time>2013-11-28T12:04:06Z</time>
      </trkpt>
      <trkpt lat="42.71401" lon="1.97262">
        <ele>2284.71</ele>
        <time>2013-11-28T12:04:11Z</time>
      </trkpt>
      <trkpt lat="42.71407" lon="1.97275">
        <ele>2280.38</ele>
        <time>2013-11-28T12:04:15Z</time>
      </trkpt>
      <trkpt lat="42.71415" lon="1.97275">
        <ele>2278.46</ele>
        <time>2013-11-28T12:04:18Z</time>
      </trkpt>
      <trkpt lat="42.71424" lon="1.97271">
        <ele>2277.02</ele>
        <time>2013-11-28T12:04:31Z</time>
      </trkpt>
      <trkpt lat="42.71434" lon="1.97268">
        <ele>2275.1</ele>
        <time>2013-11-28T12:04:44Z</time>
      </trkpt>
      <trkpt lat="42.71449" lon="1.97264">
        <ele>2272.69</ele>
        <time>2013-11-28T12:04:55Z</time>
      </trkpt>
      <trkpt lat="42.71455" lon="1.97263">
        <ele>2271.73</ele>
        <time>2013-11-28T12:04:58Z</time>
      </trkpt>
      <trkpt lat="42.71467" lon="1.97287">
        <ele>2257.31</ele>
        <time>2013-11-28T12:05:05Z</time>
      </trkpt>
      <trkpt lat="42.71479" lon="1.97289">
        <ele>2252.51</ele>
        <time>2013-11-28T12:05:09Z</time>
      </trkpt>
      <trkpt lat="42.71484" lon="1.97286">
        <ele>2252.51</ele>
        <time>2013-11-28T12:05:12Z</time>
      </trkpt>
      <trkpt lat="42.71504" lon="1.97275">
        <ele>2250.58</ele>
        <time>2013-11-28T12:05:25Z</time>
      </trkpt>
      <trkpt lat="42.71508" lon="1.97272">
        <ele>2251.06</ele>
        <time>2013-11-28T12:05:46Z</time>
      </trkpt>
      <trkpt lat="42.71523" lon="1.97257">
        <ele>2248.18</ele>
        <time>2013-11-28T12:05:57Z</time>
      </trkpt>
      <trkpt lat="42.71545" lon="1.97232">
        <ele>2243.85</ele>
        <time>2013-11-28T12:06:09Z</time>
      </trkpt>
      <trkpt lat="42.71557" lon="1.97222">
        <ele>2242.41</ele>
        <time>2013-11-28T12:06:15Z</time>
      </trkpt>
      <trkpt lat="42.71568" lon="1.97239">
        <ele>2234.24</ele>
        <time>2013-11-28T12:06:20Z</time>
      </trkpt>
      <trkpt lat="42.71578" lon="1.97257">
        <ele>2226.07</ele>
        <time>2013-11-28T12:06:24Z</time>
      </trkpt>
      <trkpt lat="42.71588" lon="1.97286">
        <ele>2215.01</ele>
        <time>2013-11-28T12:06:30Z</time>
      </trkpt>
      <trkpt lat="42.71595" lon="1.97296">
        <ele>2210.69</ele>
        <time>2013-11-28T12:06:34Z</time>
      </trkpt>
      <trkpt lat="42.71608" lon="1.97295">
        <ele>2210.69</ele>
        <time>2013-11-28T12:06:44Z</time>
      </trkpt>
      <trkpt lat="42.71609" lon="1.97295">
        <ele>2210.69</ele>
        <time>2013-11-28T12:06:49Z</time>
      </trkpt>
      <trkpt lat="42.71618" lon="1.97299">
        <ele>2209.73</ele>
        <time>2013-11-28T12:06:54Z</time>
      </trkpt>
      <trkpt lat="42.71628" lon="1.97323">
        <ele>2201.56</ele>
        <time>2013-11-28T12:07:00Z</time>
      </trkpt>
      <trkpt lat="42.7162" lon="1.97333">
        <ele>2199.15</ele>
        <time>2013-11-28T12:07:03Z</time>
      </trkpt>
      <trkpt lat="42.71625" lon="1.97358">
        <ele>2189.06</ele>
        <time>2013-11-28T12:07:09Z</time>
      </trkpt>
      <trkpt lat="42.71645" lon="1.97361">
        <ele>2186.66</ele>
        <time>2013-11-28T12:07:13Z</time>
      </trkpt>
      <trkpt lat="42.71676" lon="1.97378">
        <ele>2184.73</ele>
        <time>2013-11-28T12:07:25Z</time>
      </trkpt>
      <trkpt lat="42.71676" lon="1.97378">
        <ele>2184.25</ele>
        <time>2013-11-28T12:07:39Z</time>
      </trkpt>
      <trkpt lat="42.71681" lon="1.97383">
        <ele>2182.81</ele>
        <time>2013-11-28T12:07:43Z</time>
      </trkpt>
      <trkpt lat="42.71711" lon="1.97395">
        <ele>2178</ele>
        <time>2013-11-28T12:07:54Z</time>
      </trkpt>
      <trkpt lat="42.71727" lon="1.97438">
        <ele>2169.35</ele>
        <time>2013-11-28T12:08:01Z</time>
      </trkpt>
      <trkpt lat="42.71741" lon="1.97463">
        <ele>2164.06</ele>
        <time>2013-11-28T12:08:07Z</time>
      </trkpt>
      <trkpt lat="42.71742" lon="1.97475">
        <ele>2160.7</ele>
        <time>2013-11-28T12:08:09Z</time>
      </trkpt>
      <trkpt lat="42.71759" lon="1.97495">
        <ele>2154.45</ele>
        <time>2013-11-28T12:08:16Z</time>
      </trkpt>
      <trkpt lat="42.71757" lon="1.97493">
        <ele>2154.93</ele>
        <time>2013-11-28T12:08:29Z</time>
      </trkpt>
      <trkpt lat="42.7176" lon="1.97494">
        <ele>2154.93</ele>
        <time>2013-11-28T12:08:35Z</time>
      </trkpt>
      <trkpt lat="42.71775" lon="1.97496">
        <ele>2152.05</ele>
        <time>2013-11-28T12:08:41Z</time>
      </trkpt>
      <trkpt lat="42.71775" lon="1.97516">
        <ele>2146.76</ele>
        <time>2013-11-28T12:08:48Z</time>
      </trkpt>
      <trkpt lat="42.71783" lon="1.9754">
        <ele>2139.07</ele>
        <time>2013-11-28T12:08:53Z</time>
      </trkpt>
      <trkpt lat="42.71784" lon="1.97544">
        <ele>2137.63</ele>
        <time>2013-11-28T12:08:54Z</time>
      </trkpt>
      <trkpt lat="42.71793" lon="1.9757">
        <ele>2127.53</ele>
        <time>2013-11-28T12:09:01Z</time>
      </trkpt>
      <trkpt lat="42.71797" lon="1.97596">
        <ele>2119.84</ele>
        <time>2013-11-28T12:09:05Z</time>
      </trkpt>
      <trkpt lat="42.71796" lon="1.97628">
        <ele>2110.23</ele>
        <time>2013-11-28T12:09:09Z</time>
      </trkpt>
      <trkpt lat="42.71808" lon="1.97655">
        <ele>2107.35</ele>
        <time>2013-11-28T12:09:13Z</time>
      </trkpt>
      <trkpt lat="42.7182" lon="1.97675">
        <ele>2108.79</ele>
        <time>2013-11-28T12:09:22Z</time>
      </trkpt>
      <trkpt lat="42.71819" lon="1.97674">
        <ele>2109.75</ele>
        <time>2013-11-28T12:09:31Z</time>
      </trkpt>
      <trkpt lat="42.7182" lon="1.97676">
        <ele>2109.75</ele>
        <time>2013-11-28T12:09:43Z</time>
      </trkpt>
      <trkpt lat="42.71819" lon="1.97675">
        <ele>2109.27</ele>
        <time>2013-11-28T12:09:55Z</time>
      </trkpt>
      <trkpt lat="42.7183" lon="1.97695">
        <ele>2106.39</ele>
        <time>2013-11-28T12:10:03Z</time>
      </trkpt>
      <trkpt lat="42.71851" lon="1.97726">
        <ele>2104.46</ele>
        <time>2013-11-28T12:10:17Z</time>
      </trkpt>
      <trkpt lat="42.71841" lon="1.97739">
        <ele>2103.98</ele>
        <time>2013-11-28T12:10:23Z</time>
      </trkpt>
      <trkpt lat="42.71819" lon="1.97752">
        <ele>2100.62</ele>
        <time>2013-11-28T12:10:29Z</time>
      </trkpt>
      <trkpt lat="42.71824" lon="1.97773">
        <ele>2094.37</ele>
        <time>2013-11-28T12:10:34Z</time>
      </trkpt>
      <trkpt lat="42.71835" lon="1.97815">
        <ele>2085.24</ele>
        <time>2013-11-28T12:10:40Z</time>
      </trkpt>
      <trkpt lat="42.71846" lon="1.97819">
        <ele>2084.76</ele>
        <time>2013-11-28T12:10:46Z</time>
      </trkpt>
      <trkpt lat="42.71845" lon="1.97817">
        <ele>2083.79</ele>
        <time>2013-11-28T12:11:07Z</time>
      </trkpt>
      <trkpt lat="42.71853" lon="1.97822">
        <ele>2082.35</ele>
        <time>2013-11-28T12:11:24Z</time>
      </trkpt>
      <trkpt lat="42.71856" lon="1.97846">
        <ele>2075.62</ele>
        <time>2013-11-28T12:11:29Z</time>
      </trkpt>
      <trkpt lat="42.71854" lon="1.97875">
        <ele>2069.86</ele>
        <time>2013-11-28T12:11:33Z</time>
      </trkpt>
      <trkpt lat="42.71834" lon="1.97915">
        <ele>2066.01</ele>
        <time>2013-11-28T12:11:44Z</time>
      </trkpt>
      <trkpt lat="42.71831" lon="1.9792">
        <ele>2067.93</ele>
        <time>2013-11-28T12:11:58Z</time>
      </trkpt>
      <trkpt lat="42.71827" lon="1.9793">
        <ele>2066.49</ele>
        <time>2013-11-28T12:12:02Z</time>
      </trkpt>
      <trkpt lat="42.71827" lon="1.97955">
        <ele>2061.68</ele>
        <time>2013-11-28T12:12:06Z</time>
      </trkpt>
      <trkpt lat="42.71829" lon="1.97976">
        <ele>2055.44</ele>
        <time>2013-11-28T12:12:12Z</time>
      </trkpt>
      <trkpt lat="42.71835" lon="1.97978">
        <ele>2053.99</ele>
        <time>2013-11-28T12:12:13Z</time>
      </trkpt>
      <trkpt lat="42.71865" lon="1.97998">
        <ele>2046.78</ele>
        <time>2013-11-28T12:12:17Z</time>
      </trkpt>
      <trkpt lat="42.71888" lon="1.98025">
        <ele>2042.94</ele>
        <time>2013-11-28T12:12:21Z</time>
      </trkpt>
      <trkpt lat="42.719" lon="1.98055">
        <ele>2040.54</ele>
        <time>2013-11-28T12:12:25Z</time>
      </trkpt>
      <trkpt lat="42.71903" lon="1.98088">
        <ele>2039.09</ele>
        <time>2013-11-28T12:12:32Z</time>
      </trkpt>
      <trkpt lat="42.71914" lon="1.98119">
        <ele>2037.17</ele>
        <time>2013-11-28T12:12:40Z</time>
      </trkpt>
      <trkpt lat="42.71923" lon="1.98135">
        <ele>2035.73</ele>
        <time>2013-11-28T12:12:45Z</time>
      </trkpt>
      <trkpt lat="42.71931" lon="1.98149">
        <ele>2034.29</ele>
        <time>2013-11-28T12:12:48Z</time>
      </trkpt>
      <trkpt lat="42.7194" lon="1.98168">
        <ele>2034.29</ele>
        <time>2013-11-28T12:12:53Z</time>
      </trkpt>
      <trkpt lat="42.71941" lon="1.98169">
        <ele>2034.29</ele>
        <time>2013-11-28T12:12:54Z</time>
      </trkpt>
      <trkpt lat="42.71942" lon="1.9817">
        <ele>2034.29</ele>
        <time>2013-11-28T12:12:56Z</time>
      </trkpt>
      <trkpt lat="42.71944" lon="1.98171">
        <ele>2034.29</ele>
        <time>2013-11-28T12:12:57Z</time>
      </trkpt>
      <trkpt lat="42.71944" lon="1.98173">
        <ele>2034.29</ele>
        <time>2013-11-28T12:12:58Z</time>
      </trkpt>
      <trkpt lat="42.71945" lon="1.98175">
        <ele>2034.29</ele>
        <time>2013-11-28T12:12:59Z</time>
      </trkpt>
      <trkpt lat="42.71947" lon="1.98177">
        <ele>2034.29</ele>
        <time>2013-11-28T12:13:00Z</time>
      </trkpt>
      <trkpt lat="42.71948" lon="1.98178">
        <ele>2033.81</ele>
        <time>2013-11-28T12:13:01Z</time>
      </trkpt>
      <trkpt lat="42.71949" lon="1.98181">
        <ele>2033.81</ele>
        <time>2013-11-28T12:13:02Z</time>
      </trkpt>
      <trkpt lat="42.7195" lon="1.98183">
        <ele>2033.81</ele>
        <time>2013-11-28T12:13:03Z</time>
      </trkpt>
      <trkpt lat="42.71952" lon="1.98185">
        <ele>2033.33</ele>
        <time>2013-11-28T12:13:04Z</time>
      </trkpt>
      <trkpt lat="42.71953" lon="1.98186">
        <ele>2033.33</ele>
        <time>2013-11-28T12:13:05Z</time>
      </trkpt>
      <trkpt lat="42.71955" lon="1.98187">
        <ele>2033.33</ele>
        <time>2013-11-28T12:13:06Z</time>
      </trkpt>
      <trkpt lat="42.71955" lon="1.98189">
        <ele>2033.33</ele>
        <time>2013-11-28T12:13:07Z</time>
      </trkpt>
      <trkpt lat="42.71957" lon="1.9819">
        <ele>2033.81</ele>
        <time>2013-11-28T12:13:08Z</time>
      </trkpt>
      <trkpt lat="42.71958" lon="1.98191">
        <ele>2033.81</ele>
        <time>2013-11-28T12:13:09Z</time>
      </trkpt>
      <trkpt lat="42.7196" lon="1.98193">
        <ele>2033.81</ele>
        <time>2013-11-28T12:13:13Z</time>
      </trkpt>
      <trkpt lat="42.71964" lon="1.98202">
        <ele>2032.84</ele>
        <time>2013-11-28T12:13:23Z</time>
      </trkpt>
      <trkpt lat="42.71963" lon="1.98209">
        <ele>2034.29</ele>
        <time>2013-11-28T12:13:34Z</time>
      </trkpt>
      <trkpt lat="42.71964" lon="1.98219">
        <ele>2032.36</ele>
        <time>2013-11-28T12:13:39Z</time>
      </trkpt>
      <trkpt lat="42.71954" lon="1.98229">
        <ele>2031.88</ele>
        <time>2013-11-28T12:13:50Z</time>
      </trkpt>
      <trkpt lat="42.71955" lon="1.98228">
        <ele>2033.33</ele>
        <time>2013-11-28T12:14:13Z</time>
      </trkpt>
      <trkpt lat="42.71944" lon="1.98235">
        <ele>2030.92</ele>
        <time>2013-11-28T12:14:32Z</time>
      </trkpt>
      <trkpt lat="42.71942" lon="1.98236">
        <ele>2030.44</ele>
        <time>2013-11-28T12:14:33Z</time>
      </trkpt>
      <trkpt lat="42.71943" lon="1.98257">
        <ele>2021.31</ele>
        <time>2013-11-28T12:14:38Z</time>
      </trkpt>
      <trkpt lat="42.71931" lon="1.98296">
        <ele>2003.04</ele>
        <time>2013-11-28T12:14:45Z</time>
      </trkpt>
      <trkpt lat="42.71917" lon="1.98336">
        <ele>1984.78</ele>
        <time>2013-11-28T12:14:53Z</time>
      </trkpt>
      <trkpt lat="42.71917" lon="1.98335">
        <ele>1983.82</ele>
        <time>2013-11-28T12:14:56Z</time>
      </trkpt>
      <trkpt lat="42.7192" lon="1.9835">
        <ele>1979.97</ele>
        <time>2013-11-28T12:15:00Z</time>
      </trkpt>
      <trkpt lat="42.71936" lon="1.98404">
        <ele>1974.69</ele>
        <time>2013-11-28T12:15:08Z</time>
      </trkpt>
      <trkpt lat="42.71939" lon="1.98455">
        <ele>1974.2</ele>
        <time>2013-11-28T12:15:17Z</time>
      </trkpt>
      <trkpt lat="42.71938" lon="1.98454">
        <ele>1973.24</ele>
        <time>2013-11-28T12:15:33Z</time>
      </trkpt>
      <trkpt lat="42.71938" lon="1.98455">
        <ele>1973.24</ele>
        <time>2013-11-28T12:15:42Z</time>
      </trkpt>
      <trkpt lat="42.71936" lon="1.98469">
        <ele>1973.24</ele>
        <time>2013-11-28T12:15:53Z</time>
      </trkpt>
      <trkpt lat="42.71936" lon="1.9847">
        <ele>1973.72</ele>
        <time>2013-11-28T12:15:56Z</time>
      </trkpt>
      <trkpt lat="42.71936" lon="1.98477">
        <ele>1973.72</ele>
        <time>2013-11-28T12:16:08Z</time>
      </trkpt>
      <trkpt lat="42.71937" lon="1.98482">
        <ele>1975.17</ele>
        <time>2013-11-28T12:16:20Z</time>
      </trkpt>
      <trkpt lat="42.71935" lon="1.98483">
        <ele>1975.17</ele>
        <time>2013-11-28T12:16:32Z</time>
      </trkpt>
      <trkpt lat="42.71935" lon="1.98493">
        <ele>1975.65</ele>
        <time>2013-11-28T12:16:43Z</time>
      </trkpt>
      <trkpt lat="42.71939" lon="1.98499">
        <ele>1976.13</ele>
        <time>2013-11-28T12:16:52Z</time>
      </trkpt>
      <trkpt lat="42.71942" lon="1.98524">
        <ele>1971.8</ele>
        <time>2013-11-28T12:16:59Z</time>
      </trkpt>
      <trkpt lat="42.7195" lon="1.98551">
        <ele>1967.96</ele>
        <time>2013-11-28T12:17:04Z</time>
      </trkpt>
      <trkpt lat="42.71959" lon="1.98569">
        <ele>1966.03</ele>
        <time>2013-11-28T12:17:12Z</time>
      </trkpt>
      <trkpt lat="42.7197" lon="1.98585">
        <ele>1963.15</ele>
        <time>2013-11-28T12:17:17Z</time>
      </trkpt>
      <trkpt lat="42.71978" lon="1.98597">
        <ele>1960.27</ele>
        <time>2013-11-28T12:17:21Z</time>
      </trkpt>
      <trkpt lat="42.7199" lon="1.98612">
        <ele>1956.9</ele>
        <time>2013-11-28T12:17:25Z</time>
      </trkpt>
      <trkpt lat="42.72007" lon="1.98631">
        <ele>1951.61</ele>
        <time>2013-11-28T12:17:30Z</time>
      </trkpt>
      <trkpt lat="42.72003" lon="1.9864">
        <ele>1949.21</ele>
        <time>2013-11-28T12:17:36Z</time>
      </trkpt>
      <trkpt lat="42.72004" lon="1.98639">
        <ele>1949.21</ele>
        <time>2013-11-28T12:17:51Z</time>
      </trkpt>
      <trkpt lat="42.72004" lon="1.9864">
        <ele>1949.21</ele>
        <time>2013-11-28T12:17:55Z</time>
      </trkpt>
      <trkpt lat="42.72009" lon="1.98645">
        <ele>1947.77</ele>
        <time>2013-11-28T12:17:58Z</time>
      </trkpt>
      <trkpt lat="42.72013" lon="1.9866">
        <ele>1941.52</ele>
        <time>2013-11-28T12:18:02Z</time>
      </trkpt>
      <trkpt lat="42.72026" lon="1.98682">
        <ele>1931.91</ele>
        <time>2013-11-28T12:18:09Z</time>
      </trkpt>
      <trkpt lat="42.72031" lon="1.987">
        <ele>1921.81</ele>
        <time>2013-11-28T12:18:14Z</time>
      </trkpt>
      <trkpt lat="42.72036" lon="1.98715">
        <ele>1914.6</ele>
        <time>2013-11-28T12:18:18Z</time>
      </trkpt>
      <trkpt lat="42.7205" lon="1.9873">
        <ele>1904.03</ele>
        <time>2013-11-28T12:18:23Z</time>
      </trkpt>
      <trkpt lat="42.72056" lon="1.9875">
        <ele>1895.86</ele>
        <time>2013-11-28T12:18:28Z</time>
      </trkpt>
      <trkpt lat="42.72061" lon="1.98779">
        <ele>1883.36</ele>
        <time>2013-11-28T12:18:34Z</time>
      </trkpt>
      <trkpt lat="42.72066" lon="1.98789">
        <ele>1876.63</ele>
        <time>2013-11-28T12:18:38Z</time>
      </trkpt>
      <trkpt lat="42.72066" lon="1.98788">
        <ele>1874.71</ele>
        <time>2013-11-28T12:18:59Z</time>
      </trkpt>
      <trkpt lat="42.72067" lon="1.98788">
        <ele>1875.19</ele>
        <time>2013-11-28T12:19:17Z</time>
      </trkpt>
      <trkpt lat="42.72068" lon="1.98789">
        <ele>1876.15</ele>
        <time>2013-11-28T12:19:38Z</time>
      </trkpt>
      <trkpt lat="42.72068" lon="1.98789">
        <ele>1875.67</ele>
        <time>2013-11-28T12:19:41Z</time>
      </trkpt>
      <trkpt lat="42.72078" lon="1.98803">
        <ele>1867.02</ele>
        <time>2013-11-28T12:19:49Z</time>
      </trkpt>
      <trkpt lat="42.72082" lon="1.98822">
        <ele>1857.89</ele>
        <time>2013-11-28T12:19:54Z</time>
      </trkpt>
      <trkpt lat="42.7209" lon="1.98837">
        <ele>1850.68</ele>
        <time>2013-11-28T12:19:59Z</time>
      </trkpt>
      <trkpt lat="42.72091" lon="1.98858">
        <ele>1842.5</ele>
        <time>2013-11-28T12:20:04Z</time>
      </trkpt>
      <trkpt lat="42.72094" lon="1.98877">
        <ele>1836.26</ele>
        <time>2013-11-28T12:20:08Z</time>
      </trkpt>
      <trkpt lat="42.72098" lon="1.98885">
        <ele>1833.37</ele>
        <time>2013-11-28T12:20:10Z</time>
      </trkpt>
      <trkpt lat="42.721" lon="1.98902">
        <ele>1825.2</ele>
        <time>2013-11-28T12:20:14Z</time>
      </trkpt>
      <trkpt lat="42.72101" lon="1.98941">
        <ele>1813.66</ele>
        <time>2013-11-28T12:20:20Z</time>
      </trkpt>
      <trkpt lat="42.72107" lon="1.9895">
        <ele>1813.66</ele>
        <time>2013-11-28T12:20:29Z</time>
      </trkpt>
      <trkpt lat="42.72106" lon="1.98949">
        <ele>1815.59</ele>
        <time>2013-11-28T12:20:46Z</time>
      </trkpt>
      <trkpt lat="42.72105" lon="1.98947">
        <ele>1815.11</ele>
        <time>2013-11-28T12:21:09Z</time>
      </trkpt>
      <trkpt lat="42.72104" lon="1.98948">
        <ele>1817.51</ele>
        <time>2013-11-28T12:21:31Z</time>
      </trkpt>
      <trkpt lat="42.72105" lon="1.98948">
        <ele>1818.47</ele>
        <time>2013-11-28T12:21:56Z</time>
      </trkpt>
      <trkpt lat="42.72105" lon="1.98948">
        <ele>1816.07</ele>
        <time>2013-11-28T12:22:14Z</time>
      </trkpt>
      <trkpt lat="42.72105" lon="1.98948">
        <ele>1816.55</ele>
        <time>2013-11-28T12:22:25Z</time>
      </trkpt>
      <trkpt lat="42.72107" lon="1.98946">
        <ele>1815.11</ele>
        <time>2013-11-28T12:22:49Z</time>
      </trkpt>
      <trkpt lat="42.72107" lon="1.98949">
        <ele>1815.59</ele>
        <time>2013-11-28T12:23:20Z</time>
      </trkpt>
      <trkpt lat="42.72103" lon="1.98951">
        <ele>1812.22</ele>
        <time>2013-11-28T12:23:41Z</time>
      </trkpt>
      <trkpt lat="42.72105" lon="1.98947">
        <ele>1812.7</ele>
        <time>2013-11-28T12:24:09Z</time>
      </trkpt>
      <trkpt lat="42.72105" lon="1.98948">
        <ele>1812.7</ele>
        <time>2013-11-28T12:24:22Z</time>
      </trkpt>
      <trkpt lat="42.72104" lon="1.98949">
        <ele>1814.63</ele>
        <time>2013-11-28T12:24:32Z</time>
      </trkpt>
      <trkpt lat="42.72104" lon="1.98949">
        <ele>1817.51</ele>
        <time>2013-11-28T12:24:48Z</time>
      </trkpt>
      <trkpt lat="42.72105" lon="1.98949">
        <ele>1818.47</ele>
        <time>2013-11-28T12:25:10Z</time>
      </trkpt>
      <trkpt lat="42.72105" lon="1.9895">
        <ele>1818.47</ele>
        <time>2013-11-28T12:25:34Z</time>
      </trkpt>
      <trkpt lat="42.72104" lon="1.98949">
        <ele>1818.95</ele>
        <time>2013-11-28T12:25:55Z</time>
      </trkpt>
      <trkpt lat="42.72105" lon="1.9895">
        <ele>1817.99</ele>
        <time>2013-11-28T12:26:16Z</time>
      </trkpt>
      <trkpt lat="42.72104" lon="1.9895">
        <ele>1817.99</ele>
        <time>2013-11-28T12:26:24Z</time>
      </trkpt>
      <trkpt lat="42.72097" lon="1.98959">
        <ele>1814.15</ele>
        <time>2013-11-28T12:26:29Z</time>
      </trkpt>
      <trkpt lat="42.72093" lon="1.99025">
        <ele>1804.05</ele>
        <time>2013-11-28T12:26:37Z</time>
      </trkpt>
      <trkpt lat="42.72099" lon="1.99066">
        <ele>1800.69</ele>
        <time>2013-11-28T12:26:41Z</time>
      </trkpt>
      <trkpt lat="42.72106" lon="1.99108">
        <ele>1798.28</ele>
        <time>2013-11-28T12:26:47Z</time>
      </trkpt>
      <trkpt lat="42.72105" lon="1.99112">
        <ele>1797.8</ele>
        <time>2013-11-28T12:26:48Z</time>
      </trkpt>
      <trkpt lat="42.72101" lon="1.99121">
        <ele>1797.32</ele>
        <time>2013-11-28T12:26:50Z</time>
      </trkpt>
      <trkpt lat="42.721" lon="1.99142">
        <ele>1793</ele>
        <time>2013-11-28T12:26:56Z</time>
      </trkpt>
      <trkpt lat="42.72103" lon="1.99149">
        <ele>1789.15</ele>
        <time>2013-11-28T12:27:01Z</time>
      </trkpt>
      <trkpt lat="42.72101" lon="1.99147">
        <ele>1786.75</ele>
        <time>2013-11-28T12:27:09Z</time>
      </trkpt>
      <trkpt lat="42.72104" lon="1.99147">
        <ele>1788.19</ele>
        <time>2013-11-28T12:27:21Z</time>
      </trkpt>
      <trkpt lat="42.72105" lon="1.99146">
        <ele>1787.23</ele>
        <time>2013-11-28T12:27:38Z</time>
      </trkpt>
      <trkpt lat="42.72104" lon="1.99165">
        <ele>1781.94</ele>
        <time>2013-11-28T12:27:44Z</time>
      </trkpt>
      <trkpt lat="42.72104" lon="1.99194">
        <ele>1775.69</ele>
        <time>2013-11-28T12:27:49Z</time>
      </trkpt>
      <trkpt lat="42.72103" lon="1.99224">
        <ele>1770.41</ele>
        <time>2013-11-28T12:27:53Z</time>
      </trkpt>
      <trkpt lat="42.72112" lon="1.99255">
        <ele>1768.48</ele>
        <time>2013-11-28T12:28:03Z</time>
      </trkpt>
      <trkpt lat="42.7212" lon="1.99294">
        <ele>1766.08</ele>
        <time>2013-11-28T12:28:16Z</time>
      </trkpt>
      <trkpt lat="42.72132" lon="1.99318">
        <ele>1762.71</ele>
        <time>2013-11-28T12:28:25Z</time>
      </trkpt>
      <trkpt lat="42.72135" lon="1.9932">
        <ele>1763.68</ele>
        <time>2013-11-28T12:28:36Z</time>
      </trkpt>
      <trkpt lat="42.72136" lon="1.99321">
        <ele>1763.68</ele>
        <time>2013-11-28T12:28:44Z</time>
      </trkpt>
      <trkpt lat="42.72137" lon="1.99323">
        <ele>1764.16</ele>
        <time>2013-11-28T12:28:46Z</time>
      </trkpt>
      <trkpt lat="42.72145" lon="1.99346">
        <ele>1758.39</ele>
        <time>2013-11-28T12:28:54Z</time>
      </trkpt>
      <trkpt lat="42.72148" lon="1.99366">
        <ele>1752.14</ele>
        <time>2013-11-28T12:28:58Z</time>
      </trkpt>
      <trkpt lat="42.72153" lon="1.99383">
        <ele>1746.37</ele>
        <time>2013-11-28T12:29:01Z</time>
      </trkpt>
      <trkpt lat="42.72159" lon="1.99387">
        <ele>1743.49</ele>
        <time>2013-11-28T12:29:03Z</time>
      </trkpt>
      <trkpt lat="42.72171" lon="1.99435">
        <ele>1733.88</ele>
        <time>2013-11-28T12:29:09Z</time>
      </trkpt>
      <trkpt lat="42.72173" lon="1.99455">
        <ele>1731.95</ele>
        <time>2013-11-28T12:29:11Z</time>
      </trkpt>
      <trkpt lat="42.72191" lon="1.99519">
        <ele>1727.63</ele>
        <time>2013-11-28T12:29:22Z</time>
      </trkpt>
      <trkpt lat="42.72202" lon="1.99588">
        <ele>1724.74</ele>
        <time>2013-11-28T12:29:35Z</time>
      </trkpt>
      <trkpt lat="42.72212" lon="1.99627">
        <ele>1723.3</ele>
        <time>2013-11-28T12:29:48Z</time>
      </trkpt>
      <trkpt lat="42.72214" lon="1.99632">
        <ele>1722.82</ele>
        <time>2013-11-28T12:29:50Z</time>
      </trkpt>
      <trkpt lat="42.7222" lon="1.99646">
        <ele>1722.82</ele>
        <time>2013-11-28T12:29:57Z</time>
      </trkpt>
      <trkpt lat="42.7223" lon="1.99675">
        <ele>1722.82</ele>
        <time>2013-11-28T12:30:08Z</time>
      </trkpt>
      <trkpt lat="42.72239" lon="1.99709">
        <ele>1721.86</ele>
        <time>2013-11-28T12:30:22Z</time>
      </trkpt>
      <trkpt lat="42.7224" lon="1.99712">
        <ele>1720.9</ele>
        <time>2013-11-28T12:30:32Z</time>
      </trkpt>
      <trkpt lat="42.72242" lon="1.99718">
        <ele>1719.94</ele>
        <time>2013-11-28T12:30:37Z</time>
      </trkpt>
      <trkpt lat="42.72244" lon="1.99722">
        <ele>1719.46</ele>
        <time>2013-11-28T12:30:40Z</time>
      </trkpt>
      <trkpt lat="42.72247" lon="1.99728">
        <ele>1719.46</ele>
        <time>2013-11-28T12:30:44Z</time>
      </trkpt>
      <trkpt lat="42.72251" lon="1.99737">
        <ele>1720.9</ele>
        <time>2013-11-28T12:30:53Z</time>
      </trkpt>
      <trkpt lat="42.72251" lon="1.99737">
        <ele>1720.42</ele>
        <time>2013-11-28T12:30:54Z</time>
      </trkpt>
      <trkpt lat="42.7226" lon="1.99757">
        <ele>1720.9</ele>
        <time>2013-11-28T12:31:09Z</time>
      </trkpt>
      <trkpt lat="42.72269" lon="1.99773">
        <ele>1720.42</ele>
        <time>2013-11-28T12:31:21Z</time>
      </trkpt>
      <trkpt lat="42.72275" lon="1.99782">
        <ele>1719.46</ele>
        <time>2013-11-28T12:31:33Z</time>
      </trkpt>
      <trkpt lat="42.72282" lon="1.99792">
        <ele>1719.94</ele>
        <time>2013-11-28T12:31:44Z</time>
      </trkpt>
      <trkpt lat="42.72283" lon="1.99797">
        <ele>1719.46</ele>
        <time>2013-11-28T12:31:50Z</time>
      </trkpt>
      <trkpt lat="42.7229" lon="1.99814">
        <ele>1719.46</ele>
        <time>2013-11-28T12:32:03Z</time>
      </trkpt>
      <trkpt lat="42.72295" lon="1.99828">
        <ele>1719.46</ele>
        <time>2013-11-28T12:32:16Z</time>
      </trkpt>
      <trkpt lat="42.723" lon="1.9984">
        <ele>1718.97</ele>
        <time>2013-11-28T12:32:26Z</time>
      </trkpt>
      <trkpt lat="42.72303" lon="1.99848">
        <ele>1719.94</ele>
        <time>2013-11-28T12:32:36Z</time>
      </trkpt>
      <trkpt lat="42.72304" lon="1.99853">
        <ele>1719.46</ele>
        <time>2013-11-28T12:32:47Z</time>
      </trkpt>
      <trkpt lat="42.72305" lon="1.99857">
        <ele>1719.46</ele>
        <time>2013-11-28T12:32:56Z</time>
      </trkpt>
      <trkpt lat="42.72306" lon="1.99864">
        <ele>1719.94</ele>
        <time>2013-11-28T12:33:01Z</time>
      </trkpt>
      <trkpt lat="42.72309" lon="1.99875">
        <ele>1720.42</ele>
        <time>2013-11-28T12:33:12Z</time>
      </trkpt>
      <trkpt lat="42.7231" lon="1.99877">
        <ele>1720.42</ele>
        <time>2013-11-28T12:33:14Z</time>
      </trkpt>
      <trkpt lat="42.72312" lon="1.99884">
        <ele>1719.94</ele>
        <time>2013-11-28T12:33:19Z</time>
      </trkpt>
      <trkpt lat="42.72314" lon="1.99893">
        <ele>1719.46</ele>
        <time>2013-11-28T12:33:31Z</time>
      </trkpt>
      <trkpt lat="42.72315" lon="1.99897">
        <ele>1719.46</ele>
        <time>2013-11-28T12:33:50Z</time>
      </trkpt>
      <trkpt lat="42.72317" lon="1.99908">
        <ele>1718.49</ele>
        <time>2013-11-28T12:33:58Z</time>
      </trkpt>
      <trkpt lat="42.72324" lon="1.99932">
        <ele>1718.49</ele>
        <time>2013-11-28T12:34:12Z</time>
      </trkpt>
      <trkpt lat="42.72328" lon="1.99945">
        <ele>1718.01</ele>
        <time>2013-11-28T12:34:26Z</time>
      </trkpt>
      <trkpt lat="42.72329" lon="1.99946">
        <ele>1718.97</ele>
        <time>2013-11-28T12:34:31Z</time>
      </trkpt>
      <trkpt lat="42.7234" lon="1.99965">
        <ele>1717.53</ele>
        <time>2013-11-28T12:34:42Z</time>
      </trkpt>
      <trkpt lat="42.7236" lon="1.99986">
        <ele>1714.65</ele>
        <time>2013-11-28T12:34:52Z</time>
      </trkpt>
      <trkpt lat="42.72362" lon="2.00024">
        <ele>1708.4</ele>
        <time>2013-11-28T12:34:58Z</time>
      </trkpt>
      <trkpt lat="42.72371" lon="2.00033">
        <ele>1706.96</ele>
        <time>2013-11-28T12:35:00Z</time>
      </trkpt>
      <trkpt lat="42.72379" lon="2.00042">
        <ele>1706</ele>
        <time>2013-11-28T12:35:02Z</time>
      </trkpt>
      <trkpt lat="42.72389" lon="2.00084">
        <ele>1701.19</ele>
        <time>2013-11-28T12:35:08Z</time>
      </trkpt>
      <trkpt lat="42.72401" lon="2.00097">
        <ele>1700.23</ele>
        <time>2013-11-28T12:35:11Z</time>
      </trkpt>
      <trkpt lat="42.72428" lon="2.00134">
        <ele>1698.79</ele>
        <time>2013-11-28T12:35:24Z</time>
      </trkpt>
      <trkpt lat="42.72433" lon="2.0015">
        <ele>1697.34</ele>
        <time>2013-11-28T12:35:27Z</time>
      </trkpt>
      <trkpt lat="42.72446" lon="2.002">
        <ele>1693.02</ele>
        <time>2013-11-28T12:35:34Z</time>
      </trkpt>
      <trkpt lat="42.72454" lon="2.00301">
        <ele>1685.81</ele>
        <time>2013-11-28T12:35:46Z</time>
      </trkpt>
      <trkpt lat="42.72455" lon="2.00346">
        <ele>1682.44</ele>
        <time>2013-11-28T12:35:51Z</time>
      </trkpt>
      <trkpt lat="42.72442" lon="2.00378">
        <ele>1678.12</ele>
        <time>2013-11-28T12:35:55Z</time>
      </trkpt>
      <trkpt lat="42.7244" lon="2.00434">
        <ele>1672.35</ele>
        <time>2013-11-28T12:36:01Z</time>
      </trkpt>
      <trkpt lat="42.72442" lon="2.00444">
        <ele>1671.87</ele>
        <time>2013-11-28T12:36:02Z</time>
      </trkpt>
      <trkpt lat="42.72457" lon="2.00488">
        <ele>1669.47</ele>
        <time>2013-11-28T12:36:08Z</time>
      </trkpt>
      <trkpt lat="42.72467" lon="2.00519">
        <ele>1668.02</ele>
        <time>2013-11-28T12:36:18Z</time>
      </trkpt>
      <trkpt lat="42.72468" lon="2.00525">
        <ele>1668.02</ele>
        <time>2013-11-28T12:36:33Z</time>
      </trkpt>
      <trkpt lat="42.7247" lon="2.0053">
        <ele>1667.54</ele>
        <time>2013-11-28T12:36:45Z</time>
      </trkpt>
      <trkpt lat="42.7247" lon="2.00532">
        <ele>1667.06</ele>
        <time>2013-11-28T12:36:53Z</time>
      </trkpt>
      <trkpt lat="42.72474" lon="2.00549">
        <ele>1667.06</ele>
        <time>2013-11-28T12:37:06Z</time>
      </trkpt>
      <trkpt lat="42.72474" lon="2.00568">
        <ele>1668.02</ele>
        <time>2013-11-28T12:37:19Z</time>
      </trkpt>
      <trkpt lat="42.72475" lon="2.00589">
        <ele>1667.06</ele>
        <time>2013-11-28T12:37:32Z</time>
      </trkpt>
      <trkpt lat="42.72476" lon="2.00594">
        <ele>1666.58</ele>
        <time>2013-11-28T12:37:36Z</time>
      </trkpt>
      <trkpt lat="42.72478" lon="2.006">
        <ele>1666.58</ele>
        <time>2013-11-28T12:37:42Z</time>
      </trkpt>
      <trkpt lat="42.7248" lon="2.00606">
        <ele>1666.58</ele>
        <time>2013-11-28T12:37:47Z</time>
      </trkpt>
      <trkpt lat="42.72485" lon="2.00624">
        <ele>1667.06</ele>
        <time>2013-11-28T12:38:00Z</time>
      </trkpt>
      <trkpt lat="42.72485" lon="2.00626">
        <ele>1666.58</ele>
        <time>2013-11-28T12:38:02Z</time>
      </trkpt>
      <trkpt lat="42.72487" lon="2.00639">
        <ele>1667.06</ele>
        <time>2013-11-28T12:38:14Z</time>
      </trkpt>
      <trkpt lat="42.72487" lon="2.00646">
        <ele>1667.54</ele>
        <time>2013-11-28T12:38:21Z</time>
      </trkpt>
      <trkpt lat="42.72489" lon="2.00657">
        <ele>1668.02</ele>
        <time>2013-11-28T12:38:30Z</time>
      </trkpt>
      <trkpt lat="42.7249" lon="2.00658">
        <ele>1668.02</ele>
        <time>2013-11-28T12:38:31Z</time>
      </trkpt>
      <trkpt lat="42.72493" lon="2.00666">
        <ele>1668.51</ele>
        <time>2013-11-28T12:38:36Z</time>
      </trkpt>
      <trkpt lat="42.72494" lon="2.0067">
        <ele>1668.51</ele>
        <time>2013-11-28T12:38:40Z</time>
      </trkpt>
      <trkpt lat="42.72497" lon="2.00676">
        <ele>1669.95</ele>
        <time>2013-11-28T12:38:46Z</time>
      </trkpt>
      <trkpt lat="42.72499" lon="2.00683">
        <ele>1670.43</ele>
        <time>2013-11-28T12:38:53Z</time>
      </trkpt>
      <trkpt lat="42.72499" lon="2.0069">
        <ele>1670.91</ele>
        <time>2013-11-28T12:38:58Z</time>
      </trkpt>
      <trkpt lat="42.72498" lon="2.00696">
        <ele>1671.39</ele>
        <time>2013-11-28T12:39:04Z</time>
      </trkpt>
      <trkpt lat="42.72498" lon="2.00701">
        <ele>1671.39</ele>
        <time>2013-11-28T12:39:08Z</time>
      </trkpt>
      <trkpt lat="42.72497" lon="2.00717">
        <ele>1672.35</ele>
        <time>2013-11-28T12:39:20Z</time>
      </trkpt>
      <trkpt lat="42.72497" lon="2.00726">
        <ele>1673.31</ele>
        <time>2013-11-28T12:39:30Z</time>
      </trkpt>
      <trkpt lat="42.72496" lon="2.00737">
        <ele>1672.83</ele>
        <time>2013-11-28T12:39:41Z</time>
      </trkpt>
      <trkpt lat="42.72494" lon="2.00743">
        <ele>1671.87</ele>
        <time>2013-11-28T12:39:51Z</time>
      </trkpt>
      <trkpt lat="42.7249" lon="2.00748">
        <ele>1672.35</ele>
        <time>2013-11-28T12:40:02Z</time>
      </trkpt>
      <trkpt lat="42.72486" lon="2.0075">
        <ele>1673.31</ele>
        <time>2013-11-28T12:40:10Z</time>
      </trkpt>
      <trkpt lat="42.72481" lon="2.00756">
        <ele>1670.43</ele>
        <time>2013-11-28T12:40:21Z</time>
      </trkpt>
      <trkpt lat="42.72481" lon="2.00756">
        <ele>1671.87</ele>
        <time>2013-11-28T12:40:37Z</time>
      </trkpt>
      <trkpt lat="42.7248" lon="2.00759">
        <ele>1671.87</ele>
        <time>2013-11-28T12:40:42Z</time>
      </trkpt>
      <trkpt lat="42.72477" lon="2.00772">
        <ele>1669.95</ele>
        <time>2013-11-28T12:40:46Z</time>
      </trkpt>
      <trkpt lat="42.72471" lon="2.00793">
        <ele>1665.62</ele>
        <time>2013-11-28T12:40:49Z</time>
      </trkpt>
      <trkpt lat="42.72458" lon="2.00834">
        <ele>1658.41</ele>
        <time>2013-11-28T12:40:55Z</time>
      </trkpt>
      <trkpt lat="42.72454" lon="2.00856">
        <ele>1656.49</ele>
        <time>2013-11-28T12:41:03Z</time>
      </trkpt>
      <trkpt lat="42.72455" lon="2.0086">
        <ele>1656.01</ele>
        <time>2013-11-28T12:41:11Z</time>
      </trkpt>
      <trkpt lat="42.72455" lon="2.00861">
        <ele>1656.97</ele>
        <time>2013-11-28T12:41:18Z</time>
      </trkpt>
      <trkpt lat="42.72455" lon="2.00865">
        <ele>1657.93</ele>
        <time>2013-11-28T12:41:26Z</time>
      </trkpt>
      <trkpt lat="42.72458" lon="2.00869">
        <ele>1657.93</ele>
        <time>2013-11-28T12:41:34Z</time>
      </trkpt>
      <trkpt lat="42.72459" lon="2.0087">
        <ele>1657.93</ele>
        <time>2013-11-28T12:41:46Z</time>
      </trkpt>
      <trkpt lat="42.72462" lon="2.00877">
        <ele>1656.97</ele>
        <time>2013-11-28T12:41:51Z</time>
      </trkpt>
      <trkpt lat="42.72481" lon="2.00906">
        <ele>1656.01</ele>
        <time>2013-11-28T12:42:06Z</time>
      </trkpt>
      <trkpt lat="42.72496" lon="2.00938">
        <ele>1654.57</ele>
        <time>2013-11-28T12:42:20Z</time>
      </trkpt>
      <trkpt lat="42.72508" lon="2.00959">
        <ele>1654.09</ele>
        <time>2013-11-28T12:42:33Z</time>
      </trkpt>
      <trkpt lat="42.72517" lon="2.00982">
        <ele>1653.12</ele>
        <time>2013-11-28T12:42:43Z</time>
      </trkpt>
      <trkpt lat="42.72521" lon="2.01012">
        <ele>1652.64</ele>
        <time>2013-11-28T12:42:57Z</time>
      </trkpt>
      <trkpt lat="42.72525" lon="2.01052">
        <ele>1648.32</ele>
        <time>2013-11-28T12:43:06Z</time>
      </trkpt>
      <trkpt lat="42.72527" lon="2.01071">
        <ele>1645.91</ele>
        <time>2013-11-28T12:43:09Z</time>
      </trkpt>
      <trkpt lat="42.72523" lon="2.01122">
        <ele>1642.07</ele>
        <time>2013-11-28T12:43:19Z</time>
      </trkpt>
      <trkpt lat="42.72521" lon="2.01144">
        <ele>1641.11</ele>
        <time>2013-11-28T12:43:29Z</time>
      </trkpt>
      <trkpt lat="42.72518" lon="2.01163">
        <ele>1638.7</ele>
        <time>2013-11-28T12:43:33Z</time>
      </trkpt>
      <trkpt lat="42.72511" lon="2.01184">
        <ele>1637.26</ele>
        <time>2013-11-28T12:43:42Z</time>
      </trkpt>
      <trkpt lat="42.72502" lon="2.01207">
        <ele>1635.82</ele>
        <time>2013-11-28T12:43:53Z</time>
      </trkpt>
      <trkpt lat="42.72479" lon="2.01215">
        <ele>1634.38</ele>
        <time>2013-11-28T12:44:04Z</time>
      </trkpt>
      <trkpt lat="42.72481" lon="2.01256">
        <ele>1630.05</ele>
        <time>2013-11-28T12:44:11Z</time>
      </trkpt>
      <trkpt lat="42.72486" lon="2.01262">
        <ele>1629.09</ele>
        <time>2013-11-28T12:44:13Z</time>
      </trkpt>
      <trkpt lat="42.72499" lon="2.01287">
        <ele>1626.69</ele>
        <time>2013-11-28T12:44:18Z</time>
      </trkpt>
      <trkpt lat="42.72504" lon="2.01298">
        <ele>1625.25</ele>
        <time>2013-11-28T12:44:20Z</time>
      </trkpt>
      <trkpt lat="42.72509" lon="2.01313">
        <ele>1623.8</ele>
        <time>2013-11-28T12:44:22Z</time>
      </trkpt>
      <trkpt lat="42.72515" lon="2.01327">
        <ele>1622.36</ele>
        <time>2013-11-28T12:44:24Z</time>
      </trkpt>
      <trkpt lat="42.72521" lon="2.01365">
        <ele>1617.07</ele>
        <time>2013-11-28T12:44:28Z</time>
      </trkpt>
      <trkpt lat="42.72519" lon="2.01389">
        <ele>1615.15</ele>
        <time>2013-11-28T12:44:30Z</time>
      </trkpt>
      <trkpt lat="42.72525" lon="2.01424">
        <ele>1614.19</ele>
        <time>2013-11-28T12:44:35Z</time>
      </trkpt>
      <trkpt lat="42.72524" lon="2.01448">
        <ele>1614.19</ele>
        <time>2013-11-28T12:44:47Z</time>
      </trkpt>
      <trkpt lat="42.72527" lon="2.01468">
        <ele>1614.19</ele>
        <time>2013-11-28T12:44:59Z</time>
      </trkpt>
      <trkpt lat="42.72532" lon="2.01493">
        <ele>1614.19</ele>
        <time>2013-11-28T12:45:11Z</time>
      </trkpt>
      <trkpt lat="42.72537" lon="2.01516">
        <ele>1612.75</ele>
        <time>2013-11-28T12:45:18Z</time>
      </trkpt>
      <trkpt lat="42.72538" lon="2.0154">
        <ele>1610.35</ele>
        <time>2013-11-28T12:45:22Z</time>
      </trkpt>
      <trkpt lat="42.72548" lon="2.01576">
        <ele>1603.62</ele>
        <time>2013-11-28T12:45:28Z</time>
      </trkpt>
      <trkpt lat="42.72553" lon="2.01599">
        <ele>1597.85</ele>
        <time>2013-11-28T12:45:35Z</time>
      </trkpt>
      <trkpt lat="42.72571" lon="2.01609">
        <ele>1592.08</ele>
        <time>2013-11-28T12:45:41Z</time>
      </trkpt>
      <trkpt lat="42.72589" lon="2.01613">
        <ele>1586.31</ele>
        <time>2013-11-28T12:45:47Z</time>
      </trkpt>
      <trkpt lat="42.72611" lon="2.01619">
        <ele>1579.1</ele>
        <time>2013-11-28T12:45:54Z</time>
      </trkpt>
      <trkpt lat="42.72617" lon="2.01622">
        <ele>1576.7</ele>
        <time>2013-11-28T12:45:56Z</time>
      </trkpt>
      <trkpt lat="42.7263" lon="2.01628">
        <ele>1570.45</ele>
        <time>2013-11-28T12:46:00Z</time>
      </trkpt>
      <trkpt lat="42.72641" lon="2.01632">
        <ele>1565.64</ele>
        <time>2013-11-28T12:46:03Z</time>
      </trkpt>
      <trkpt lat="42.7266" lon="2.0164">
        <ele>1556.03</ele>
        <time>2013-11-28T12:46:08Z</time>
      </trkpt>
      <trkpt lat="42.72696" lon="2.01623">
        <ele>1543.53</ele>
        <time>2013-11-28T12:46:17Z</time>
      </trkpt>
      <trkpt lat="42.72739" lon="2.01625">
        <ele>1536.8</ele>
        <time>2013-11-28T12:46:24Z</time>
      </trkpt>
      <trkpt lat="42.72765" lon="2.01654">
        <ele>1533.92</ele>
        <time>2013-11-28T12:46:30Z</time>
      </trkpt>
      <trkpt lat="42.72777" lon="2.01678">
        <ele>1531.52</ele>
        <time>2013-11-28T12:46:35Z</time>
      </trkpt>
      <trkpt lat="42.72784" lon="2.01682">
        <ele>1530.56</ele>
        <time>2013-11-28T12:46:44Z</time>
      </trkpt>
      <trkpt lat="42.72783" lon="2.01682">
        <ele>1530.08</ele>
        <time>2013-11-28T12:46:59Z</time>
      </trkpt>
      <trkpt lat="42.72783" lon="2.01682">
        <ele>1529.11</ele>
        <time>2013-11-28T12:47:16Z</time>
      </trkpt>
      <trkpt lat="42.72783" lon="2.01682">
        <ele>1529.11</ele>
        <time>2013-11-28T12:47:29Z</time>
      </trkpt>
      <trkpt lat="42.72783" lon="2.01682">
        <ele>1529.11</ele>
        <time>2013-11-28T12:47:41Z</time>
      </trkpt>
      <trkpt lat="42.72782" lon="2.01683">
        <ele>1528.63</ele>
        <time>2013-11-28T12:47:59Z</time>
      </trkpt>
      <trkpt lat="42.72787" lon="2.01689">
        <ele>1528.63</ele>
        <time>2013-11-28T12:48:12Z</time>
      </trkpt>
      <trkpt lat="42.72795" lon="2.01695">
        <ele>1529.11</ele>
        <time>2013-11-28T12:48:26Z</time>
      </trkpt>
      <trkpt lat="42.72799" lon="2.01699">
        <ele>1531.52</ele>
        <time>2013-11-28T12:48:40Z</time>
      </trkpt>
      <trkpt lat="42.72804" lon="2.01713">
        <ele>1531.52</ele>
        <time>2013-11-28T12:48:52Z</time>
      </trkpt>
      <trkpt lat="42.72804" lon="2.01718">
        <ele>1532</ele>
        <time>2013-11-28T12:48:56Z</time>
      </trkpt>
      <trkpt lat="42.72805" lon="2.01734">
        <ele>1530.56</ele>
        <time>2013-11-28T12:49:10Z</time>
      </trkpt>
      <trkpt lat="42.72807" lon="2.01735">
        <ele>1529.11</ele>
        <time>2013-11-28T12:49:23Z</time>
      </trkpt>
      <trkpt lat="42.72808" lon="2.01732">
        <ele>1529.59</ele>
        <time>2013-11-28T12:49:46Z</time>
      </trkpt>
      <trkpt lat="42.72807" lon="2.01733">
        <ele>1530.08</ele>
        <time>2013-11-28T12:50:21Z</time>
      </trkpt>
      <trkpt lat="42.72809" lon="2.01733">
        <ele>1529.11</ele>
        <time>2013-11-28T12:51:00Z</time>
      </trkpt>
      <trkpt lat="42.72808" lon="2.01732">
        <ele>1530.56</ele>
        <time>2013-11-28T12:51:33Z</time>
      </trkpt>
      <trkpt lat="42.72806" lon="2.01734">
        <ele>1530.08</ele>
        <time>2013-11-28T12:52:04Z</time>
      </trkpt>
      <trkpt lat="42.72809" lon="2.01734">
        <ele>1529.11</ele>
        <time>2013-11-28T12:52:46Z</time>
      </trkpt>
      <trkpt lat="42.7281" lon="2.01734">
        <ele>1529.59</ele>
        <time>2013-11-28T12:53:22Z</time>
      </trkpt>
      <trkpt lat="42.72807" lon="2.01734">
        <ele>1529.59</ele>
        <time>2013-11-28T12:54:06Z</time>
      </trkpt>
      <trkpt lat="42.72808" lon="2.01735">
        <ele>1529.11</ele>
        <time>2013-11-28T12:54:49Z</time>
      </trkpt>
      <trkpt lat="42.72809" lon="2.01734">
        <ele>1527.67</ele>
        <time>2013-11-28T12:55:15Z</time>
      </trkpt>
      <trkpt lat="42.72807" lon="2.01732">
        <ele>1528.63</ele>
        <time>2013-11-28T12:55:50Z</time>
      </trkpt>
      <trkpt lat="42.72807" lon="2.01733">
        <ele>1530.56</ele>
        <time>2013-11-28T12:56:24Z</time>
      </trkpt>
      <trkpt lat="42.72807" lon="2.01733">
        <ele>1530.08</ele>
        <time>2013-11-28T12:57:01Z</time>
      </trkpt>
      <trkpt lat="42.72805" lon="2.01739">
        <ele>1529.11</ele>
        <time>2013-11-28T12:57:11Z</time>
      </trkpt>
      <trkpt lat="42.72806" lon="2.0174">
        <ele>1525.27</ele>
        <time>2013-11-28T12:57:50Z</time>
      </trkpt>
      <trkpt lat="42.72806" lon="2.01737">
        <ele>1525.75</ele>
        <time>2013-11-28T12:58:25Z</time>
      </trkpt>
      <trkpt lat="42.72806" lon="2.01737">
        <ele>1527.67</ele>
        <time>2013-11-28T12:58:50Z</time>
      </trkpt>
      <trkpt lat="42.72804" lon="2.01741">
        <ele>1527.19</ele>
        <time>2013-11-28T12:59:07Z</time>
      </trkpt>
      <trkpt lat="42.72805" lon="2.0174">
        <ele>1525.75</ele>
        <time>2013-11-28T12:59:46Z</time>
      </trkpt>
      <trkpt lat="42.72805" lon="2.01739">
        <ele>1524.79</ele>
        <time>2013-11-28T12:59:56Z</time>
      </trkpt>
      <trkpt lat="42.72804" lon="2.01742">
        <ele>1525.75</ele>
        <time>2013-11-28T13:00:04Z</time>
      </trkpt>
      <trkpt lat="42.728" lon="2.01753">
        <ele>1525.27</ele>
        <time>2013-11-28T13:00:08Z</time>
      </trkpt>
      <trkpt lat="42.72798" lon="2.0176">
        <ele>1525.27</ele>
        <time>2013-11-28T13:00:09Z</time>
      </trkpt>
      <trkpt lat="42.72797" lon="2.01768">
        <ele>1525.27</ele>
        <time>2013-11-28T13:00:10Z</time>
      </trkpt>
      <trkpt lat="42.72798" lon="2.01801">
        <ele>1525.27</ele>
        <time>2013-11-28T13:00:14Z</time>
      </trkpt>
      <trkpt lat="42.72826" lon="2.019">
        <ele>1524.79</ele>
        <time>2013-11-28T13:00:25Z</time>
      </trkpt>
      <trkpt lat="42.7283" lon="2.01906">
        <ele>1523.35</ele>
        <time>2013-11-28T13:00:31Z</time>
      </trkpt>
      <trkpt lat="42.72828" lon="2.01904">
        <ele>1520.46</ele>
        <time>2013-11-28T13:00:50Z</time>
      </trkpt>
      <trkpt lat="42.72831" lon="2.01905">
        <ele>1519.5</ele>
        <time>2013-11-28T13:01:14Z</time>
      </trkpt>
    </trkseg>
  </trk>
</gpx>